PWSweather.com
Personal Weather Stations
Station Observations

Enon Chester, VA 23836

Lat: 37.3609267, Lon: -77.31545840000001

Elevation: 89

Station Type: Acurite

http://www.wunderground.com/personal-weather-station/dashboard?ID=KVACHEST67

High Low Average
Temperature 30.9°F-0.6°C 18.1°F-7.7°C 24.8°F-4.0°C
Dew Point 24.5°F-4.2°C -0.6°F-18.1°C 15.1°F-9.4°C
Winds 25.8 mph 41.5 kmh 2.2 mph 3.5 kmh 10.0 mph WSW16.1 kmh WSW
Wind Gusts 25.8 mph41.5 kmh 8.3 mph13.4 kmh 16.0 mph25.7 kmh
Humidity 96% 38% 70%
Pressure 29.98 in1015.2 mb 29.66 in1004.4 mb -
Precipitation 0.00 in0.0 mm - -
Hour Temp Dew Point Humidity Winds Wind Gusts Pressure Precip Precip Rate Daily Precip Total
12:00 AM 25.3°F-3.7°C 24.1°F-4.4°C 95% 7.3 mph NE11.7 kmh NE 9.4 mph15.1 kmh 29.86 in1011.2 mb 0.00 in0.0 mm 0.00 in0.0 mm 0.00 in0.0 mm
12:01 AM 25.3°F-3.7°C 24.1°F-4.4°C 95% 5.8 mph NNE9.3 kmh NNE 9.4 mph15.1 kmh 29.86 in1011.2 mb 0.00 in0.0 mm 0.00 in0.0 mm 0.00 in0.0 mm
12:02 AM 25.3°F-3.7°C 24.1°F-4.4°C 95% 6.3 mph NNE10.1 kmh NNE 8.3 mph13.4 kmh 29.86 in1011.2 mb 0.00 in0.0 mm 0.00 in0.0 mm 0.00 in0.0 mm
12:03 AM 25.3°F-3.7°C 24.1°F-4.4°C 95% 7.8 mph NNE12.6 kmh NNE 8.3 mph13.4 kmh 29.86 in1011.2 mb 0.00 in0.0 mm 0.00 in0.0 mm 0.00 in0.0 mm
12:04 AM 25.3°F-3.7°C 24.1°F-4.4°C 95% 5.8 mph ESE9.3 kmh ESE 8.3 mph13.4 kmh 29.86 in1011.2 mb 0.00 in0.0 mm 0.00 in0.0 mm 0.00 in0.0 mm
12:05 AM 25.3°F-3.7°C 24.1°F-4.4°C 95% 5.3 mph N8.5 kmh N 8.3 mph13.4 kmh 29.85 in1010.8 mb 0.00 in0.0 mm 0.00 in0.0 mm 0.00 in0.0 mm
12:06 AM 25.3°F-3.7°C 24.1°F-4.4°C 95% 7.8 mph N12.6 kmh N 8.3 mph13.4 kmh 29.85 in1010.8 mb 0.00 in0.0 mm 0.00 in0.0 mm 0.00 in0.0 mm
12:07 AM 25.3°F-3.7°C 24.1°F-4.4°C 95% 11.9 mph NNW19.2 kmh NNW 11.9 mph19.2 kmh 29.85 in1010.8 mb 0.00 in0.0 mm 0.00 in0.0 mm 0.00 in0.0 mm
12:08 AM 25.3°F-3.7°C 24.1°F-4.4°C 95% 5.3 mph NE8.5 kmh NE 11.9 mph19.2 kmh 29.85 in1010.8 mb 0.00 in0.0 mm 0.00 in0.0 mm 0.00 in0.0 mm
12:09 AM 25.3°F-3.7°C 24.1°F-4.4°C 95% 4.7 mph NNE7.6 kmh NNE 11.9 mph19.2 kmh 29.85 in1010.8 mb 0.00 in0.0 mm 0.00 in0.0 mm 0.00 in0.0 mm
12:10 AM 25.3°F-3.7°C 24.1°F-4.4°C 95% 8.3 mph NE13.4 kmh NE 11.9 mph19.2 kmh 29.85 in1010.8 mb 0.00 in0.0 mm 0.00 in0.0 mm 0.00 in0.0 mm
12:11 AM 25.3°F-3.7°C 24.1°F-4.4°C 95% 8.9 mph NNE14.3 kmh NNE 11.9 mph19.2 kmh 29.85 in1010.8 mb 0.00 in0.0 mm 0.00 in0.0 mm 0.00 in0.0 mm
12:12 AM 25.3°F-3.7°C 24.1°F-4.4°C 95% 6.3 mph NE10.1 kmh NE 11.9 mph19.2 kmh 29.85 in1010.8 mb 0.00 in0.0 mm 0.00 in0.0 mm 0.00 in0.0 mm
12:13 AM 25.3°F-3.7°C 24.1°F-4.4°C 95% 10.9 mph NNW17.5 kmh NNW 11.9 mph19.2 kmh 29.85 in1010.8 mb 0.00 in0.0 mm 0.00 in0.0 mm 0.00 in0.0 mm
12:14 AM 25.3°F-3.7°C 24.1°F-4.4°C 95% 7.8 mph NE12.6 kmh NE 11.9 mph19.2 kmh 29.85 in1010.8 mb 0.00 in0.0 mm 0.00 in0.0 mm 0.00 in0.0 mm
12:15 AM 25.3°F-3.7°C 24.1°F-4.4°C 95% 7.3 mph NE11.7 kmh NE 11.9 mph19.2 kmh 29.85 in1010.8 mb 0.00 in0.0 mm 0.00 in0.0 mm 0.00 in0.0 mm
12:16 AM 25.3°F-3.7°C 24.1°F-4.4°C 95% 6.8 mph NNE10.9 kmh NNE 11.9 mph19.2 kmh 29.85 in1010.8 mb 0.00 in0.0 mm 0.00 in0.0 mm 0.00 in0.0 mm
12:17 AM 25.3°F-3.7°C 24.1°F-4.4°C 95% 6.3 mph NNE10.1 kmh NNE 11.9 mph19.2 kmh 29.84 in1010.5 mb 0.00 in0.0 mm 0.00 in0.0 mm 0.00 in0.0 mm
12:18 AM 25.3°F-3.7°C 24.1°F-4.4°C 95% 5.8 mph N9.3 kmh N 10.9 mph17.5 kmh 29.84 in1010.5 mb 0.00 in0.0 mm 0.00 in0.0 mm 0.00 in0.0 mm
12:19 AM 25.3°F-3.7°C 24.1°F-4.4°C 95% 6.8 mph N10.9 kmh N 10.9 mph17.5 kmh 29.84 in1010.5 mb 0.00 in0.0 mm 0.00 in0.0 mm 0.00 in0.0 mm
12:20 AM 25.3°F-3.7°C 24.1°F-4.4°C 95% 4.7 mph NNE7.6 kmh NNE 10.9 mph17.5 kmh 29.84 in1010.5 mb 0.00 in0.0 mm 0.00 in0.0 mm 0.00 in0.0 mm
12:21 AM 25.3°F-3.7°C 24.1°F-4.4°C 95% 3.2 mph N5.1 kmh N 10.9 mph17.5 kmh 29.84 in1010.5 mb 0.00 in0.0 mm 0.00 in0.0 mm 0.00 in0.0 mm
12:22 AM 25.3°F-3.7°C 24.1°F-4.4°C 95% 5.3 mph NW8.5 kmh NW 10.9 mph17.5 kmh 29.84 in1010.5 mb 0.00 in0.0 mm 0.00 in0.0 mm 0.00 in0.0 mm
12:23 AM 25.3°F-3.7°C 24.1°F-4.4°C 95% 7.3 mph NNE11.7 kmh NNE 10.9 mph17.5 kmh 29.84 in1010.5 mb 0.00 in0.0 mm 0.00 in0.0 mm 0.00 in0.0 mm
12:24 AM 25.3°F-3.7°C 24.1°F-4.4°C 95% 5.3 mph NE8.5 kmh NE 9.4 mph15.1 kmh 29.84 in1010.5 mb 0.00 in0.0 mm 0.00 in0.0 mm 0.00 in0.0 mm
12:25 AM 25.3°F-3.7°C 24.1°F-4.4°C 95% 7.8 mph NE12.6 kmh NE 9.4 mph15.1 kmh 29.84 in1010.5 mb 0.00 in0.0 mm 0.00 in0.0 mm 0.00 in0.0 mm
12:26 AM 25.3°F-3.7°C 24.1°F-4.4°C 95% 6.3 mph NNE10.1 kmh NNE 9.4 mph15.1 kmh 29.84 in1010.5 mb 0.00 in0.0 mm 0.00 in0.0 mm 0.00 in0.0 mm
12:27 AM 25.3°F-3.7°C 24.1°F-4.4°C 95% 6.8 mph NE10.9 kmh NE 9.4 mph15.1 kmh 29.84 in1010.5 mb 0.00 in0.0 mm 0.00 in0.0 mm 0.00 in0.0 mm
12:28 AM 25.3°F-3.7°C 24.1°F-4.4°C 95% 8.3 mph N13.4 kmh N 10.9 mph17.5 kmh 29.84 in1010.5 mb 0.00 in0.0 mm 0.00 in0.0 mm 0.00 in0.0 mm
12:29 AM 25.3°F-3.7°C 24.1°F-4.4°C 95% 9.9 mph NE15.9 kmh NE 10.9 mph17.5 kmh 29.83 in1010.2 mb 0.00 in0.0 mm 0.00 in0.0 mm 0.00 in0.0 mm
12:30 AM 25.3°F-3.7°C 24.1°F-4.4°C 95% 4.7 mph NNE7.6 kmh NNE 10.9 mph17.5 kmh 29.83 in1010.2 mb 0.00 in0.0 mm 0.00 in0.0 mm 0.00 in0.0 mm
12:31 AM 25.3°F-3.7°C 24.3°F-4.3°C 96% 8.3 mph N13.4 kmh N 10.9 mph17.5 kmh 29.83 in1010.2 mb 0.00 in0.0 mm 0.00 in0.0 mm 0.00 in0.0 mm
12:32 AM 25.3°F-3.7°C 24.3°F-4.3°C 96% 7.8 mph N12.6 kmh N 10.9 mph17.5 kmh 29.83 in1010.2 mb 0.00 in0.0 mm 0.00 in0.0 mm 0.00 in0.0 mm
12:33 AM 25.3°F-3.7°C 24.3°F-4.3°C 96% 9.4 mph E15.1 kmh E 10.9 mph17.5 kmh 29.83 in1010.2 mb 0.00 in0.0 mm 0.00 in0.0 mm 0.00 in0.0 mm
12:34 AM 25.3°F-3.7°C 24.3°F-4.3°C 96% 6.3 mph NNW10.1 kmh NNW 10.9 mph17.5 kmh 29.83 in1010.2 mb 0.00 in0.0 mm 0.00 in0.0 mm 0.00 in0.0 mm
12:35 AM 25.3°F-3.7°C 24.3°F-4.3°C 96% 8.3 mph W13.4 kmh W 10.9 mph17.5 kmh 29.83 in1010.2 mb 0.00 in0.0 mm 0.00 in0.0 mm 0.00 in0.0 mm
12:36 AM 25.3°F-3.7°C 24.3°F-4.3°C 96% 5.8 mph NE9.3 kmh NE 10.9 mph17.5 kmh 29.83 in1010.2 mb 0.00 in0.0 mm 0.00 in0.0 mm 0.00 in0.0 mm
12:37 AM 25.3°F-3.7°C 24.3°F-4.3°C 96% 8.3 mph NNE13.4 kmh NNE 12.5 mph20.1 kmh 29.83 in1010.2 mb 0.00 in0.0 mm 0.00 in0.0 mm 0.00 in0.0 mm
12:38 AM 25.3°F-3.7°C 24.3°F-4.3°C 96% 7.3 mph N11.7 kmh N 12.5 mph20.1 kmh 29.83 in1010.2 mb 0.00 in0.0 mm 0.00 in0.0 mm 0.00 in0.0 mm
12:39 AM 25.3°F-3.7°C 24.3°F-4.3°C 96% 11.9 mph N19.2 kmh N 12.5 mph20.1 kmh 29.83 in1010.2 mb 0.00 in0.0 mm 0.00 in0.0 mm 0.00 in0.0 mm
12:40 AM 25.3°F-3.7°C 24.3°F-4.3°C 96% 8.9 mph NNE14.3 kmh NNE 12.5 mph20.1 kmh 29.83 in1010.2 mb 0.00 in0.0 mm 0.00 in0.0 mm 0.00 in0.0 mm
12:41 AM 25.3°F-3.7°C 24.3°F-4.3°C 96% 7.3 mph NW11.7 kmh NW 12.5 mph20.1 kmh 29.82 in1009.8 mb 0.00 in0.0 mm 0.00 in0.0 mm 0.00 in0.0 mm
12:42 AM 25.3°F-3.7°C 24.3°F-4.3°C 96% 4.7 mph NNW7.6 kmh NNW 12.5 mph20.1 kmh 29.82 in1009.8 mb 0.00 in0.0 mm 0.00 in0.0 mm 0.00 in0.0 mm
12:43 AM 25.3°F-3.7°C 24.3°F-4.3°C 96% 7.8 mph NNW12.6 kmh NNW 12.5 mph20.1 kmh 29.82 in1009.8 mb 0.00 in0.0 mm 0.00 in0.0 mm 0.00 in0.0 mm
12:44 AM 25.3°F-3.7°C 24.3°F-4.3°C 96% 7.3 mph NE11.7 kmh NE 12.5 mph20.1 kmh 29.82 in1009.8 mb 0.00 in0.0 mm 0.00 in0.0 mm 0.00 in0.0 mm
12:45 AM 25.3°F-3.7°C 24.3°F-4.3°C 96% 7.3 mph NNW11.7 kmh NNW 12.5 mph20.1 kmh 29.82 in1009.8 mb 0.00 in0.0 mm 0.00 in0.0 mm 0.00 in0.0 mm
12:46 AM 25.3°F-3.7°C 24.3°F-4.3°C 96% 5.3 mph NNE8.5 kmh NNE 12.5 mph20.1 kmh 29.82 in1009.8 mb 0.00 in0.0 mm 0.00 in0.0 mm 0.00 in0.0 mm
12:47 AM 25.3°F-3.7°C 24.3°F-4.3°C 96% 5.8 mph N9.3 kmh N 11.9 mph19.2 kmh 29.82 in1009.8 mb 0.00 in0.0 mm 0.00 in0.0 mm 0.00 in0.0 mm
12:48 AM 25.3°F-3.7°C 24.3°F-4.3°C 96% 8.9 mph N14.3 kmh N 11.9 mph19.2 kmh 29.82 in1009.8 mb 0.00 in0.0 mm 0.00 in0.0 mm 0.00 in0.0 mm
12:49 AM 25.3°F-3.7°C 24.3°F-4.3°C 96% 14.0 mph NNE22.5 kmh NNE 14.0 mph22.5 kmh 29.82 in1009.8 mb 0.00 in0.0 mm 0.00 in0.0 mm 0.00 in0.0 mm
12:50 AM 25.3°F-3.7°C 24.3°F-4.3°C 96% 5.8 mph NNW9.3 kmh NNW 14.0 mph22.5 kmh 29.82 in1009.8 mb 0.00 in0.0 mm 0.00 in0.0 mm 0.00 in0.0 mm
12:51 AM 25.3°F-3.7°C 24.3°F-4.3°C 96% 9.4 mph NNE15.1 kmh NNE 14.0 mph22.5 kmh 29.82 in1009.8 mb 0.00 in0.0 mm 0.00 in0.0 mm 0.00 in0.0 mm
12:52 AM 25.3°F-3.7°C 24.3°F-4.3°C 96% 6.8 mph NW10.9 kmh NW 14.0 mph22.5 kmh 29.82 in1009.8 mb 0.00 in0.0 mm 0.00 in0.0 mm 0.00 in0.0 mm
12:53 AM 25.3°F-3.7°C 24.3°F-4.3°C 96% 8.9 mph NW14.3 kmh NW 14.0 mph22.5 kmh 29.81 in1009.5 mb 0.00 in0.0 mm 0.00 in0.0 mm 0.00 in0.0 mm
12:54 AM 25.3°F-3.7°C 24.3°F-4.3°C 96% 11.4 mph NE18.3 kmh NE 14.0 mph22.5 kmh 29.81 in1009.5 mb 0.00 in0.0 mm 0.00 in0.0 mm 0.00 in0.0 mm
12:55 AM 25.3°F-3.7°C 24.3°F-4.3°C 96% 10.4 mph N16.7 kmh N 14.0 mph22.5 kmh 29.81 in1009.5 mb 0.00 in0.0 mm 0.00 in0.0 mm 0.00 in0.0 mm
12:56 AM 25.3°F-3.7°C 24.3°F-4.3°C 96% 8.3 mph NNE13.4 kmh NNE 14.0 mph22.5 kmh 29.81 in1009.5 mb 0.00 in0.0 mm 0.00 in0.0 mm 0.00 in0.0 mm
12:57 AM 25.3°F-3.7°C 24.3°F-4.3°C 96% 6.3 mph N10.1 kmh N 14.0 mph22.5 kmh 29.81 in1009.5 mb 0.00 in0.0 mm 0.00 in0.0 mm 0.00 in0.0 mm
12:58 AM 25.3°F-3.7°C 24.3°F-4.3°C 96% 6.8 mph NNE10.9 kmh NNE 14.0 mph22.5 kmh 29.81 in1009.5 mb 0.00 in0.0 mm 0.00 in0.0 mm 0.00 in0.0 mm
12:59 AM 25.3°F-3.7°C 24.3°F-4.3°C 96% 8.9 mph N14.3 kmh N 11.9 mph19.2 kmh 29.81 in1009.5 mb 0.00 in0.0 mm 0.00 in0.0 mm 0.00 in0.0 mm
01:00 AM 25.3°F-3.7°C 24.3°F-4.3°C 96% 8.3 mph NW13.4 kmh NW 11.9 mph19.2 kmh 29.81 in1009.5 mb 0.00 in0.0 mm 0.00 in0.0 mm 0.00 in0.0 mm
01:01 AM 25.3°F-3.7°C 24.3°F-4.3°C 96% 6.8 mph NE10.9 kmh NE 11.9 mph19.2 kmh 29.81 in1009.5 mb 0.00 in0.0 mm 0.00 in0.0 mm 0.00 in0.0 mm
01:02 AM 25.3°F-3.7°C 24.3°F-4.3°C 96% 7.3 mph NE11.7 kmh NE 11.9 mph19.2 kmh 29.81 in1009.5 mb 0.00 in0.0 mm 0.00 in0.0 mm 0.00 in0.0 mm
01:03 AM 25.3°F-3.7°C 24.3°F-4.3°C 96% 7.3 mph NNW11.7 kmh NNW 11.9 mph19.2 kmh 29.81 in1009.5 mb 0.00 in0.0 mm 0.00 in0.0 mm 0.00 in0.0 mm
01:04 AM 25.3°F-3.7°C 24.3°F-4.3°C 96% 10.4 mph NNE16.7 kmh NNE 11.9 mph19.2 kmh 29.81 in1009.5 mb 0.00 in0.0 mm 0.00 in0.0 mm 0.00 in0.0 mm
01:05 AM 25.3°F-3.7°C 24.3°F-4.3°C 96% 8.3 mph NNW13.4 kmh NNW 11.9 mph19.2 kmh 29.80 in1009.1 mb 0.00 in0.0 mm 0.00 in0.0 mm 0.00 in0.0 mm
01:06 AM 25.3°F-3.7°C 24.3°F-4.3°C 96% 9.4 mph NNE15.1 kmh NNE 14.0 mph22.5 kmh 29.80 in1009.1 mb 0.00 in0.0 mm 0.00 in0.0 mm 0.00 in0.0 mm
01:07 AM 25.3°F-3.7°C 24.3°F-4.3°C 96% 8.3 mph NNE13.4 kmh NNE 14.0 mph22.5 kmh 29.80 in1009.1 mb 0.00 in0.0 mm 0.00 in0.0 mm 0.00 in0.0 mm
01:08 AM 25.3°F-3.7°C 24.3°F-4.3°C 96% 7.8 mph N12.6 kmh N 14.0 mph22.5 kmh 29.80 in1009.1 mb 0.00 in0.0 mm 0.00 in0.0 mm 0.00 in0.0 mm
01:09 AM 25.3°F-3.7°C 24.3°F-4.3°C 96% 6.3 mph W10.1 kmh W 14.0 mph22.5 kmh 29.80 in1009.1 mb 0.00 in0.0 mm 0.00 in0.0 mm 0.00 in0.0 mm
01:10 AM 25.3°F-3.7°C 24.3°F-4.3°C 96% 6.8 mph NNE10.9 kmh NNE 14.0 mph22.5 kmh 29.80 in1009.1 mb 0.00 in0.0 mm 0.00 in0.0 mm 0.00 in0.0 mm
01:11 AM 25.3°F-3.7°C 24.3°F-4.3°C 96% 13.0 mph N20.9 kmh N 14.0 mph22.5 kmh 29.80 in1009.1 mb 0.00 in0.0 mm 0.00 in0.0 mm 0.00 in0.0 mm
01:12 AM 25.3°F-3.7°C 24.3°F-4.3°C 96% 8.3 mph N13.4 kmh N 14.0 mph22.5 kmh 29.80 in1009.1 mb 0.00 in0.0 mm 0.00 in0.0 mm 0.00 in0.0 mm
01:13 AM 25.3°F-3.7°C 24.3°F-4.3°C 96% 9.9 mph NNE15.9 kmh NNE 14.0 mph22.5 kmh 29.80 in1009.1 mb 0.00 in0.0 mm 0.00 in0.0 mm 0.00 in0.0 mm
01:14 AM 25.3°F-3.7°C 24.3°F-4.3°C 96% 6.8 mph NNE10.9 kmh NNE 14.0 mph22.5 kmh 29.80 in1009.1 mb 0.00 in0.0 mm 0.00 in0.0 mm 0.00 in0.0 mm
01:15 AM 25.3°F-3.7°C 24.3°F-4.3°C 96% 12.5 mph WNW20.1 kmh WNW 14.0 mph22.5 kmh 29.80 in1009.1 mb 0.00 in0.0 mm 0.00 in0.0 mm 0.00 in0.0 mm
01:19 AM 25.3°F-3.7°C 24.3°F-4.3°C 96% 11.4 mph NNE18.3 kmh NNE 13.0 mph20.9 kmh 29.79 in1008.8 mb 0.00 in0.0 mm 0.00 in0.0 mm 0.00 in0.0 mm
01:20 AM 25.2°F-3.8°C 24.2°F-4.3°C 96% 13.5 mph NNE21.7 kmh NNE 13.5 mph21.7 kmh 29.79 in1008.8 mb 0.00 in0.0 mm 0.00 in0.0 mm 0.00 in0.0 mm
01:21 AM 25.2°F-3.8°C 24.2°F-4.3°C 96% 9.9 mph NNE15.9 kmh NNE 13.5 mph21.7 kmh 29.79 in1008.8 mb 0.00 in0.0 mm 0.00 in0.0 mm 0.00 in0.0 mm
01:22 AM 25.2°F-3.8°C 24.2°F-4.3°C 96% 7.3 mph NNE11.7 kmh NNE 13.5 mph21.7 kmh 29.79 in1008.8 mb 0.00 in0.0 mm 0.00 in0.0 mm 0.00 in0.0 mm
01:23 AM 25.2°F-3.8°C 24.2°F-4.3°C 96% 5.8 mph N9.3 kmh N 13.5 mph21.7 kmh 29.79 in1008.8 mb 0.00 in0.0 mm 0.00 in0.0 mm 0.00 in0.0 mm
01:24 AM 25.2°F-3.8°C 24.2°F-4.3°C 96% 11.4 mph W18.3 kmh W 13.5 mph21.7 kmh 29.79 in1008.8 mb 0.00 in0.0 mm 0.00 in0.0 mm 0.00 in0.0 mm
01:25 AM 25.2°F-3.8°C 24.2°F-4.3°C 96% 4.7 mph NW7.6 kmh NW 13.5 mph21.7 kmh 29.79 in1008.8 mb 0.00 in0.0 mm 0.00 in0.0 mm 0.00 in0.0 mm
01:26 AM 25.2°F-3.8°C 24.2°F-4.3°C 96% 10.4 mph N16.7 kmh N 13.5 mph21.7 kmh 29.79 in1008.8 mb 0.00 in0.0 mm 0.00 in0.0 mm 0.00 in0.0 mm
01:27 AM 25.2°F-3.8°C 24.2°F-4.3°C 96% 8.9 mph NNE14.3 kmh NNE 13.5 mph21.7 kmh 29.79 in1008.8 mb 0.00 in0.0 mm 0.00 in0.0 mm 0.00 in0.0 mm
01:28 AM 25.2°F-3.8°C 24.2°F-4.3°C 96% 7.3 mph N11.7 kmh N 13.5 mph21.7 kmh 29.79 in1008.8 mb 0.00 in0.0 mm 0.00 in0.0 mm 0.00 in0.0 mm
01:29 AM 25.2°F-3.8°C 24.2°F-4.3°C 96% 10.9 mph N17.5 kmh N 13.5 mph21.7 kmh 29.78 in1008.5 mb 0.00 in0.0 mm 0.00 in0.0 mm 0.00 in0.0 mm
01:30 AM 25.2°F-3.8°C 24.2°F-4.3°C 96% 11.4 mph N18.3 kmh N 11.9 mph19.2 kmh 29.78 in1008.5 mb 0.00 in0.0 mm 0.00 in0.0 mm 0.00 in0.0 mm
01:31 AM 25.2°F-3.8°C 24.2°F-4.3°C 96% 8.3 mph NNW13.4 kmh NNW 16.6 mph26.7 kmh 29.78 in1008.5 mb 0.00 in0.0 mm 0.00 in0.0 mm 0.00 in0.0 mm
01:32 AM 25.2°F-3.8°C 24.2°F-4.3°C 96% 7.8 mph N12.6 kmh N 16.6 mph26.7 kmh 29.78 in1008.5 mb 0.00 in0.0 mm 0.00 in0.0 mm 0.00 in0.0 mm
01:33 AM 25.2°F-3.8°C 24.2°F-4.3°C 96% 10.4 mph NNW16.7 kmh NNW 16.6 mph26.7 kmh 29.78 in1008.5 mb 0.00 in0.0 mm 0.00 in0.0 mm 0.00 in0.0 mm
01:38 AM 25.2°F-3.8°C 24.2°F-4.3°C 96% 6.3 mph N10.1 kmh N 16.6 mph26.7 kmh 29.78 in1008.5 mb 0.00 in0.0 mm 0.00 in0.0 mm 0.00 in0.0 mm
01:39 AM 25.2°F-3.8°C 24.2°F-4.3°C 96% 5.8 mph N9.3 kmh N 16.6 mph26.7 kmh 29.78 in1008.5 mb 0.00 in0.0 mm 0.00 in0.0 mm 0.00 in0.0 mm
01:40 AM 25.2°F-3.8°C 24.2°F-4.3°C 96% 8.3 mph NW13.4 kmh NW 16.6 mph26.7 kmh 29.78 in1008.5 mb 0.00 in0.0 mm 0.00 in0.0 mm 0.00 in0.0 mm
01:41 AM 25.2°F-3.8°C 24.2°F-4.3°C 96% 5.3 mph N8.5 kmh N 12.5 mph20.1 kmh 29.77 in1008.1 mb 0.00 in0.0 mm 0.00 in0.0 mm 0.00 in0.0 mm
01:42 AM 25.2°F-3.8°C 24.2°F-4.3°C 96% 10.4 mph NNE16.7 kmh NNE 12.5 mph20.1 kmh 29.77 in1008.1 mb 0.00 in0.0 mm 0.00 in0.0 mm 0.00 in0.0 mm
01:43 AM 25.2°F-3.8°C 24.2°F-4.3°C 96% 9.4 mph N15.1 kmh N 12.5 mph20.1 kmh 29.77 in1008.1 mb 0.00 in0.0 mm 0.00 in0.0 mm 0.00 in0.0 mm
01:44 AM 25.2°F-3.8°C 24.2°F-4.3°C 96% 12.5 mph N20.1 kmh N 14.0 mph22.5 kmh 29.77 in1008.1 mb 0.00 in0.0 mm 0.00 in0.0 mm 0.00 in0.0 mm
01:45 AM 25.2°F-3.8°C 24.2°F-4.3°C 96% 11.4 mph NNW18.3 kmh NNW 14.0 mph22.5 kmh 29.77 in1008.1 mb 0.00 in0.0 mm 0.00 in0.0 mm 0.00 in0.0 mm
01:46 AM 25.2°F-3.8°C 24.2°F-4.3°C 96% 6.8 mph NNE10.9 kmh NNE 14.0 mph22.5 kmh 29.77 in1008.1 mb 0.00 in0.0 mm 0.00 in0.0 mm 0.00 in0.0 mm
01:47 AM 25.2°F-3.8°C 24.2°F-4.3°C 96% 6.8 mph NNE10.9 kmh NNE 14.0 mph22.5 kmh 29.77 in1008.1 mb 0.00 in0.0 mm 0.00 in0.0 mm 0.00 in0.0 mm
01:48 AM 25.2°F-3.8°C 24.2°F-4.3°C 96% 12.5 mph NNW20.1 kmh NNW 14.0 mph22.5 kmh 29.77 in1008.1 mb 0.00 in0.0 mm 0.00 in0.0 mm 0.00 in0.0 mm
01:49 AM 25.2°F-3.8°C 24.2°F-4.3°C 96% 7.3 mph NNE11.7 kmh NNE 14.0 mph22.5 kmh 29.77 in1008.1 mb 0.00 in0.0 mm 0.00 in0.0 mm 0.00 in0.0 mm
01:50 AM 25.2°F-3.8°C 24.2°F-4.3°C 96% 3.7 mph WNW6.0 kmh WNW 14.0 mph22.5 kmh 29.77 in1008.1 mb 0.00 in0.0 mm 0.00 in0.0 mm 0.00 in0.0 mm
01:51 AM 25.2°F-3.8°C 24.2°F-4.3°C 96% 8.9 mph NNW14.3 kmh NNW 14.0 mph22.5 kmh 29.77 in1008.1 mb 0.00 in0.0 mm 0.00 in0.0 mm 0.00 in0.0 mm
01:52 AM 25.2°F-3.8°C 24.2°F-4.3°C 96% 5.3 mph ENE8.5 kmh ENE 14.0 mph22.5 kmh 29.77 in1008.1 mb 0.00 in0.0 mm 0.00 in0.0 mm 0.00 in0.0 mm
01:53 AM 25.2°F-3.8°C 24.2°F-4.3°C 96% 8.3 mph N13.4 kmh N 14.0 mph22.5 kmh 29.77 in1008.1 mb 0.00 in0.0 mm 0.00 in0.0 mm 0.00 in0.0 mm
01:54 AM 25.2°F-3.8°C 24.2°F-4.3°C 96% 5.3 mph N8.5 kmh N 13.5 mph21.7 kmh 29.77 in1008.1 mb 0.00 in0.0 mm 0.00 in0.0 mm 0.00 in0.0 mm
01:55 AM 25.2°F-3.8°C 24.2°F-4.3°C 96% 10.4 mph W16.7 kmh W 13.5 mph21.7 kmh 29.77 in1008.1 mb 0.00 in0.0 mm 0.00 in0.0 mm 0.00 in0.0 mm
01:56 AM 25.2°F-3.8°C 24.2°F-4.3°C 96% 5.8 mph W9.3 kmh W 12.5 mph20.1 kmh 29.77 in1008.1 mb 0.00 in0.0 mm 0.00 in0.0 mm 0.00 in0.0 mm
01:57 AM 25.2°F-3.8°C 24.2°F-4.3°C 96% 8.9 mph NE14.3 kmh NE 13.0 mph20.9 kmh 29.77 in1008.1 mb 0.00 in0.0 mm 0.00 in0.0 mm 0.00 in0.0 mm
01:58 AM 25.2°F-3.8°C 24.2°F-4.3°C 96% 7.3 mph NE11.7 kmh NE 13.0 mph20.9 kmh 29.77 in1008.1 mb 0.00 in0.0 mm 0.00 in0.0 mm 0.00 in0.0 mm
01:59 AM 25.2°F-3.8°C 24.2°F-4.3°C 96% 7.8 mph NNW12.6 kmh NNW 13.0 mph20.9 kmh 29.77 in1008.1 mb 0.00 in0.0 mm 0.00 in0.0 mm 0.00 in0.0 mm
02:00 AM 25.2°F-3.8°C 24.2°F-4.3°C 96% 7.3 mph N11.7 kmh N 13.0 mph20.9 kmh 29.77 in1008.1 mb 0.00 in0.0 mm 0.00 in0.0 mm 0.00 in0.0 mm
02:01 AM 25.2°F-3.8°C 24.2°F-4.3°C 96% 5.8 mph N9.3 kmh N 13.0 mph20.9 kmh 29.77 in1008.1 mb 0.00 in0.0 mm 0.00 in0.0 mm 0.00 in0.0 mm
02:02 AM 25.2°F-3.8°C 24.2°F-4.3°C 96% 7.8 mph N12.6 kmh N 13.0 mph20.9 kmh 29.77 in1008.1 mb 0.00 in0.0 mm 0.00 in0.0 mm 0.00 in0.0 mm
02:03 AM 25.2°F-3.8°C 24.2°F-4.3°C 96% 8.9 mph SW14.3 kmh SW 13.0 mph20.9 kmh 29.77 in1008.1 mb 0.00 in0.0 mm 0.00 in0.0 mm 0.00 in0.0 mm
02:04 AM 25.2°F-3.8°C 24.2°F-4.3°C 96% 8.3 mph NNW13.4 kmh NNW 13.0 mph20.9 kmh 29.77 in1008.1 mb 0.00 in0.0 mm 0.00 in0.0 mm 0.00 in0.0 mm
02:05 AM 25.2°F-3.8°C 24.2°F-4.3°C 96% 8.9 mph NNE14.3 kmh NNE 13.0 mph20.9 kmh 29.76 in1007.8 mb 0.00 in0.0 mm 0.00 in0.0 mm 0.00 in0.0 mm
02:06 AM 25.2°F-3.8°C 24.2°F-4.3°C 96% 9.9 mph NE15.9 kmh NE 13.0 mph20.9 kmh 29.76 in1007.8 mb 0.00 in0.0 mm 0.00 in0.0 mm 0.00 in0.0 mm
02:07 AM 25.2°F-3.8°C 24.2°F-4.3°C 96% 6.3 mph NNE10.1 kmh NNE 9.9 mph15.9 kmh 29.76 in1007.8 mb 0.00 in0.0 mm 0.00 in0.0 mm 0.00 in0.0 mm
02:08 AM 25.3°F-3.7°C 24.3°F-4.3°C 96% 8.9 mph NE14.3 kmh NE 9.9 mph15.9 kmh 29.76 in1007.8 mb 0.00 in0.0 mm 0.00 in0.0 mm 0.00 in0.0 mm
02:09 AM 25.3°F-3.7°C 24.3°F-4.3°C 96% 10.9 mph NE17.5 kmh NE 13.5 mph21.7 kmh 29.76 in1007.8 mb 0.00 in0.0 mm 0.00 in0.0 mm 0.00 in0.0 mm
02:10 AM 25.3°F-3.7°C 24.3°F-4.3°C 96% 7.8 mph N12.6 kmh N 13.5 mph21.7 kmh 29.76 in1007.8 mb 0.00 in0.0 mm 0.00 in0.0 mm 0.00 in0.0 mm
02:11 AM 25.3°F-3.7°C 24.3°F-4.3°C 96% 8.3 mph NNE13.4 kmh NNE 13.5 mph21.7 kmh 29.76 in1007.8 mb 0.00 in0.0 mm 0.00 in0.0 mm 0.00 in0.0 mm
02:12 AM 25.3°F-3.7°C 24.3°F-4.3°C 96% 8.9 mph NW14.3 kmh NW 13.5 mph21.7 kmh 29.76 in1007.8 mb 0.00 in0.0 mm 0.00 in0.0 mm 0.00 in0.0 mm
02:13 AM 25.3°F-3.7°C 24.3°F-4.3°C 96% 10.4 mph NNW16.7 kmh NNW 13.5 mph21.7 kmh 29.76 in1007.8 mb 0.00 in0.0 mm 0.00 in0.0 mm 0.00 in0.0 mm
02:14 AM 25.3°F-3.7°C 24.3°F-4.3°C 96% 11.9 mph NE19.2 kmh NE 13.5 mph21.7 kmh 29.76 in1007.8 mb 0.00 in0.0 mm 0.00 in0.0 mm 0.00 in0.0 mm
02:15 AM 25.3°F-3.7°C 24.3°F-4.3°C 96% 9.9 mph N15.9 kmh N 13.5 mph21.7 kmh 29.76 in1007.8 mb 0.00 in0.0 mm 0.00 in0.0 mm 0.00 in0.0 mm
02:16 AM 25.5°F-3.6°C 24.5°F-4.2°C 96% 8.3 mph N13.4 kmh N 13.5 mph21.7 kmh 29.76 in1007.8 mb 0.00 in0.0 mm 0.00 in0.0 mm 0.00 in0.0 mm
02:17 AM 25.5°F-3.6°C 24.5°F-4.2°C 96% 7.3 mph NE11.7 kmh NE 13.5 mph21.7 kmh 29.76 in1007.8 mb 0.00 in0.0 mm 0.00 in0.0 mm 0.00 in0.0 mm
02:18 AM 25.5°F-3.6°C 24.5°F-4.2°C 96% 8.3 mph NW13.4 kmh NW 13.5 mph21.7 kmh 29.76 in1007.8 mb 0.00 in0.0 mm 0.00 in0.0 mm 0.00 in0.0 mm
02:19 AM 25.5°F-3.6°C 24.5°F-4.2°C 96% 9.9 mph W15.9 kmh W 11.9 mph19.2 kmh 29.76 in1007.8 mb 0.00 in0.0 mm 0.00 in0.0 mm 0.00 in0.0 mm
02:20 AM 25.5°F-3.6°C 24.5°F-4.2°C 96% 8.3 mph NNE13.4 kmh NNE 11.9 mph19.2 kmh 29.76 in1007.8 mb 0.00 in0.0 mm 0.00 in0.0 mm 0.00 in0.0 mm
02:21 AM 25.5°F-3.6°C 24.5°F-4.2°C 96% 7.3 mph NNE11.7 kmh NNE 11.9 mph19.2 kmh 29.76 in1007.8 mb 0.00 in0.0 mm 0.00 in0.0 mm 0.00 in0.0 mm
02:22 AM 25.5°F-3.6°C 24.5°F-4.2°C 96% 7.3 mph NNE11.7 kmh NNE 11.9 mph19.2 kmh 29.76 in1007.8 mb 0.00 in0.0 mm 0.00 in0.0 mm 0.00 in0.0 mm
02:23 AM 25.5°F-3.6°C 24.5°F-4.2°C 96% 8.3 mph NNE13.4 kmh NNE 11.9 mph19.2 kmh 29.76 in1007.8 mb 0.00 in0.0 mm 0.00 in0.0 mm 0.00 in0.0 mm
02:24 AM 25.5°F-3.6°C 24.5°F-4.2°C 96% 7.8 mph NNE12.6 kmh NNE 11.9 mph19.2 kmh 29.76 in1007.8 mb 0.00 in0.0 mm 0.00 in0.0 mm 0.00 in0.0 mm
02:25 AM 25.5°F-3.6°C 24.5°F-4.2°C 96% 6.3 mph NNE10.1 kmh NNE 11.9 mph19.2 kmh 29.76 in1007.8 mb 0.00 in0.0 mm 0.00 in0.0 mm 0.00 in0.0 mm
02:26 AM 25.5°F-3.6°C 24.5°F-4.2°C 96% 14.5 mph NNE23.3 kmh NNE 14.5 mph23.3 kmh 29.76 in1007.8 mb 0.00 in0.0 mm 0.00 in0.0 mm 0.00 in0.0 mm
02:27 AM 25.5°F-3.6°C 24.3°F-4.3°C 95% 12.5 mph NNE20.1 kmh NNE 14.5 mph23.3 kmh 29.76 in1007.8 mb 0.00 in0.0 mm 0.00 in0.0 mm 0.00 in0.0 mm
02:28 AM 25.5°F-3.6°C 24.3°F-4.3°C 95% 7.3 mph N11.7 kmh N 14.5 mph23.3 kmh 29.76 in1007.8 mb 0.00 in0.0 mm 0.00 in0.0 mm 0.00 in0.0 mm
02:29 AM 25.5°F-3.6°C 24.3°F-4.3°C 95% 8.3 mph NNW13.4 kmh NNW 14.5 mph23.3 kmh 29.75 in1007.5 mb 0.00 in0.0 mm 0.00 in0.0 mm 0.00 in0.0 mm
02:30 AM 25.5°F-3.6°C 24.3°F-4.3°C 95% 9.4 mph N15.1 kmh N 15.0 mph24.1 kmh 29.75 in1007.5 mb 0.00 in0.0 mm 0.00 in0.0 mm 0.00 in0.0 mm
02:31 AM 25.5°F-3.6°C 24.3°F-4.3°C 95% 10.4 mph N16.7 kmh N 15.0 mph24.1 kmh 29.75 in1007.5 mb 0.00 in0.0 mm 0.00 in0.0 mm 0.00 in0.0 mm
02:32 AM 25.5°F-3.6°C 24.3°F-4.3°C 95% 12.5 mph N20.1 kmh N 15.0 mph24.1 kmh 29.75 in1007.5 mb 0.00 in0.0 mm 0.00 in0.0 mm 0.00 in0.0 mm
02:33 AM 25.5°F-3.6°C 24.3°F-4.3°C 95% 10.4 mph NNE16.7 kmh NNE 15.0 mph24.1 kmh 29.75 in1007.5 mb 0.00 in0.0 mm 0.00 in0.0 mm 0.00 in0.0 mm
02:34 AM 25.5°F-3.6°C 24.3°F-4.3°C 95% 7.8 mph NNW12.6 kmh NNW 15.0 mph24.1 kmh 29.75 in1007.5 mb 0.00 in0.0 mm 0.00 in0.0 mm 0.00 in0.0 mm
02:35 AM 25.7°F-3.5°C 24.5°F-4.2°C 95% 9.4 mph NNW15.1 kmh NNW 16.1 mph25.9 kmh 29.75 in1007.5 mb 0.00 in0.0 mm 0.00 in0.0 mm 0.00 in0.0 mm
02:36 AM 25.7°F-3.5°C 24.5°F-4.2°C 95% 9.4 mph ENE15.1 kmh ENE 16.1 mph25.9 kmh 29.75 in1007.5 mb 0.00 in0.0 mm 0.00 in0.0 mm 0.00 in0.0 mm
02:37 AM 25.7°F-3.5°C 24.5°F-4.2°C 95% 6.3 mph S10.1 kmh S 16.1 mph25.9 kmh 29.75 in1007.5 mb 0.00 in0.0 mm 0.00 in0.0 mm 0.00 in0.0 mm
02:38 AM 25.7°F-3.5°C 24.5°F-4.2°C 95% 14.0 mph NNW22.5 kmh NNW 16.1 mph25.9 kmh 29.75 in1007.5 mb 0.00 in0.0 mm 0.00 in0.0 mm 0.00 in0.0 mm
02:39 AM 25.7°F-3.5°C 24.5°F-4.2°C 95% 9.4 mph N15.1 kmh N 16.1 mph25.9 kmh 29.75 in1007.5 mb 0.00 in0.0 mm 0.00 in0.0 mm 0.00 in0.0 mm
02:40 AM 25.7°F-3.5°C 24.5°F-4.2°C 95% 7.3 mph N11.7 kmh N 16.1 mph25.9 kmh 29.75 in1007.5 mb 0.00 in0.0 mm 0.00 in0.0 mm 0.00 in0.0 mm
02:41 AM 25.7°F-3.5°C 24.5°F-4.2°C 95% 6.8 mph NNW10.9 kmh NNW 16.1 mph25.9 kmh 29.74 in1007.1 mb 0.00 in0.0 mm 0.00 in0.0 mm 0.00 in0.0 mm
02:42 AM 25.7°F-3.5°C 24.5°F-4.2°C 95% 11.4 mph NNW18.3 kmh NNW 16.1 mph25.9 kmh 29.74 in1007.1 mb 0.00 in0.0 mm 0.00 in0.0 mm 0.00 in0.0 mm
02:43 AM 25.7°F-3.5°C 24.5°F-4.2°C 95% 10.9 mph NE17.5 kmh NE 16.1 mph25.9 kmh 29.74 in1007.1 mb 0.00 in0.0 mm 0.00 in0.0 mm 0.00 in0.0 mm
02:44 AM 25.7°F-3.5°C 24.5°F-4.2°C 95% 6.8 mph NNW10.9 kmh NNW 16.1 mph25.9 kmh 29.74 in1007.1 mb 0.00 in0.0 mm 0.00 in0.0 mm 0.00 in0.0 mm
02:45 AM 25.7°F-3.5°C 24.5°F-4.2°C 95% 9.4 mph N15.1 kmh N 14.0 mph22.5 kmh 29.74 in1007.1 mb 0.00 in0.0 mm 0.00 in0.0 mm 0.00 in0.0 mm
02:46 AM 25.7°F-3.5°C 24.5°F-4.2°C 95% 8.9 mph N14.3 kmh N 14.0 mph22.5 kmh 29.74 in1007.1 mb 0.00 in0.0 mm 0.00 in0.0 mm 0.00 in0.0 mm
02:47 AM 25.7°F-3.5°C 24.5°F-4.2°C 95% 6.8 mph N10.9 kmh N 14.0 mph22.5 kmh 29.74 in1007.1 mb 0.00 in0.0 mm 0.00 in0.0 mm 0.00 in0.0 mm
02:48 AM 25.7°F-3.5°C 24.5°F-4.2°C 95% 8.3 mph W13.4 kmh W 14.0 mph22.5 kmh 29.74 in1007.1 mb 0.00 in0.0 mm 0.00 in0.0 mm 0.00 in0.0 mm
02:49 AM 25.7°F-3.5°C 24.5°F-4.2°C 95% 10.4 mph W16.7 kmh W 13.5 mph21.7 kmh 29.74 in1007.1 mb 0.00 in0.0 mm 0.00 in0.0 mm 0.00 in0.0 mm
02:50 AM 25.7°F-3.5°C 24.5°F-4.2°C 95% 10.9 mph NNW17.5 kmh NNW 13.5 mph21.7 kmh 29.74 in1007.1 mb 0.00 in0.0 mm 0.00 in0.0 mm 0.00 in0.0 mm
02:51 AM 25.7°F-3.5°C 24.5°F-4.2°C 95% 9.4 mph NNE15.1 kmh NNE 13.5 mph21.7 kmh 29.74 in1007.1 mb 0.00 in0.0 mm 0.00 in0.0 mm 0.00 in0.0 mm
02:52 AM 25.7°F-3.5°C 24.5°F-4.2°C 95% 11.4 mph NNE18.3 kmh NNE 13.5 mph21.7 kmh 29.74 in1007.1 mb 0.00 in0.0 mm 0.00 in0.0 mm 0.00 in0.0 mm
02:53 AM 25.7°F-3.5°C 24.5°F-4.2°C 95% 7.3 mph NNE11.7 kmh NNE 13.5 mph21.7 kmh 29.73 in1006.8 mb 0.00 in0.0 mm 0.00 in0.0 mm 0.00 in0.0 mm
02:54 AM 25.7°F-3.5°C 24.5°F-4.2°C 95% 7.8 mph N12.6 kmh N 13.5 mph21.7 kmh 29.73 in1006.8 mb 0.00 in0.0 mm 0.00 in0.0 mm 0.00 in0.0 mm
02:55 AM 25.7°F-3.5°C 24.5°F-4.2°C 95% 10.4 mph N16.7 kmh N 13.0 mph20.9 kmh 29.73 in1006.8 mb 0.00 in0.0 mm 0.00 in0.0 mm 0.00 in0.0 mm
02:56 AM 25.7°F-3.5°C 24.5°F-4.2°C 95% 14.0 mph NNE22.5 kmh NNE 14.0 mph22.5 kmh 29.73 in1006.8 mb 0.00 in0.0 mm 0.00 in0.0 mm 0.00 in0.0 mm
02:57 AM 25.7°F-3.5°C 24.5°F-4.2°C 95% 6.8 mph NNW10.9 kmh NNW 14.0 mph22.5 kmh 29.73 in1006.8 mb 0.00 in0.0 mm 0.00 in0.0 mm 0.00 in0.0 mm
02:58 AM 25.7°F-3.5°C 24.5°F-4.2°C 95% 9.4 mph N15.1 kmh N 14.0 mph22.5 kmh 29.73 in1006.8 mb 0.00 in0.0 mm 0.00 in0.0 mm 0.00 in0.0 mm
02:59 AM 25.7°F-3.5°C 24.5°F-4.2°C 95% 10.4 mph N16.7 kmh N 17.6 mph28.3 kmh 29.73 in1006.8 mb 0.00 in0.0 mm 0.00 in0.0 mm 0.00 in0.0 mm
03:00 AM 25.7°F-3.5°C 24.5°F-4.2°C 95% 13.0 mph NE20.9 kmh NE 18.6 mph29.9 kmh 29.73 in1006.8 mb 0.00 in0.0 mm 0.00 in0.0 mm 0.00 in0.0 mm
03:01 AM 25.7°F-3.5°C 24.5°F-4.2°C 95% 17.6 mph NE28.3 kmh NE 18.6 mph29.9 kmh 29.73 in1006.8 mb 0.00 in0.0 mm 0.00 in0.0 mm 0.00 in0.0 mm
03:02 AM 25.7°F-3.5°C 24.5°F-4.2°C 95% 9.9 mph WNW15.9 kmh WNW 18.6 mph29.9 kmh 29.73 in1006.8 mb 0.00 in0.0 mm 0.00 in0.0 mm 0.00 in0.0 mm
03:03 AM 25.7°F-3.5°C 24.5°F-4.2°C 95% 5.8 mph NNE9.3 kmh NNE 18.6 mph29.9 kmh 29.73 in1006.8 mb 0.00 in0.0 mm 0.00 in0.0 mm 0.00 in0.0 mm
03:04 AM 25.5°F-3.6°C 24.3°F-4.3°C 95% 12.5 mph NNE20.1 kmh NNE 18.6 mph29.9 kmh 29.73 in1006.8 mb 0.00 in0.0 mm 0.00 in0.0 mm 0.00 in0.0 mm
03:05 AM 25.5°F-3.6°C 24.3°F-4.3°C 95% 10.4 mph WNW16.7 kmh WNW 18.6 mph29.9 kmh 29.71 in1006.1 mb 0.00 in0.0 mm 0.00 in0.0 mm 0.00 in0.0 mm
03:06 AM 25.5°F-3.6°C 24.3°F-4.3°C 95% 13.0 mph N20.9 kmh N 18.6 mph29.9 kmh 29.71 in1006.1 mb 0.00 in0.0 mm 0.00 in0.0 mm 0.00 in0.0 mm
03:07 AM 25.5°F-3.6°C 24.3°F-4.3°C 95% 17.6 mph NNW28.3 kmh NNW 18.6 mph29.9 kmh 29.71 in1006.1 mb 0.00 in0.0 mm 0.00 in0.0 mm 0.00 in0.0 mm
03:08 AM 25.5°F-3.6°C 24.3°F-4.3°C 95% 10.9 mph NW17.5 kmh NW 18.6 mph29.9 kmh 29.71 in1006.1 mb 0.00 in0.0 mm 0.00 in0.0 mm 0.00 in0.0 mm
03:09 AM 25.5°F-3.6°C 24.3°F-4.3°C 95% 11.9 mph NNE19.2 kmh NNE 18.6 mph29.9 kmh 29.71 in1006.1 mb 0.00 in0.0 mm 0.00 in0.0 mm 0.00 in0.0 mm
03:10 AM 25.5°F-3.6°C 24.3°F-4.3°C 95% 10.4 mph N16.7 kmh N 17.6 mph28.3 kmh 29.71 in1006.1 mb 0.00 in0.0 mm 0.00 in0.0 mm 0.00 in0.0 mm
03:11 AM 25.5°F-3.6°C 24.3°F-4.3°C 95% 9.4 mph N15.1 kmh N 17.6 mph28.3 kmh 29.71 in1006.1 mb 0.00 in0.0 mm 0.00 in0.0 mm 0.00 in0.0 mm
03:12 AM 25.5°F-3.6°C 24.3°F-4.3°C 95% 10.9 mph N17.5 kmh N 17.6 mph28.3 kmh 29.71 in1006.1 mb 0.00 in0.0 mm 0.00 in0.0 mm 0.00 in0.0 mm
03:13 AM 25.5°F-3.6°C 24.3°F-4.3°C 95% 8.9 mph N14.3 kmh N 17.6 mph28.3 kmh 29.71 in1006.1 mb 0.00 in0.0 mm 0.00 in0.0 mm 0.00 in0.0 mm
03:14 AM 25.5°F-3.6°C 24.3°F-4.3°C 95% 11.4 mph NNW18.3 kmh NNW 17.6 mph28.3 kmh 29.71 in1006.1 mb 0.00 in0.0 mm 0.00 in0.0 mm 0.00 in0.0 mm
03:15 AM 25.3°F-3.7°C 24.1°F-4.4°C 95% 11.9 mph NNE19.2 kmh NNE 17.6 mph28.3 kmh 29.71 in1006.1 mb 0.00 in0.0 mm 0.00 in0.0 mm 0.00 in0.0 mm
03:16 AM 25.3°F-3.7°C 24.1°F-4.4°C 95% 8.9 mph NNE14.3 kmh NNE 17.6 mph28.3 kmh 29.71 in1006.1 mb 0.00 in0.0 mm 0.00 in0.0 mm 0.00 in0.0 mm
03:17 AM 25.3°F-3.7°C 24.1°F-4.4°C 95% 5.8 mph NE9.3 kmh NE 17.6 mph28.3 kmh 29.71 in1006.1 mb 0.00 in0.0 mm 0.00 in0.0 mm 0.00 in0.0 mm
03:18 AM 25.3°F-3.7°C 24.1°F-4.4°C 95% 11.4 mph NNE18.3 kmh NNE 15.0 mph24.1 kmh 29.71 in1006.1 mb 0.00 in0.0 mm 0.00 in0.0 mm 0.00 in0.0 mm
03:19 AM 25.3°F-3.7°C 24.1°F-4.4°C 95% 9.9 mph NNE15.9 kmh NNE 15.0 mph24.1 kmh 29.71 in1006.1 mb 0.00 in0.0 mm 0.00 in0.0 mm 0.00 in0.0 mm
03:20 AM 25.3°F-3.7°C 23.8°F-4.6°C 94% 10.4 mph NNW16.7 kmh NNW 16.1 mph25.9 kmh 29.71 in1006.1 mb 0.00 in0.0 mm 0.00 in0.0 mm 0.00 in0.0 mm
03:21 AM 25.3°F-3.7°C 23.8°F-4.6°C 94% 9.9 mph NNE15.9 kmh NNE 16.1 mph25.9 kmh 29.71 in1006.1 mb 0.00 in0.0 mm 0.00 in0.0 mm 0.00 in0.0 mm
03:22 AM 25.3°F-3.7°C 23.8°F-4.6°C 94% 15.5 mph NW24.9 kmh NW 16.1 mph25.9 kmh 29.71 in1006.1 mb 0.00 in0.0 mm 0.00 in0.0 mm 0.00 in0.0 mm
03:23 AM 25.3°F-3.7°C 23.8°F-4.6°C 94% 13.0 mph WSW20.9 kmh WSW 16.1 mph25.9 kmh 29.71 in1006.1 mb 0.00 in0.0 mm 0.00 in0.0 mm 0.00 in0.0 mm
03:24 AM 25.3°F-3.7°C 23.8°F-4.6°C 94% 14.5 mph N23.3 kmh N 17.1 mph27.5 kmh 29.71 in1006.1 mb 0.00 in0.0 mm 0.00 in0.0 mm 0.00 in0.0 mm
03:25 AM 25.3°F-3.7°C 23.8°F-4.6°C 94% 12.5 mph NNW20.1 kmh NNW 17.1 mph27.5 kmh 29.71 in1006.1 mb 0.00 in0.0 mm 0.00 in0.0 mm 0.00 in0.0 mm
03:26 AM 25.3°F-3.7°C 23.8°F-4.6°C 94% 7.3 mph NW11.7 kmh NW 17.1 mph27.5 kmh 29.71 in1006.1 mb 0.00 in0.0 mm 0.00 in0.0 mm 0.00 in0.0 mm
03:27 AM 25.3°F-3.7°C 23.8°F-4.6°C 94% 9.9 mph N15.9 kmh N 17.1 mph27.5 kmh 29.71 in1006.1 mb 0.00 in0.0 mm 0.00 in0.0 mm 0.00 in0.0 mm
03:28 AM 25.3°F-3.7°C 23.8°F-4.6°C 94% 11.4 mph NNE18.3 kmh NNE 20.2 mph32.5 kmh 29.71 in1006.1 mb 0.00 in0.0 mm 0.00 in0.0 mm 0.00 in0.0 mm
03:29 AM 25.3°F-3.7°C 23.8°F-4.6°C 94% 10.9 mph NNE17.5 kmh NNE 20.2 mph32.5 kmh 29.70 in1005.8 mb 0.00 in0.0 mm 0.00 in0.0 mm 0.00 in0.0 mm
03:30 AM 25.3°F-3.7°C 23.8°F-4.6°C 94% 8.3 mph N13.4 kmh N 20.2 mph32.5 kmh 29.70 in1005.8 mb 0.00 in0.0 mm 0.00 in0.0 mm 0.00 in0.0 mm
03:31 AM 25.3°F-3.7°C 23.8°F-4.6°C 94% 10.9 mph WNW17.5 kmh WNW 20.2 mph32.5 kmh 29.70 in1005.8 mb 0.00 in0.0 mm 0.00 in0.0 mm 0.00 in0.0 mm
03:32 AM 25.2°F-3.8°C 23.7°F-4.6°C 94% 11.4 mph NE18.3 kmh NE 20.2 mph32.5 kmh 29.70 in1005.8 mb 0.00 in0.0 mm 0.00 in0.0 mm 0.00 in0.0 mm
03:33 AM 25.2°F-3.8°C 23.7°F-4.6°C 94% 12.5 mph NNW20.1 kmh NNW 20.2 mph32.5 kmh 29.70 in1005.8 mb 0.00 in0.0 mm 0.00 in0.0 mm 0.00 in0.0 mm
03:34 AM 25.2°F-3.8°C 23.7°F-4.6°C 94% 9.9 mph NNW15.9 kmh NNW 20.2 mph32.5 kmh 29.70 in1005.8 mb 0.00 in0.0 mm 0.00 in0.0 mm 0.00 in0.0 mm
03:35 AM 25.2°F-3.8°C 23.7°F-4.6°C 94% 7.3 mph N11.7 kmh N 20.2 mph32.5 kmh 29.70 in1005.8 mb 0.00 in0.0 mm 0.00 in0.0 mm 0.00 in0.0 mm
03:40 AM 25.2°F-3.8°C 23.5°F-4.7°C 93% 12.5 mph N20.1 kmh N 14.5 mph23.3 kmh 29.70 in1005.8 mb 0.00 in0.0 mm 0.00 in0.0 mm 0.00 in0.0 mm
03:41 AM 25.2°F-3.8°C 23.5°F-4.7°C 93% 14.0 mph NNW22.5 kmh NNW 14.5 mph23.3 kmh 29.70 in1005.8 mb 0.00 in0.0 mm 0.00 in0.0 mm 0.00 in0.0 mm
03:42 AM 25.2°F-3.8°C 23.5°F-4.7°C 93% 8.9 mph ESE14.3 kmh ESE 15.5 mph24.9 kmh 29.70 in1005.8 mb 0.00 in0.0 mm 0.00 in0.0 mm 0.00 in0.0 mm
03:43 AM 25.2°F-3.8°C 23.7°F-4.6°C 94% 8.3 mph ESE13.4 kmh ESE 15.5 mph24.9 kmh 29.70 in1005.8 mb 0.00 in0.0 mm 0.00 in0.0 mm 0.00 in0.0 mm
03:44 AM 25.2°F-3.8°C 23.7°F-4.6°C 94% 9.9 mph N15.9 kmh N 15.5 mph24.9 kmh 29.70 in1005.8 mb 0.00 in0.0 mm 0.00 in0.0 mm 0.00 in0.0 mm
03:45 AM 25.2°F-3.8°C 23.7°F-4.6°C 94% 13.5 mph NNE21.7 kmh NNE 15.5 mph24.9 kmh 29.70 in1005.8 mb 0.00 in0.0 mm 0.00 in0.0 mm 0.00 in0.0 mm
03:46 AM 25.2°F-3.8°C 23.7°F-4.6°C 94% 14.5 mph NW23.3 kmh NW 15.5 mph24.9 kmh 29.70 in1005.8 mb 0.00 in0.0 mm 0.00 in0.0 mm 0.00 in0.0 mm
03:47 AM 25.2°F-3.8°C 23.7°F-4.6°C 94% 19.7 mph NE31.7 kmh NE 19.7 mph31.7 kmh 29.70 in1005.8 mb 0.00 in0.0 mm 0.00 in0.0 mm 0.00 in0.0 mm
03:48 AM 25.2°F-3.8°C 23.7°F-4.6°C 94% 20.7 mph NNE33.3 kmh NNE 20.7 mph33.3 kmh 29.70 in1005.8 mb 0.00 in0.0 mm 0.00 in0.0 mm 0.00 in0.0 mm
03:49 AM 25.2°F-3.8°C 23.7°F-4.6°C 94% 10.4 mph NNW16.7 kmh NNW 20.7 mph33.3 kmh 29.70 in1005.8 mb 0.00 in0.0 mm 0.00 in0.0 mm 0.00 in0.0 mm
03:50 AM 25.2°F-3.8°C 23.7°F-4.6°C 94% 17.1 mph N27.5 kmh N 20.7 mph33.3 kmh 29.70 in1005.8 mb 0.00 in0.0 mm 0.00 in0.0 mm 0.00 in0.0 mm
03:51 AM 25.0°F-3.9°C 23.3°F-4.8°C 93% 10.9 mph N17.5 kmh N 20.7 mph33.3 kmh 29.70 in1005.8 mb 0.00 in0.0 mm 0.00 in0.0 mm 0.00 in0.0 mm
03:52 AM 25.0°F-3.9°C 23.3°F-4.8°C 93% 13.0 mph N20.9 kmh N 20.7 mph33.3 kmh 29.70 in1005.8 mb 0.00 in0.0 mm 0.00 in0.0 mm 0.00 in0.0 mm
03:53 AM 25.0°F-3.9°C 23.3°F-4.8°C 93% 18.1 mph NNW29.1 kmh NNW 20.7 mph33.3 kmh 29.69 in1005.4 mb 0.00 in0.0 mm 0.00 in0.0 mm 0.00 in0.0 mm
03:54 AM 25.0°F-3.9°C 23.3°F-4.8°C 93% 14.5 mph NE23.3 kmh NE 20.7 mph33.3 kmh 29.69 in1005.4 mb 0.00 in0.0 mm 0.00 in0.0 mm 0.00 in0.0 mm
03:55 AM 25.0°F-3.9°C 23.3°F-4.8°C 93% 15.5 mph NNW24.9 kmh NNW 20.7 mph33.3 kmh 29.69 in1005.4 mb 0.00 in0.0 mm 0.00 in0.0 mm 0.00 in0.0 mm
03:56 AM 25.0°F-3.9°C 23.3°F-4.8°C 93% 16.1 mph NNE25.9 kmh NNE 20.7 mph33.3 kmh 29.69 in1005.4 mb 0.00 in0.0 mm 0.00 in0.0 mm 0.00 in0.0 mm
03:57 AM 25.0°F-3.9°C 23.3°F-4.8°C 93% 8.3 mph WNW13.4 kmh WNW 20.7 mph33.3 kmh 29.69 in1005.4 mb 0.00 in0.0 mm 0.00 in0.0 mm 0.00 in0.0 mm
03:58 AM 25.0°F-3.9°C 23.3°F-4.8°C 93% 7.3 mph NNW11.7 kmh NNW 20.7 mph33.3 kmh 29.69 in1005.4 mb 0.00 in0.0 mm 0.00 in0.0 mm 0.00 in0.0 mm
03:59 AM 25.0°F-3.9°C 23.3°F-4.8°C 93% 15.0 mph NNE24.1 kmh NNE 18.1 mph29.1 kmh 29.69 in1005.4 mb 0.00 in0.0 mm 0.00 in0.0 mm 0.00 in0.0 mm
04:00 AM 25.0°F-3.9°C 23.3°F-4.8°C 93% 13.5 mph NNE21.7 kmh NNE 18.1 mph29.1 kmh 29.69 in1005.4 mb 0.00 in0.0 mm 0.00 in0.0 mm 0.00 in0.0 mm
04:01 AM 25.0°F-3.9°C 23.3°F-4.8°C 93% 13.5 mph N21.7 kmh N 18.1 mph29.1 kmh 29.69 in1005.4 mb 0.00 in0.0 mm 0.00 in0.0 mm 0.00 in0.0 mm
04:02 AM 25.0°F-3.9°C 23.3°F-4.8°C 93% 17.1 mph NNW27.5 kmh NNW 20.2 mph32.5 kmh 29.69 in1005.4 mb 0.00 in0.0 mm 0.00 in0.0 mm 0.00 in0.0 mm
04:03 AM 25.0°F-3.9°C 23.3°F-4.8°C 93% 18.1 mph NNE29.1 kmh NNE 20.2 mph32.5 kmh 29.69 in1005.4 mb 0.00 in0.0 mm 0.00 in0.0 mm 0.00 in0.0 mm
04:04 AM 25.0°F-3.9°C 23.3°F-4.8°C 93% 8.3 mph N13.4 kmh N 20.2 mph32.5 kmh 29.69 in1005.4 mb 0.00 in0.0 mm 0.00 in0.0 mm 0.00 in0.0 mm
04:05 AM 25.0°F-3.9°C 23.3°F-4.8°C 93% 5.3 mph NW8.5 kmh NW 20.2 mph32.5 kmh 29.69 in1005.4 mb 0.00 in0.0 mm 0.00 in0.0 mm 0.00 in0.0 mm
04:06 AM 25.0°F-3.9°C 23.3°F-4.8°C 93% 11.4 mph NNW18.3 kmh NNW 20.2 mph32.5 kmh 29.69 in1005.4 mb 0.00 in0.0 mm 0.00 in0.0 mm 0.00 in0.0 mm
04:07 AM 24.8°F-4.0°C 23.1°F-4.9°C 93% 17.1 mph N27.5 kmh N 20.2 mph32.5 kmh 29.69 in1005.4 mb 0.00 in0.0 mm 0.00 in0.0 mm 0.00 in0.0 mm
04:08 AM 24.8°F-4.0°C 23.1°F-4.9°C 93% 11.4 mph NNE18.3 kmh NNE 20.2 mph32.5 kmh 29.69 in1005.4 mb 0.00 in0.0 mm 0.00 in0.0 mm 0.00 in0.0 mm
04:09 AM 24.8°F-4.0°C 23.1°F-4.9°C 93% 13.0 mph N20.9 kmh N 20.2 mph32.5 kmh 29.69 in1005.4 mb 0.00 in0.0 mm 0.00 in0.0 mm 0.00 in0.0 mm
04:10 AM 24.8°F-4.0°C 23.1°F-4.9°C 93% 10.4 mph NW16.7 kmh NW 20.2 mph32.5 kmh 29.69 in1005.4 mb 0.00 in0.0 mm 0.00 in0.0 mm 0.00 in0.0 mm
04:11 AM 24.8°F-4.0°C 23.1°F-4.9°C 93% 20.2 mph N32.5 kmh N 20.2 mph32.5 kmh 29.69 in1005.4 mb 0.00 in0.0 mm 0.00 in0.0 mm 0.00 in0.0 mm
04:12 AM 24.8°F-4.0°C 23.1°F-4.9°C 93% 17.1 mph N27.5 kmh N 20.2 mph32.5 kmh 29.69 in1005.4 mb 0.00 in0.0 mm 0.00 in0.0 mm 0.00 in0.0 mm
04:13 AM 24.8°F-4.0°C 23.1°F-4.9°C 93% 13.5 mph NW21.7 kmh NW 20.2 mph32.5 kmh 29.69 in1005.4 mb 0.00 in0.0 mm 0.00 in0.0 mm 0.00 in0.0 mm
04:14 AM 24.8°F-4.0°C 23.1°F-4.9°C 93% 17.6 mph NNE28.3 kmh NNE 20.2 mph32.5 kmh 29.69 in1005.4 mb 0.00 in0.0 mm 0.00 in0.0 mm 0.00 in0.0 mm
04:15 AM 24.8°F-4.0°C 23.1°F-4.9°C 93% 13.5 mph NNE21.7 kmh NNE 20.2 mph32.5 kmh 29.69 in1005.4 mb 0.00 in0.0 mm 0.00 in0.0 mm 0.00 in0.0 mm
04:16 AM 24.8°F-4.0°C 23.1°F-4.9°C 93% 10.4 mph NE16.7 kmh NE 20.2 mph32.5 kmh 29.68 in1005.1 mb 0.00 in0.0 mm 0.00 in0.0 mm 0.00 in0.0 mm
04:17 AM 24.8°F-4.0°C 23.1°F-4.9°C 93% 14.5 mph NNW23.3 kmh NNW 20.2 mph32.5 kmh 29.68 in1005.1 mb 0.00 in0.0 mm 0.00 in0.0 mm 0.00 in0.0 mm
04:18 AM 24.6°F-4.1°C 22.9°F-5.1°C 93% 8.3 mph N13.4 kmh N 20.2 mph32.5 kmh 29.68 in1005.1 mb 0.00 in0.0 mm 0.00 in0.0 mm 0.00 in0.0 mm
04:19 AM 24.6°F-4.1°C 22.9°F-5.1°C 93% 10.4 mph NNW16.7 kmh NNW 20.2 mph32.5 kmh 29.68 in1005.1 mb 0.00 in0.0 mm 0.00 in0.0 mm 0.00 in0.0 mm
04:20 AM 24.6°F-4.1°C 22.9°F-5.1°C 93% 6.8 mph NNE10.9 kmh NNE 20.2 mph32.5 kmh 29.68 in1005.1 mb 0.00 in0.0 mm 0.00 in0.0 mm 0.00 in0.0 mm
04:21 AM 24.6°F-4.1°C 22.9°F-5.1°C 93% 8.9 mph NE14.3 kmh NE 20.2 mph32.5 kmh 29.68 in1005.1 mb 0.00 in0.0 mm 0.00 in0.0 mm 0.00 in0.0 mm
04:22 AM 24.6°F-4.1°C 22.9°F-5.1°C 93% 11.9 mph WNW19.2 kmh WNW 18.6 mph29.9 kmh 29.68 in1005.1 mb 0.00 in0.0 mm 0.00 in0.0 mm 0.00 in0.0 mm
04:23 AM 24.6°F-4.1°C 22.9°F-5.1°C 93% 16.1 mph NNE25.9 kmh NNE 18.6 mph29.9 kmh 29.68 in1005.1 mb 0.00 in0.0 mm 0.00 in0.0 mm 0.00 in0.0 mm
04:24 AM 24.6°F-4.1°C 22.9°F-5.1°C 93% 14.0 mph NE22.5 kmh NE 18.6 mph29.9 kmh 29.68 in1005.1 mb 0.00 in0.0 mm 0.00 in0.0 mm 0.00 in0.0 mm
04:25 AM 24.6°F-4.1°C 22.9°F-5.1°C 93% 9.9 mph N15.9 kmh N 18.6 mph29.9 kmh 29.68 in1005.1 mb 0.00 in0.0 mm 0.00 in0.0 mm 0.00 in0.0 mm
04:26 AM 24.6°F-4.1°C 22.9°F-5.1°C 93% 12.5 mph NW20.1 kmh NW 18.6 mph29.9 kmh 29.68 in1005.1 mb 0.00 in0.0 mm 0.00 in0.0 mm 0.00 in0.0 mm
04:27 AM 24.6°F-4.1°C 22.9°F-5.1°C 93% 10.4 mph N16.7 kmh N 18.6 mph29.9 kmh 29.68 in1005.1 mb 0.00 in0.0 mm 0.00 in0.0 mm 0.00 in0.0 mm
04:28 AM 24.6°F-4.1°C 22.9°F-5.1°C 93% 22.7 mph N36.5 kmh N 22.7 mph36.5 kmh 29.68 in1005.1 mb 0.00 in0.0 mm 0.00 in0.0 mm 0.00 in0.0 mm
04:29 AM 24.4°F-4.2°C 22.7°F-5.2°C 93% 9.4 mph NE15.1 kmh NE 22.7 mph36.5 kmh 29.68 in1005.1 mb 0.00 in0.0 mm 0.00 in0.0 mm 0.00 in0.0 mm
04:30 AM 24.4°F-4.2°C 22.7°F-5.2°C 93% 11.9 mph NE19.2 kmh NE 22.7 mph36.5 kmh 29.68 in1005.1 mb 0.00 in0.0 mm 0.00 in0.0 mm 0.00 in0.0 mm
04:31 AM 24.4°F-4.2°C 22.7°F-5.2°C 93% 8.9 mph NW14.3 kmh NW 22.7 mph36.5 kmh 29.68 in1005.1 mb 0.00 in0.0 mm 0.00 in0.0 mm 0.00 in0.0 mm
04:32 AM 24.4°F-4.2°C 22.7°F-5.2°C 93% 18.6 mph NE29.9 kmh NE 22.7 mph36.5 kmh 29.68 in1005.1 mb 0.00 in0.0 mm 0.00 in0.0 mm 0.00 in0.0 mm
04:33 AM 24.4°F-4.2°C 22.7°F-5.2°C 93% 14.5 mph NE23.3 kmh NE 22.7 mph36.5 kmh 29.68 in1005.1 mb 0.00 in0.0 mm 0.00 in0.0 mm 0.00 in0.0 mm
04:34 AM 24.4°F-4.2°C 22.7°F-5.2°C 93% 10.4 mph NNE16.7 kmh NNE 22.7 mph36.5 kmh 29.68 in1005.1 mb 0.00 in0.0 mm 0.00 in0.0 mm 0.00 in0.0 mm
04:35 AM 24.4°F-4.2°C 22.7°F-5.2°C 93% 8.9 mph NNW14.3 kmh NNW 22.7 mph36.5 kmh 29.68 in1005.1 mb 0.00 in0.0 mm 0.00 in0.0 mm 0.00 in0.0 mm
04:36 AM 24.4°F-4.2°C 22.7°F-5.2°C 93% 10.9 mph NNE17.5 kmh NNE 22.7 mph36.5 kmh 29.68 in1005.1 mb 0.00 in0.0 mm 0.00 in0.0 mm 0.00 in0.0 mm
04:37 AM 24.4°F-4.2°C 22.7°F-5.2°C 93% 9.4 mph N15.1 kmh N 22.7 mph36.5 kmh 29.68 in1005.1 mb 0.00 in0.0 mm 0.00 in0.0 mm 0.00 in0.0 mm
04:38 AM 24.4°F-4.2°C 22.7°F-5.2°C 93% 10.4 mph NW16.7 kmh NW 22.7 mph36.5 kmh 29.68 in1005.1 mb 0.00 in0.0 mm 0.00 in0.0 mm 0.00 in0.0 mm
04:39 AM 24.4°F-4.2°C 22.7°F-5.2°C 93% 17.1 mph NNE27.5 kmh NNE 21.7 mph34.9 kmh 29.68 in1005.1 mb 0.00 in0.0 mm 0.00 in0.0 mm 0.00 in0.0 mm
04:40 AM 24.4°F-4.2°C 22.7°F-5.2°C 93% 10.9 mph NNE17.5 kmh NNE 21.7 mph34.9 kmh 29.68 in1005.1 mb 0.00 in0.0 mm 0.00 in0.0 mm 0.00 in0.0 mm
04:41 AM 24.4°F-4.2°C 22.7°F-5.2°C 93% 10.9 mph NE17.5 kmh NE 21.7 mph34.9 kmh 29.68 in1005.1 mb 0.00 in0.0 mm 0.00 in0.0 mm 0.00 in0.0 mm
04:42 AM 24.4°F-4.2°C 22.7°F-5.2°C 93% 6.8 mph NNW10.9 kmh NNW 21.7 mph34.9 kmh 29.68 in1005.1 mb 0.00 in0.0 mm 0.00 in0.0 mm 0.00 in0.0 mm
04:43 AM 24.4°F-4.2°C 22.7°F-5.2°C 93% 15.0 mph N24.1 kmh N 21.7 mph34.9 kmh 29.68 in1005.1 mb 0.00 in0.0 mm 0.00 in0.0 mm 0.00 in0.0 mm
04:44 AM 24.4°F-4.2°C 22.7°F-5.2°C 93% 13.0 mph N20.9 kmh N 21.7 mph34.9 kmh 29.68 in1005.1 mb 0.00 in0.0 mm 0.00 in0.0 mm 0.00 in0.0 mm
04:45 AM 24.4°F-4.2°C 22.7°F-5.2°C 93% 8.3 mph NNW13.4 kmh NNW 21.7 mph34.9 kmh 29.68 in1005.1 mb 0.00 in0.0 mm 0.00 in0.0 mm 0.00 in0.0 mm
04:46 AM 24.4°F-4.2°C 22.7°F-5.2°C 93% 13.5 mph NE21.7 kmh NE 21.7 mph34.9 kmh 29.68 in1005.1 mb 0.00 in0.0 mm 0.00 in0.0 mm 0.00 in0.0 mm
04:47 AM 24.4°F-4.2°C 22.7°F-5.2°C 93% 9.9 mph WNW15.9 kmh WNW 21.7 mph34.9 kmh 29.68 in1005.1 mb 0.00 in0.0 mm 0.00 in0.0 mm 0.00 in0.0 mm
04:48 AM 24.4°F-4.2°C 22.4°F-5.3°C 92% 25.8 mph NNE41.5 kmh NNE 25.8 mph41.5 kmh 29.68 in1005.1 mb 0.00 in0.0 mm 0.00 in0.0 mm 0.00 in0.0 mm
04:49 AM 24.4°F-4.2°C 22.4°F-5.3°C 92% 14.5 mph NNW23.3 kmh NNW 25.8 mph41.5 kmh 29.68 in1005.1 mb 0.00 in0.0 mm 0.00 in0.0 mm 0.00 in0.0 mm
04:50 AM 24.4°F-4.2°C 22.4°F-5.3°C 92% 13.0 mph WNW20.9 kmh WNW 25.8 mph41.5 kmh 29.68 in1005.1 mb 0.00 in0.0 mm 0.00 in0.0 mm 0.00 in0.0 mm
04:51 AM 24.4°F-4.2°C 22.4°F-5.3°C 92% 8.9 mph NNW14.3 kmh NNW 25.8 mph41.5 kmh 29.68 in1005.1 mb 0.00 in0.0 mm 0.00 in0.0 mm 0.00 in0.0 mm
04:52 AM 24.4°F-4.2°C 22.4°F-5.3°C 92% 13.5 mph NNW21.7 kmh NNW 25.8 mph41.5 kmh 29.68 in1005.1 mb 0.00 in0.0 mm 0.00 in0.0 mm 0.00 in0.0 mm
04:53 AM 24.4°F-4.2°C 22.4°F-5.3°C 92% 11.4 mph NNE18.3 kmh NNE 25.8 mph41.5 kmh 29.68 in1005.1 mb 0.00 in0.0 mm 0.00 in0.0 mm 0.00 in0.0 mm
04:54 AM 24.3°F-4.3°C 22.3°F-5.4°C 92% 11.4 mph NE18.3 kmh NE 25.8 mph41.5 kmh 29.68 in1005.1 mb 0.00 in0.0 mm 0.00 in0.0 mm 0.00 in0.0 mm
04:55 AM 24.3°F-4.3°C 22.3°F-5.4°C 92% 11.9 mph NNW19.2 kmh NNW 25.8 mph41.5 kmh 29.68 in1005.1 mb 0.00 in0.0 mm 0.00 in0.0 mm 0.00 in0.0 mm
04:56 AM 24.3°F-4.3°C 22.3°F-5.4°C 92% 10.9 mph NW17.5 kmh NW 25.8 mph41.5 kmh 29.68 in1005.1 mb 0.00 in0.0 mm 0.00 in0.0 mm 0.00 in0.0 mm
04:57 AM 24.3°F-4.3°C 22.3°F-5.4°C 92% 11.4 mph NE18.3 kmh NE 25.8 mph41.5 kmh 29.68 in1005.1 mb 0.00 in0.0 mm 0.00 in0.0 mm 0.00 in0.0 mm
04:58 AM 24.3°F-4.3°C 22.3°F-5.4°C 92% 13.5 mph NNW21.7 kmh NNW 25.8 mph41.5 kmh 29.68 in1005.1 mb 0.00 in0.0 mm 0.00 in0.0 mm 0.00 in0.0 mm
04:59 AM 24.3°F-4.3°C 22.3°F-5.4°C 92% 15.5 mph N24.9 kmh N 20.7 mph33.3 kmh 29.68 in1005.1 mb 0.00 in0.0 mm 0.00 in0.0 mm 0.00 in0.0 mm
05:00 AM 24.3°F-4.3°C 22.1°F-5.5°C 91% 14.0 mph NNW22.5 kmh NNW 20.7 mph33.3 kmh 29.68 in1005.1 mb 0.00 in0.0 mm 0.00 in0.0 mm 0.00 in0.0 mm
05:01 AM 24.3°F-4.3°C 22.1°F-5.5°C 91% 9.4 mph NNW15.1 kmh NNW 20.7 mph33.3 kmh 29.68 in1005.1 mb 0.00 in0.0 mm 0.00 in0.0 mm 0.00 in0.0 mm
05:02 AM 24.3°F-4.3°C 22.1°F-5.5°C 91% 8.9 mph ENE14.3 kmh ENE 20.7 mph33.3 kmh 29.68 in1005.1 mb 0.00 in0.0 mm 0.00 in0.0 mm 0.00 in0.0 mm
05:03 AM 24.1°F-4.4°C 21.9°F-5.6°C 91% 14.0 mph WNW22.5 kmh WNW 20.7 mph33.3 kmh 29.68 in1005.1 mb 0.00 in0.0 mm 0.00 in0.0 mm 0.00 in0.0 mm
05:04 AM 24.1°F-4.4°C 22.1°F-5.5°C 92% 8.9 mph NNW14.3 kmh NNW 20.7 mph33.3 kmh 29.68 in1005.1 mb 0.00 in0.0 mm 0.00 in0.0 mm 0.00 in0.0 mm
05:05 AM 24.1°F-4.4°C 22.1°F-5.5°C 92% 9.9 mph SW15.9 kmh SW 20.7 mph33.3 kmh 29.68 in1005.1 mb 0.00 in0.0 mm 0.00 in0.0 mm 0.00 in0.0 mm
05:06 AM 24.1°F-4.4°C 22.1°F-5.5°C 92% 13.5 mph NW21.7 kmh NW 20.7 mph33.3 kmh 29.68 in1005.1 mb 0.00 in0.0 mm 0.00 in0.0 mm 0.00 in0.0 mm
05:07 AM 24.1°F-4.4°C 22.1°F-5.5°C 92% 13.0 mph N20.9 kmh N 20.7 mph33.3 kmh 29.68 in1005.1 mb 0.00 in0.0 mm 0.00 in0.0 mm 0.00 in0.0 mm
05:08 AM 24.1°F-4.4°C 22.1°F-5.5°C 92% 16.1 mph NNE25.9 kmh NNE 20.7 mph33.3 kmh 29.68 in1005.1 mb 0.00 in0.0 mm 0.00 in0.0 mm 0.00 in0.0 mm
05:09 AM 24.1°F-4.4°C 22.1°F-5.5°C 92% 20.7 mph NNW33.3 kmh NNW 20.7 mph33.3 kmh 29.68 in1005.1 mb 0.00 in0.0 mm 0.00 in0.0 mm 0.00 in0.0 mm
05:10 AM 24.1°F-4.4°C 22.1°F-5.5°C 92% 15.0 mph NNE24.1 kmh NNE 20.7 mph33.3 kmh 29.68 in1005.1 mb 0.00 in0.0 mm 0.00 in0.0 mm 0.00 in0.0 mm
05:11 AM 23.9°F-4.5°C 21.9°F-5.6°C 92% 8.9 mph NE14.3 kmh NE 20.7 mph33.3 kmh 29.68 in1005.1 mb 0.00 in0.0 mm 0.00 in0.0 mm 0.00 in0.0 mm
05:12 AM 23.9°F-4.5°C 21.9°F-5.6°C 92% 10.9 mph NW17.5 kmh NW 20.7 mph33.3 kmh 29.68 in1005.1 mb 0.00 in0.0 mm 0.00 in0.0 mm 0.00 in0.0 mm
05:13 AM 23.9°F-4.5°C 21.9°F-5.6°C 92% 16.1 mph NNE25.9 kmh NNE 20.7 mph33.3 kmh 29.68 in1005.1 mb 0.00 in0.0 mm 0.00 in0.0 mm 0.00 in0.0 mm
05:14 AM 23.9°F-4.5°C 21.9°F-5.6°C 92% 7.3 mph NNE11.7 kmh NNE 20.7 mph33.3 kmh 29.68 in1005.1 mb 0.00 in0.0 mm 0.00 in0.0 mm 0.00 in0.0 mm
05:15 AM 23.9°F-4.5°C 21.9°F-5.6°C 92% 12.5 mph WNW20.1 kmh WNW 20.7 mph33.3 kmh 29.68 in1005.1 mb 0.00 in0.0 mm 0.00 in0.0 mm 0.00 in0.0 mm
05:16 AM 23.9°F-4.5°C 21.9°F-5.6°C 92% 19.1 mph NNW30.7 kmh NNW 20.7 mph33.3 kmh 29.68 in1005.1 mb 0.00 in0.0 mm 0.00 in0.0 mm 0.00 in0.0 mm
05:17 AM 23.9°F-4.5°C 21.9°F-5.6°C 92% 11.4 mph ENE18.3 kmh ENE 20.7 mph33.3 kmh 29.67 in1004.7 mb 0.00 in0.0 mm 0.00 in0.0 mm 0.00 in0.0 mm
05:18 AM 23.9°F-4.5°C 21.9°F-5.6°C 92% 11.9 mph NE19.2 kmh NE 20.7 mph33.3 kmh 29.67 in1004.7 mb 0.00 in0.0 mm 0.00 in0.0 mm 0.00 in0.0 mm
05:19 AM 23.9°F-4.5°C 21.9°F-5.6°C 92% 8.9 mph NNE14.3 kmh NNE 19.1 mph30.7 kmh 29.67 in1004.7 mb 0.00 in0.0 mm 0.00 in0.0 mm 0.00 in0.0 mm
05:20 AM 23.9°F-4.5°C 21.9°F-5.6°C 92% 10.4 mph NNE16.7 kmh NNE 19.1 mph30.7 kmh 29.67 in1004.7 mb 0.00 in0.0 mm 0.00 in0.0 mm 0.00 in0.0 mm
05:21 AM 23.9°F-4.5°C 21.9°F-5.6°C 92% 13.0 mph WSW20.9 kmh WSW 19.1 mph30.7 kmh 29.67 in1004.7 mb 0.00 in0.0 mm 0.00 in0.0 mm 0.00 in0.0 mm
05:22 AM 23.9°F-4.5°C 21.9°F-5.6°C 92% 19.1 mph NNW30.7 kmh NNW 19.1 mph30.7 kmh 29.67 in1004.7 mb 0.00 in0.0 mm 0.00 in0.0 mm 0.00 in0.0 mm
05:23 AM 23.9°F-4.5°C 21.9°F-5.6°C 92% 11.9 mph NNE19.2 kmh NNE 19.1 mph30.7 kmh 29.67 in1004.7 mb 0.00 in0.0 mm 0.00 in0.0 mm 0.00 in0.0 mm
05:24 AM 23.9°F-4.5°C 21.9°F-5.6°C 92% 15.0 mph N24.1 kmh N 19.1 mph30.7 kmh 29.67 in1004.7 mb 0.00 in0.0 mm 0.00 in0.0 mm 0.00 in0.0 mm
05:25 AM 23.9°F-4.5°C 21.9°F-5.6°C 92% 11.4 mph NNE18.3 kmh NNE 19.1 mph30.7 kmh 29.67 in1004.7 mb 0.00 in0.0 mm 0.00 in0.0 mm 0.00 in0.0 mm
05:26 AM 23.7°F-4.6°C 21.7°F-5.7°C 92% 19.1 mph NW30.7 kmh NW 19.1 mph30.7 kmh 29.67 in1004.7 mb 0.00 in0.0 mm 0.00 in0.0 mm 0.00 in0.0 mm
05:27 AM 23.7°F-4.6°C 21.7°F-5.7°C 92% 17.1 mph NE27.5 kmh NE 19.1 mph30.7 kmh 29.67 in1004.7 mb 0.00 in0.0 mm 0.00 in0.0 mm 0.00 in0.0 mm
05:28 AM 23.7°F-4.6°C 21.7°F-5.7°C 92% 10.9 mph N17.5 kmh N 19.1 mph30.7 kmh 29.67 in1004.7 mb 0.00 in0.0 mm 0.00 in0.0 mm 0.00 in0.0 mm
05:33 AM 23.7°F-4.6°C 22.0°F-5.6°C 93% 11.4 mph N18.3 kmh N 19.1 mph30.7 kmh 29.67 in1004.7 mb 0.00 in0.0 mm 0.00 in0.0 mm 0.00 in0.0 mm
05:34 AM 23.7°F-4.6°C 22.0°F-5.6°C 93% 11.4 mph WNW18.3 kmh WNW 19.1 mph30.7 kmh 29.67 in1004.7 mb 0.00 in0.0 mm 0.00 in0.0 mm 0.00 in0.0 mm
05:35 AM 23.7°F-4.6°C 22.0°F-5.6°C 93% 7.3 mph N11.7 kmh N 19.1 mph30.7 kmh 29.67 in1004.7 mb 0.00 in0.0 mm 0.00 in0.0 mm 0.00 in0.0 mm
05:36 AM 23.7°F-4.6°C 22.0°F-5.6°C 93% 8.9 mph NNE14.3 kmh NNE 19.1 mph30.7 kmh 29.67 in1004.7 mb 0.00 in0.0 mm 0.00 in0.0 mm 0.00 in0.0 mm
05:37 AM 23.7°F-4.6°C 22.0°F-5.6°C 93% 12.5 mph NNW20.1 kmh NNW 17.1 mph27.5 kmh 29.67 in1004.7 mb 0.00 in0.0 mm 0.00 in0.0 mm 0.00 in0.0 mm
05:38 AM 23.7°F-4.6°C 22.0°F-5.6°C 93% 11.4 mph NNW18.3 kmh NNW 14.5 mph23.3 kmh 29.67 in1004.7 mb 0.00 in0.0 mm 0.00 in0.0 mm 0.00 in0.0 mm
05:39 AM 23.5°F-4.7°C 21.8°F-5.7°C 93% 7.8 mph NNW12.6 kmh NNW 14.5 mph23.3 kmh 29.67 in1004.7 mb 0.00 in0.0 mm 0.00 in0.0 mm 0.00 in0.0 mm
05:40 AM 23.5°F-4.7°C 21.8°F-5.7°C 93% 7.8 mph NNE12.6 kmh NNE 14.5 mph23.3 kmh 29.67 in1004.7 mb 0.00 in0.0 mm 0.00 in0.0 mm 0.00 in0.0 mm
05:41 AM 23.5°F-4.7°C 21.8°F-5.7°C 93% 6.8 mph NW10.9 kmh NW 14.5 mph23.3 kmh 29.67 in1004.7 mb 0.00 in0.0 mm 0.00 in0.0 mm 0.00 in0.0 mm
05:42 AM 23.5°F-4.7°C 21.8°F-5.7°C 93% 5.8 mph NNW9.3 kmh NNW 14.5 mph23.3 kmh 29.67 in1004.7 mb 0.00 in0.0 mm 0.00 in0.0 mm 0.00 in0.0 mm
05:43 AM 23.5°F-4.7°C 22.0°F-5.6°C 94% 8.9 mph NNW14.3 kmh NNW 14.5 mph23.3 kmh 29.67 in1004.7 mb 0.00 in0.0 mm 0.00 in0.0 mm 0.00 in0.0 mm
05:44 AM 23.5°F-4.7°C 22.0°F-5.6°C 94% 14.0 mph N22.5 kmh N 14.5 mph23.3 kmh 29.67 in1004.7 mb 0.00 in0.0 mm 0.00 in0.0 mm 0.00 in0.0 mm
05:45 AM 23.5°F-4.7°C 22.0°F-5.6°C 94% 13.0 mph NE20.9 kmh NE 14.5 mph23.3 kmh 29.67 in1004.7 mb 0.00 in0.0 mm 0.00 in0.0 mm 0.00 in0.0 mm
05:46 AM 23.5°F-4.7°C 22.0°F-5.6°C 94% 11.4 mph NNE18.3 kmh NNE 14.5 mph23.3 kmh 29.67 in1004.7 mb 0.00 in0.0 mm 0.00 in0.0 mm 0.00 in0.0 mm
05:47 AM 23.5°F-4.7°C 22.0°F-5.6°C 94% 15.0 mph W24.1 kmh W 15.0 mph24.1 kmh 29.67 in1004.7 mb 0.00 in0.0 mm 0.00 in0.0 mm 0.00 in0.0 mm
05:48 AM 23.5°F-4.7°C 22.0°F-5.6°C 94% 10.9 mph W17.5 kmh W 15.0 mph24.1 kmh 29.67 in1004.7 mb 0.00 in0.0 mm 0.00 in0.0 mm 0.00 in0.0 mm
05:49 AM 23.5°F-4.7°C 22.0°F-5.6°C 94% 7.3 mph ENE11.7 kmh ENE 15.0 mph24.1 kmh 29.67 in1004.7 mb 0.00 in0.0 mm 0.00 in0.0 mm 0.00 in0.0 mm
05:50 AM 23.5°F-4.7°C 22.0°F-5.6°C 94% 10.9 mph NNE17.5 kmh NNE 15.0 mph24.1 kmh 29.67 in1004.7 mb 0.00 in0.0 mm 0.00 in0.0 mm 0.00 in0.0 mm
05:51 AM 23.5°F-4.7°C 22.0°F-5.6°C 94% 12.5 mph NNW20.1 kmh NNW 15.0 mph24.1 kmh 29.67 in1004.7 mb 0.00 in0.0 mm 0.00 in0.0 mm 0.00 in0.0 mm
05:52 AM 23.5°F-4.7°C 22.0°F-5.6°C 94% 11.4 mph N18.3 kmh N 15.0 mph24.1 kmh 29.66 in1004.4 mb 0.00 in0.0 mm 0.00 in0.0 mm 0.00 in0.0 mm
05:53 AM 23.5°F-4.7°C 21.8°F-5.7°C 93% 13.0 mph NE20.9 kmh NE 15.5 mph24.9 kmh 29.66 in1004.4 mb 0.00 in0.0 mm 0.00 in0.0 mm 0.00 in0.0 mm
05:54 AM 23.5°F-4.7°C 21.8°F-5.7°C 93% 7.3 mph NNW11.7 kmh NNW 15.5 mph24.9 kmh 29.66 in1004.4 mb 0.00 in0.0 mm 0.00 in0.0 mm 0.00 in0.0 mm
05:55 AM 23.5°F-4.7°C 21.8°F-5.7°C 93% 11.9 mph NNW19.2 kmh NNW 15.5 mph24.9 kmh 29.66 in1004.4 mb 0.00 in0.0 mm 0.00 in0.0 mm 0.00 in0.0 mm
05:56 AM 23.5°F-4.7°C 21.8°F-5.7°C 93% 11.4 mph NW18.3 kmh NW 15.5 mph24.9 kmh 29.66 in1004.4 mb 0.00 in0.0 mm 0.00 in0.0 mm 0.00 in0.0 mm
05:57 AM 23.5°F-4.7°C 21.8°F-5.7°C 93% 10.4 mph N16.7 kmh N 15.5 mph24.9 kmh 29.66 in1004.4 mb 0.00 in0.0 mm 0.00 in0.0 mm 0.00 in0.0 mm
05:58 AM 23.5°F-4.7°C 21.8°F-5.7°C 93% 8.3 mph NNW13.4 kmh NNW 15.5 mph24.9 kmh 29.66 in1004.4 mb 0.00 in0.0 mm 0.00 in0.0 mm 0.00 in0.0 mm
05:59 AM 23.5°F-4.7°C 21.8°F-5.7°C 93% 4.2 mph W6.8 kmh W 15.5 mph24.9 kmh 29.66 in1004.4 mb 0.00 in0.0 mm 0.00 in0.0 mm 0.00 in0.0 mm
06:00 AM 23.5°F-4.7°C 21.5°F-5.8°C 92% 16.6 mph W26.7 kmh W 16.6 mph26.7 kmh 29.66 in1004.4 mb 0.00 in0.0 mm 0.00 in0.0 mm 0.00 in0.0 mm
06:01 AM 23.5°F-4.7°C 21.5°F-5.8°C 92% 13.0 mph E20.9 kmh E 16.6 mph26.7 kmh 29.66 in1004.4 mb 0.00 in0.0 mm 0.00 in0.0 mm 0.00 in0.0 mm
06:02 AM 23.5°F-4.7°C 21.5°F-5.8°C 92% 10.9 mph N17.5 kmh N 19.1 mph30.7 kmh 29.66 in1004.4 mb 0.00 in0.0 mm 0.00 in0.0 mm 0.00 in0.0 mm
06:03 AM 23.5°F-4.7°C 21.5°F-5.8°C 92% 13.0 mph N20.9 kmh N 21.7 mph34.9 kmh 29.66 in1004.4 mb 0.00 in0.0 mm 0.00 in0.0 mm 0.00 in0.0 mm
06:04 AM 23.5°F-4.7°C 21.5°F-5.8°C 92% 15.0 mph NE24.1 kmh NE 21.7 mph34.9 kmh 29.66 in1004.4 mb 0.00 in0.0 mm 0.00 in0.0 mm 0.00 in0.0 mm
06:05 AM 23.4°F-4.8°C 21.4°F-5.9°C 92% 23.8 mph N38.3 kmh N 23.8 mph38.3 kmh 29.66 in1004.4 mb 0.00 in0.0 mm 0.00 in0.0 mm 0.00 in0.0 mm
06:06 AM 23.4°F-4.8°C 21.4°F-5.9°C 92% 14.5 mph N23.3 kmh N 23.8 mph38.3 kmh 29.66 in1004.4 mb 0.00 in0.0 mm 0.00 in0.0 mm 0.00 in0.0 mm
06:07 AM 23.4°F-4.8°C 21.4°F-5.9°C 92% 14.5 mph N23.3 kmh N 23.8 mph38.3 kmh 29.66 in1004.4 mb 0.00 in0.0 mm 0.00 in0.0 mm 0.00 in0.0 mm
06:12 AM 23.4°F-4.8°C 21.4°F-5.9°C 92% 19.1 mph NNW30.7 kmh NNW 23.8 mph38.3 kmh 29.66 in1004.4 mb 0.00 in0.0 mm 0.00 in0.0 mm 0.00 in0.0 mm
06:13 AM 23.4°F-4.8°C 21.4°F-5.9°C 92% 16.1 mph NNW25.9 kmh NNW 23.8 mph38.3 kmh 29.66 in1004.4 mb 0.00 in0.0 mm 0.00 in0.0 mm 0.00 in0.0 mm
06:14 AM 23.4°F-4.8°C 21.4°F-5.9°C 92% 8.9 mph WNW14.3 kmh WNW 23.8 mph38.3 kmh 29.66 in1004.4 mb 0.00 in0.0 mm 0.00 in0.0 mm 0.00 in0.0 mm
06:15 AM 23.4°F-4.8°C 21.4°F-5.9°C 92% 13.5 mph N21.7 kmh N 23.8 mph38.3 kmh 29.66 in1004.4 mb 0.00 in0.0 mm 0.00 in0.0 mm 0.00 in0.0 mm
06:16 AM 23.4°F-4.8°C 21.4°F-5.9°C 92% 15.0 mph NNE24.1 kmh NNE 19.1 mph30.7 kmh 29.66 in1004.4 mb 0.00 in0.0 mm 0.00 in0.0 mm 0.00 in0.0 mm
06:17 AM 23.4°F-4.8°C 21.4°F-5.9°C 92% 11.4 mph WNW18.3 kmh WNW 19.1 mph30.7 kmh 29.67 in1004.7 mb 0.00 in0.0 mm 0.00 in0.0 mm 0.00 in0.0 mm
06:18 AM 23.2°F-4.9°C 21.2°F-6.0°C 92% 7.8 mph SW12.6 kmh SW 19.1 mph30.7 kmh 29.67 in1004.7 mb 0.00 in0.0 mm 0.00 in0.0 mm 0.00 in0.0 mm
06:19 AM 23.2°F-4.9°C 21.2°F-6.0°C 92% 9.4 mph SSW15.1 kmh SSW 19.1 mph30.7 kmh 29.67 in1004.7 mb 0.00 in0.0 mm 0.00 in0.0 mm 0.00 in0.0 mm
06:20 AM 23.2°F-4.9°C 21.2°F-6.0°C 92% 7.3 mph NNE11.7 kmh NNE 19.1 mph30.7 kmh 29.67 in1004.7 mb 0.00 in0.0 mm 0.00 in0.0 mm 0.00 in0.0 mm
06:21 AM 23.2°F-4.9°C 21.2°F-6.0°C 92% 15.5 mph NNE24.9 kmh NNE 19.1 mph30.7 kmh 29.67 in1004.7 mb 0.00 in0.0 mm 0.00 in0.0 mm 0.00 in0.0 mm
06:22 AM 23.2°F-4.9°C 21.2°F-6.0°C 92% 9.9 mph NNW15.9 kmh NNW 19.1 mph30.7 kmh 29.67 in1004.7 mb 0.00 in0.0 mm 0.00 in0.0 mm 0.00 in0.0 mm
06:23 AM 23.2°F-4.9°C 21.2°F-6.0°C 92% 10.4 mph NE16.7 kmh NE 16.6 mph26.7 kmh 29.67 in1004.7 mb 0.00 in0.0 mm 0.00 in0.0 mm 0.00 in0.0 mm
06:24 AM 23.2°F-4.9°C 21.2°F-6.0°C 92% 12.5 mph NNW20.1 kmh NNW 16.6 mph26.7 kmh 29.67 in1004.7 mb 0.00 in0.0 mm 0.00 in0.0 mm 0.00 in0.0 mm
06:25 AM 23.2°F-4.9°C 21.2°F-6.0°C 92% 14.5 mph NNE23.3 kmh NNE 16.6 mph26.7 kmh 29.67 in1004.7 mb 0.00 in0.0 mm 0.00 in0.0 mm 0.00 in0.0 mm
06:26 AM 23.2°F-4.9°C 21.2°F-6.0°C 92% 11.4 mph NNW18.3 kmh NNW 15.5 mph24.9 kmh 29.67 in1004.7 mb 0.00 in0.0 mm 0.00 in0.0 mm 0.00 in0.0 mm
06:27 AM 23.2°F-4.9°C 21.2°F-6.0°C 92% 8.9 mph NNW14.3 kmh NNW 15.5 mph24.9 kmh 29.67 in1004.7 mb 0.00 in0.0 mm 0.00 in0.0 mm 0.00 in0.0 mm
06:28 AM 23.2°F-4.9°C 21.2°F-6.0°C 92% 16.1 mph N25.9 kmh N 16.1 mph25.9 kmh 29.67 in1004.7 mb 0.00 in0.0 mm 0.00 in0.0 mm 0.00 in0.0 mm
06:29 AM 23.2°F-4.9°C 21.2°F-6.0°C 92% 15.0 mph NNE24.1 kmh NNE 16.1 mph25.9 kmh 29.67 in1004.7 mb 0.00 in0.0 mm 0.00 in0.0 mm 0.00 in0.0 mm
06:30 AM 23.2°F-4.9°C 21.2°F-6.0°C 92% 15.0 mph N24.1 kmh N 16.1 mph25.9 kmh 29.67 in1004.7 mb 0.00 in0.0 mm 0.00 in0.0 mm 0.00 in0.0 mm
06:31 AM 23.2°F-4.9°C 21.2°F-6.0°C 92% 11.4 mph NE18.3 kmh NE 16.1 mph25.9 kmh 29.67 in1004.7 mb 0.00 in0.0 mm 0.00 in0.0 mm 0.00 in0.0 mm
06:32 AM 23.0°F-5.0°C 21.0°F-6.1°C 92% 11.9 mph NNW19.2 kmh NNW 16.1 mph25.9 kmh 29.67 in1004.7 mb 0.00 in0.0 mm 0.00 in0.0 mm 0.00 in0.0 mm
06:33 AM 23.0°F-5.0°C 21.3°F-5.9°C 93% 16.6 mph N26.7 kmh N 18.1 mph29.1 kmh 29.67 in1004.7 mb 0.00 in0.0 mm 0.00 in0.0 mm 0.00 in0.0 mm
06:34 AM 23.0°F-5.0°C 21.3°F-5.9°C 93% 14.0 mph N22.5 kmh N 18.1 mph29.1 kmh 29.67 in1004.7 mb 0.00 in0.0 mm 0.00 in0.0 mm 0.00 in0.0 mm
06:35 AM 23.0°F-5.0°C 21.3°F-5.9°C 93% 10.9 mph NNE17.5 kmh NNE 18.1 mph29.1 kmh 29.67 in1004.7 mb 0.00 in0.0 mm 0.00 in0.0 mm 0.00 in0.0 mm
06:36 AM 23.0°F-5.0°C 21.3°F-5.9°C 93% 10.4 mph NNE16.7 kmh NNE 18.1 mph29.1 kmh 29.67 in1004.7 mb 0.00 in0.0 mm 0.00 in0.0 mm 0.00 in0.0 mm
06:37 AM 23.0°F-5.0°C 21.3°F-5.9°C 93% 11.9 mph NNE19.2 kmh NNE 18.1 mph29.1 kmh 29.67 in1004.7 mb 0.00 in0.0 mm 0.00 in0.0 mm 0.00 in0.0 mm
06:38 AM 23.0°F-5.0°C 21.3°F-5.9°C 93% 11.4 mph NNW18.3 kmh NNW 18.1 mph29.1 kmh 29.67 in1004.7 mb 0.00 in0.0 mm 0.00 in0.0 mm 0.00 in0.0 mm
06:39 AM 23.0°F-5.0°C 21.3°F-5.9°C 93% 9.9 mph ESE15.9 kmh ESE 18.1 mph29.1 kmh 29.67 in1004.7 mb 0.00 in0.0 mm 0.00 in0.0 mm 0.00 in0.0 mm
06:40 AM 23.0°F-5.0°C 21.3°F-5.9°C 93% 14.0 mph NNE22.5 kmh NNE 18.1 mph29.1 kmh 29.67 in1004.7 mb 0.00 in0.0 mm 0.00 in0.0 mm 0.00 in0.0 mm
06:41 AM 23.0°F-5.0°C 21.3°F-5.9°C 93% 15.0 mph SW24.1 kmh SW 18.1 mph29.1 kmh 29.68 in1005.1 mb 0.00 in0.0 mm 0.00 in0.0 mm 0.00 in0.0 mm
06:42 AM 23.0°F-5.0°C 21.0°F-6.1°C 92% 15.5 mph NNE24.9 kmh NNE 18.6 mph29.9 kmh 29.68 in1005.1 mb 0.00 in0.0 mm 0.00 in0.0 mm 0.00 in0.0 mm
06:43 AM 23.0°F-5.0°C 21.0°F-6.1°C 92% 14.0 mph NNE22.5 kmh NNE 18.6 mph29.9 kmh 29.68 in1005.1 mb 0.00 in0.0 mm 0.00 in0.0 mm 0.00 in0.0 mm
06:44 AM 22.8°F-5.1°C 20.8°F-6.2°C 92% 8.3 mph SW13.4 kmh SW 18.6 mph29.9 kmh 29.68 in1005.1 mb 0.00 in0.0 mm 0.00 in0.0 mm 0.00 in0.0 mm
06:45 AM 22.8°F-5.1°C 20.8°F-6.2°C 92% 10.4 mph N16.7 kmh N 18.6 mph29.9 kmh 29.68 in1005.1 mb 0.00 in0.0 mm 0.00 in0.0 mm 0.00 in0.0 mm
06:46 AM 22.8°F-5.1°C 20.8°F-6.2°C 92% 16.1 mph N25.9 kmh N 18.6 mph29.9 kmh 29.68 in1005.1 mb 0.00 in0.0 mm 0.00 in0.0 mm 0.00 in0.0 mm
06:47 AM 22.8°F-5.1°C 20.8°F-6.2°C 92% 11.4 mph W18.3 kmh W 18.6 mph29.9 kmh 29.68 in1005.1 mb 0.00 in0.0 mm 0.00 in0.0 mm 0.00 in0.0 mm
06:48 AM 22.8°F-5.1°C 20.8°F-6.2°C 92% 13.0 mph NNE20.9 kmh NNE 18.6 mph29.9 kmh 29.68 in1005.1 mb 0.00 in0.0 mm 0.00 in0.0 mm 0.00 in0.0 mm
06:49 AM 22.8°F-5.1°C 20.8°F-6.2°C 92% 11.9 mph NNE19.2 kmh NNE 18.6 mph29.9 kmh 29.68 in1005.1 mb 0.00 in0.0 mm 0.00 in0.0 mm 0.00 in0.0 mm
06:50 AM 22.8°F-5.1°C 21.1°F-6.1°C 93% 14.5 mph NW23.3 kmh NW 18.6 mph29.9 kmh 29.68 in1005.1 mb 0.00 in0.0 mm 0.00 in0.0 mm 0.00 in0.0 mm
06:51 AM 22.8°F-5.1°C 21.1°F-6.1°C 93% 8.9 mph W14.3 kmh W 18.6 mph29.9 kmh 29.68 in1005.1 mb 0.00 in0.0 mm 0.00 in0.0 mm 0.00 in0.0 mm
06:52 AM 22.6°F-5.2°C 20.6°F-6.3°C 92% 15.0 mph W24.1 kmh W 17.6 mph28.3 kmh 29.68 in1005.1 mb 0.00 in0.0 mm 0.00 in0.0 mm 0.00 in0.0 mm
06:53 AM 22.6°F-5.2°C 20.6°F-6.3°C 92% 7.8 mph N12.6 kmh N 18.1 mph29.1 kmh 29.67 in1004.7 mb 0.00 in0.0 mm 0.00 in0.0 mm 0.00 in0.0 mm
06:54 AM 22.6°F-5.2°C 20.6°F-6.3°C 92% 10.9 mph ENE17.5 kmh ENE 18.6 mph29.9 kmh 29.67 in1004.7 mb 0.00 in0.0 mm 0.00 in0.0 mm 0.00 in0.0 mm
06:55 AM 22.6°F-5.2°C 20.6°F-6.3°C 92% 15.0 mph ENE24.1 kmh ENE 18.6 mph29.9 kmh 29.67 in1004.7 mb 0.00 in0.0 mm 0.00 in0.0 mm 0.00 in0.0 mm
06:56 AM 22.6°F-5.2°C 20.6°F-6.3°C 92% 11.9 mph NW19.2 kmh NW 18.6 mph29.9 kmh 29.67 in1004.7 mb 0.00 in0.0 mm 0.00 in0.0 mm 0.00 in0.0 mm
06:57 AM 22.6°F-5.2°C 20.9°F-6.2°C 93% 15.5 mph N24.9 kmh N 18.6 mph29.9 kmh 29.67 in1004.7 mb 0.00 in0.0 mm 0.00 in0.0 mm 0.00 in0.0 mm
06:58 AM 22.6°F-5.2°C 20.9°F-6.2°C 93% 10.9 mph NNE17.5 kmh NNE 18.6 mph29.9 kmh 29.67 in1004.7 mb 0.00 in0.0 mm 0.00 in0.0 mm 0.00 in0.0 mm
06:59 AM 22.6°F-5.2°C 20.9°F-6.2°C 93% 10.4 mph WSW16.7 kmh WSW 18.6 mph29.9 kmh 29.67 in1004.7 mb 0.00 in0.0 mm 0.00 in0.0 mm 0.00 in0.0 mm
07:00 AM 22.6°F-5.2°C 20.9°F-6.2°C 93% 10.9 mph WNW17.5 kmh WNW 18.6 mph29.9 kmh 29.67 in1004.7 mb 0.00 in0.0 mm 0.00 in0.0 mm 0.00 in0.0 mm
07:01 AM 22.6°F-5.2°C 20.9°F-6.2°C 93% 10.4 mph NNE16.7 kmh NNE 18.6 mph29.9 kmh 29.67 in1004.7 mb 0.00 in0.0 mm 0.00 in0.0 mm 0.00 in0.0 mm
07:02 AM 22.5°F-5.3°C 20.8°F-6.2°C 93% 18.6 mph NNE29.9 kmh NNE 18.6 mph29.9 kmh 29.67 in1004.7 mb 0.00 in0.0 mm 0.00 in0.0 mm 0.00 in0.0 mm
07:03 AM 22.5°F-5.3°C 20.8°F-6.2°C 93% 11.9 mph NNE19.2 kmh NNE 18.6 mph29.9 kmh 29.67 in1004.7 mb 0.00 in0.0 mm 0.00 in0.0 mm 0.00 in0.0 mm
07:04 AM 22.5°F-5.3°C 20.8°F-6.2°C 93% 19.7 mph N31.7 kmh N 19.7 mph31.7 kmh 29.67 in1004.7 mb 0.00 in0.0 mm 0.00 in0.0 mm 0.00 in0.0 mm
07:05 AM 22.5°F-5.3°C 20.8°F-6.2°C 93% 10.9 mph NW17.5 kmh NW 19.7 mph31.7 kmh 29.67 in1004.7 mb 0.00 in0.0 mm 0.00 in0.0 mm 0.00 in0.0 mm
07:06 AM 22.5°F-5.3°C 20.8°F-6.2°C 93% 13.5 mph NNW21.7 kmh NNW 19.7 mph31.7 kmh 29.67 in1004.7 mb 0.00 in0.0 mm 0.00 in0.0 mm 0.00 in0.0 mm
07:07 AM 22.5°F-5.3°C 20.8°F-6.2°C 93% 11.9 mph NNW19.2 kmh NNW 19.7 mph31.7 kmh 29.67 in1004.7 mb 0.00 in0.0 mm 0.00 in0.0 mm 0.00 in0.0 mm
07:08 AM 22.5°F-5.3°C 20.8°F-6.2°C 93% 10.4 mph N16.7 kmh N 19.7 mph31.7 kmh 29.67 in1004.7 mb 0.00 in0.0 mm 0.00 in0.0 mm 0.00 in0.0 mm
07:09 AM 22.5°F-5.3°C 20.8°F-6.2°C 93% 16.1 mph NNW25.9 kmh NNW 19.7 mph31.7 kmh 29.67 in1004.7 mb 0.00 in0.0 mm 0.00 in0.0 mm 0.00 in0.0 mm
07:10 AM 22.5°F-5.3°C 20.8°F-6.2°C 93% 17.1 mph NNE27.5 kmh NNE 19.7 mph31.7 kmh 29.67 in1004.7 mb 0.00 in0.0 mm 0.00 in0.0 mm 0.00 in0.0 mm
07:11 AM 22.5°F-5.3°C 20.8°F-6.2°C 93% 9.4 mph N15.1 kmh N 19.7 mph31.7 kmh 29.67 in1004.7 mb 0.00 in0.0 mm 0.00 in0.0 mm 0.00 in0.0 mm
07:12 AM 22.5°F-5.3°C 20.8°F-6.2°C 93% 7.3 mph N11.7 kmh N 19.7 mph31.7 kmh 29.67 in1004.7 mb 0.00 in0.0 mm 0.00 in0.0 mm 0.00 in0.0 mm
07:13 AM 22.3°F-5.4°C 20.6°F-6.3°C 93% 11.9 mph N19.2 kmh N 19.7 mph31.7 kmh 29.67 in1004.7 mb 0.00 in0.0 mm 0.00 in0.0 mm 0.00 in0.0 mm
07:14 AM 22.3°F-5.4°C 20.6°F-6.3°C 93% 10.9 mph NNE17.5 kmh NNE 19.7 mph31.7 kmh 29.67 in1004.7 mb 0.00 in0.0 mm 0.00 in0.0 mm 0.00 in0.0 mm
07:15 AM 22.3°F-5.4°C 20.6°F-6.3°C 93% 13.5 mph NNW21.7 kmh NNW 17.6 mph28.3 kmh 29.67 in1004.7 mb 0.00 in0.0 mm 0.00 in0.0 mm 0.00 in0.0 mm
07:16 AM 22.3°F-5.4°C 20.6°F-6.3°C 93% 10.9 mph NNE17.5 kmh NNE 17.6 mph28.3 kmh 29.67 in1004.7 mb 0.00 in0.0 mm 0.00 in0.0 mm 0.00 in0.0 mm
07:17 AM 22.3°F-5.4°C 20.6°F-6.3°C 93% 6.8 mph N10.9 kmh N 17.1 mph27.5 kmh 29.67 in1004.7 mb 0.00 in0.0 mm 0.00 in0.0 mm 0.00 in0.0 mm
07:18 AM 22.3°F-5.4°C 20.6°F-6.3°C 93% 10.9 mph NNW17.5 kmh NNW 17.1 mph27.5 kmh 29.67 in1004.7 mb 0.00 in0.0 mm 0.00 in0.0 mm 0.00 in0.0 mm
07:19 AM 22.3°F-5.4°C 20.6°F-6.3°C 93% 10.4 mph NNW16.7 kmh NNW 17.1 mph27.5 kmh 29.67 in1004.7 mb 0.00 in0.0 mm 0.00 in0.0 mm 0.00 in0.0 mm
07:20 AM 22.3°F-5.4°C 20.6°F-6.3°C 93% 11.9 mph NE19.2 kmh NE 17.1 mph27.5 kmh 29.67 in1004.7 mb 0.00 in0.0 mm 0.00 in0.0 mm 0.00 in0.0 mm
07:21 AM 22.3°F-5.4°C 20.6°F-6.3°C 93% 7.8 mph N12.6 kmh N 17.1 mph27.5 kmh 29.67 in1004.7 mb 0.00 in0.0 mm 0.00 in0.0 mm 0.00 in0.0 mm
07:22 AM 22.3°F-5.4°C 20.6°F-6.3°C 93% 9.9 mph W15.9 kmh W 17.1 mph27.5 kmh 29.67 in1004.7 mb 0.00 in0.0 mm 0.00 in0.0 mm 0.00 in0.0 mm
07:23 AM 22.3°F-5.4°C 20.6°F-6.3°C 93% 9.4 mph NNW15.1 kmh NNW 17.1 mph27.5 kmh 29.67 in1004.7 mb 0.00 in0.0 mm 0.00 in0.0 mm 0.00 in0.0 mm
07:24 AM 22.3°F-5.4°C 20.6°F-6.3°C 93% 9.9 mph NNE15.9 kmh NNE 17.1 mph27.5 kmh 29.67 in1004.7 mb 0.00 in0.0 mm 0.00 in0.0 mm 0.00 in0.0 mm
07:25 AM 22.3°F-5.4°C 20.6°F-6.3°C 93% 8.3 mph W13.4 kmh W 17.1 mph27.5 kmh 29.67 in1004.7 mb 0.00 in0.0 mm 0.00 in0.0 mm 0.00 in0.0 mm
07:26 AM 22.3°F-5.4°C 20.6°F-6.3°C 93% 12.5 mph W20.1 kmh W 17.1 mph27.5 kmh 29.67 in1004.7 mb 0.00 in0.0 mm 0.00 in0.0 mm 0.00 in0.0 mm
07:27 AM 22.3°F-5.4°C 20.6°F-6.3°C 93% 11.4 mph NNW18.3 kmh NNW 17.1 mph27.5 kmh 29.67 in1004.7 mb 0.00 in0.0 mm 0.00 in0.0 mm 0.00 in0.0 mm
07:28 AM 22.3°F-5.4°C 20.6°F-6.3°C 93% 7.8 mph NNW12.6 kmh NNW 17.1 mph27.5 kmh 29.67 in1004.7 mb 0.00 in0.0 mm 0.00 in0.0 mm 0.00 in0.0 mm
07:29 AM 22.3°F-5.4°C 20.6°F-6.3°C 93% 7.8 mph WNW12.6 kmh WNW 15.0 mph24.1 kmh 29.67 in1004.7 mb 0.00 in0.0 mm 0.00 in0.0 mm 0.00 in0.0 mm
07:30 AM 22.3°F-5.4°C 20.6°F-6.3°C 93% 9.4 mph WNW15.1 kmh WNW 12.5 mph20.1 kmh 29.67 in1004.7 mb 0.00 in0.0 mm 0.00 in0.0 mm 0.00 in0.0 mm
07:31 AM 22.3°F-5.4°C 20.6°F-6.3°C 93% 14.5 mph WNW23.3 kmh WNW 14.5 mph23.3 kmh 29.67 in1004.7 mb 0.00 in0.0 mm 0.00 in0.0 mm 0.00 in0.0 mm
07:32 AM 22.3°F-5.4°C 20.6°F-6.3°C 93% 9.4 mph N15.1 kmh N 14.5 mph23.3 kmh 29.67 in1004.7 mb 0.00 in0.0 mm 0.00 in0.0 mm 0.00 in0.0 mm
07:33 AM 22.3°F-5.4°C 20.6°F-6.3°C 93% 8.3 mph NNW13.4 kmh NNW 14.5 mph23.3 kmh 29.67 in1004.7 mb 0.00 in0.0 mm 0.00 in0.0 mm 0.00 in0.0 mm
07:34 AM 22.3°F-5.4°C 20.6°F-6.3°C 93% 10.9 mph NNW17.5 kmh NNW 14.5 mph23.3 kmh 29.67 in1004.7 mb 0.00 in0.0 mm 0.00 in0.0 mm 0.00 in0.0 mm
07:35 AM 22.3°F-5.4°C 20.6°F-6.3°C 93% 9.4 mph N15.1 kmh N 14.5 mph23.3 kmh 29.67 in1004.7 mb 0.00 in0.0 mm 0.00 in0.0 mm 0.00 in0.0 mm
07:36 AM 22.3°F-5.4°C 20.6°F-6.3°C 93% 9.9 mph NNE15.9 kmh NNE 14.5 mph23.3 kmh 29.67 in1004.7 mb 0.00 in0.0 mm 0.00 in0.0 mm 0.00 in0.0 mm
07:37 AM 22.3°F-5.4°C 20.3°F-6.5°C 92% 10.9 mph N17.5 kmh N 15.0 mph24.1 kmh 29.67 in1004.7 mb 0.00 in0.0 mm 0.00 in0.0 mm 0.00 in0.0 mm
07:38 AM 22.3°F-5.4°C 20.3°F-6.5°C 92% 7.8 mph N12.6 kmh N 15.0 mph24.1 kmh 29.67 in1004.7 mb 0.00 in0.0 mm 0.00 in0.0 mm 0.00 in0.0 mm
07:39 AM 22.3°F-5.4°C 20.3°F-6.5°C 92% 7.8 mph NNW12.6 kmh NNW 15.0 mph24.1 kmh 29.67 in1004.7 mb 0.00 in0.0 mm 0.00 in0.0 mm 0.00 in0.0 mm
07:40 AM 22.3°F-5.4°C 20.3°F-6.5°C 92% 8.9 mph NNW14.3 kmh NNW 15.0 mph24.1 kmh 29.67 in1004.7 mb 0.00 in0.0 mm 0.00 in0.0 mm 0.00 in0.0 mm
07:41 AM 22.3°F-5.4°C 20.3°F-6.5°C 92% 10.4 mph NW16.7 kmh NW 15.0 mph24.1 kmh 29.67 in1004.7 mb 0.00 in0.0 mm 0.00 in0.0 mm 0.00 in0.0 mm
07:42 AM 22.3°F-5.4°C 20.3°F-6.5°C 92% 9.4 mph N15.1 kmh N 15.0 mph24.1 kmh 29.67 in1004.7 mb 0.00 in0.0 mm 0.00 in0.0 mm 0.00 in0.0 mm
07:43 AM 22.3°F-5.4°C 20.3°F-6.5°C 92% 14.0 mph WSW22.5 kmh WSW 15.0 mph24.1 kmh 29.67 in1004.7 mb 0.00 in0.0 mm 0.00 in0.0 mm 0.00 in0.0 mm
07:44 AM 22.3°F-5.4°C 20.3°F-6.5°C 92% 8.3 mph NNE13.4 kmh NNE 15.0 mph24.1 kmh 29.67 in1004.7 mb 0.00 in0.0 mm 0.00 in0.0 mm 0.00 in0.0 mm
07:45 AM 22.3°F-5.4°C 20.3°F-6.5°C 92% 15.0 mph NNW24.1 kmh NNW 15.0 mph24.1 kmh 29.67 in1004.7 mb 0.00 in0.0 mm 0.00 in0.0 mm 0.00 in0.0 mm
07:46 AM 22.3°F-5.4°C 20.3°F-6.5°C 92% 14.5 mph NE23.3 kmh NE 15.5 mph24.9 kmh 29.67 in1004.7 mb 0.00 in0.0 mm 0.00 in0.0 mm 0.00 in0.0 mm
07:47 AM 22.3°F-5.4°C 20.6°F-6.3°C 93% 7.8 mph NNW12.6 kmh NNW 15.5 mph24.9 kmh 29.67 in1004.7 mb 0.00 in0.0 mm 0.00 in0.0 mm 0.00 in0.0 mm
07:48 AM 22.3°F-5.4°C 20.6°F-6.3°C 93% 9.9 mph NNE15.9 kmh NNE 15.5 mph24.9 kmh 29.67 in1004.7 mb 0.00 in0.0 mm 0.00 in0.0 mm 0.00 in0.0 mm
07:49 AM 22.3°F-5.4°C 20.6°F-6.3°C 93% 9.4 mph N15.1 kmh N 15.5 mph24.9 kmh 29.67 in1004.7 mb 0.00 in0.0 mm 0.00 in0.0 mm 0.00 in0.0 mm
07:50 AM 22.3°F-5.4°C 20.6°F-6.3°C 93% 5.8 mph N9.3 kmh N 15.5 mph24.9 kmh 29.67 in1004.7 mb 0.00 in0.0 mm 0.00 in0.0 mm 0.00 in0.0 mm
07:51 AM 22.3°F-5.4°C 20.6°F-6.3°C 93% 8.9 mph NNE14.3 kmh NNE 15.5 mph24.9 kmh 29.67 in1004.7 mb 0.00 in0.0 mm 0.00 in0.0 mm 0.00 in0.0 mm
07:52 AM 22.3°F-5.4°C 20.6°F-6.3°C 93% 8.3 mph NNW13.4 kmh NNW 15.5 mph24.9 kmh 29.67 in1004.7 mb 0.00 in0.0 mm 0.00 in0.0 mm 0.00 in0.0 mm
07:53 AM 22.3°F-5.4°C 20.6°F-6.3°C 93% 11.4 mph NNE18.3 kmh NNE 15.5 mph24.9 kmh 29.68 in1005.1 mb 0.00 in0.0 mm 0.00 in0.0 mm 0.00 in0.0 mm
07:54 AM 22.3°F-5.4°C 20.6°F-6.3°C 93% 10.4 mph NNE16.7 kmh NNE 15.5 mph24.9 kmh 29.68 in1005.1 mb 0.00 in0.0 mm 0.00 in0.0 mm 0.00 in0.0 mm
07:55 AM 22.3°F-5.4°C 20.6°F-6.3°C 93% 6.8 mph WSW10.9 kmh WSW 15.5 mph24.9 kmh 29.68 in1005.1 mb 0.00 in0.0 mm 0.00 in0.0 mm 0.00 in0.0 mm
07:56 AM 22.3°F-5.4°C 20.6°F-6.3°C 93% 5.3 mph NNW8.5 kmh NNW 14.5 mph23.3 kmh 29.68 in1005.1 mb 0.00 in0.0 mm 0.00 in0.0 mm 0.00 in0.0 mm
07:57 AM 22.3°F-5.4°C 20.6°F-6.3°C 93% 10.4 mph NNE16.7 kmh NNE 11.9 mph19.2 kmh 29.68 in1005.1 mb 0.00 in0.0 mm 0.00 in0.0 mm 0.00 in0.0 mm
07:58 AM 22.3°F-5.4°C 20.6°F-6.3°C 93% 8.3 mph N13.4 kmh N 13.0 mph20.9 kmh 29.68 in1005.1 mb 0.00 in0.0 mm 0.00 in0.0 mm 0.00 in0.0 mm
07:59 AM 22.3°F-5.4°C 20.6°F-6.3°C 93% 7.8 mph NNW12.6 kmh NNW 13.0 mph20.9 kmh 29.68 in1005.1 mb 0.00 in0.0 mm 0.00 in0.0 mm 0.00 in0.0 mm
08:00 AM 22.3°F-5.4°C 20.6°F-6.3°C 93% 11.4 mph NNE18.3 kmh NNE 13.0 mph20.9 kmh 29.68 in1005.1 mb 0.00 in0.0 mm 0.00 in0.0 mm 0.00 in0.0 mm
08:01 AM 22.3°F-5.4°C 20.6°F-6.3°C 93% 10.9 mph ESE17.5 kmh ESE 13.0 mph20.9 kmh 29.68 in1005.1 mb 0.00 in0.0 mm 0.00 in0.0 mm 0.00 in0.0 mm
08:02 AM 22.3°F-5.4°C 20.6°F-6.3°C 93% 4.7 mph W7.6 kmh W 13.0 mph20.9 kmh 29.68 in1005.1 mb 0.00 in0.0 mm 0.00 in0.0 mm 0.00 in0.0 mm
08:03 AM 22.3°F-5.4°C 20.3°F-6.5°C 92% 6.3 mph ENE10.1 kmh ENE 13.0 mph20.9 kmh 29.68 in1005.1 mb 0.00 in0.0 mm 0.00 in0.0 mm 0.00 in0.0 mm
08:04 AM 22.3°F-5.4°C 20.6°F-6.3°C 93% 8.3 mph NNE13.4 kmh NNE 13.0 mph20.9 kmh 29.68 in1005.1 mb 0.00 in0.0 mm 0.00 in0.0 mm 0.00 in0.0 mm
08:05 AM 22.3°F-5.4°C 20.6°F-6.3°C 93% 10.9 mph W17.5 kmh W 13.0 mph20.9 kmh 29.68 in1005.1 mb 0.00 in0.0 mm 0.00 in0.0 mm 0.00 in0.0 mm
08:06 AM 22.3°F-5.4°C 20.6°F-6.3°C 93% 4.7 mph N7.6 kmh N 13.0 mph20.9 kmh 29.68 in1005.1 mb 0.00 in0.0 mm 0.00 in0.0 mm 0.00 in0.0 mm
08:07 AM 22.3°F-5.4°C 20.6°F-6.3°C 93% 5.8 mph N9.3 kmh N 13.0 mph20.9 kmh 29.68 in1005.1 mb 0.00 in0.0 mm 0.00 in0.0 mm 0.00 in0.0 mm
08:08 AM 22.3°F-5.4°C 20.6°F-6.3°C 93% 8.3 mph NNW13.4 kmh NNW 13.0 mph20.9 kmh 29.68 in1005.1 mb 0.00 in0.0 mm 0.00 in0.0 mm 0.00 in0.0 mm
08:09 AM 22.3°F-5.4°C 20.6°F-6.3°C 93% 6.8 mph NNW10.9 kmh NNW 13.0 mph20.9 kmh 29.68 in1005.1 mb 0.00 in0.0 mm 0.00 in0.0 mm 0.00 in0.0 mm
08:10 AM 22.3°F-5.4°C 20.6°F-6.3°C 93% 9.4 mph NNW15.1 kmh NNW 13.0 mph20.9 kmh 29.68 in1005.1 mb 0.00 in0.0 mm 0.00 in0.0 mm 0.00 in0.0 mm
08:11 AM 22.3°F-5.4°C 20.6°F-6.3°C 93% 7.8 mph NE12.6 kmh NE 13.0 mph20.9 kmh 29.68 in1005.1 mb 0.00 in0.0 mm 0.00 in0.0 mm 0.00 in0.0 mm
08:12 AM 22.3°F-5.4°C 20.6°F-6.3°C 93% 7.3 mph E11.7 kmh E 13.0 mph20.9 kmh 29.68 in1005.1 mb 0.00 in0.0 mm 0.00 in0.0 mm 0.00 in0.0 mm
08:13 AM 22.3°F-5.4°C 20.6°F-6.3°C 93% 11.9 mph NNE19.2 kmh NNE 13.0 mph20.9 kmh 29.68 in1005.1 mb 0.00 in0.0 mm 0.00 in0.0 mm 0.00 in0.0 mm
08:14 AM 22.3°F-5.4°C 20.6°F-6.3°C 93% 9.9 mph NNW15.9 kmh NNW 11.9 mph19.2 kmh 29.68 in1005.1 mb 0.00 in0.0 mm 0.00 in0.0 mm 0.00 in0.0 mm
08:15 AM 22.3°F-5.4°C 20.6°F-6.3°C 93% 13.5 mph NNE21.7 kmh NNE 16.1 mph25.9 kmh 29.68 in1005.1 mb 0.00 in0.0 mm 0.00 in0.0 mm 0.00 in0.0 mm
08:16 AM 22.3°F-5.4°C 20.3°F-6.5°C 92% 13.0 mph NNW20.9 kmh NNW 16.1 mph25.9 kmh 29.68 in1005.1 mb 0.00 in0.0 mm 0.00 in0.0 mm 0.00 in0.0 mm
08:17 AM 22.5°F-5.3°C 20.5°F-6.4°C 92% 9.9 mph N15.9 kmh N 16.1 mph25.9 kmh 29.68 in1005.1 mb 0.00 in0.0 mm 0.00 in0.0 mm 0.00 in0.0 mm
08:18 AM 22.5°F-5.3°C 20.5°F-6.4°C 92% 10.9 mph N17.5 kmh N 16.1 mph25.9 kmh 29.68 in1005.1 mb 0.00 in0.0 mm 0.00 in0.0 mm 0.00 in0.0 mm
08:19 AM 22.5°F-5.3°C 20.5°F-6.4°C 92% 8.3 mph N13.4 kmh N 16.1 mph25.9 kmh 29.68 in1005.1 mb 0.00 in0.0 mm 0.00 in0.0 mm 0.00 in0.0 mm
08:20 AM 22.5°F-5.3°C 20.5°F-6.4°C 92% 7.8 mph WNW12.6 kmh WNW 16.1 mph25.9 kmh 29.68 in1005.1 mb 0.00 in0.0 mm 0.00 in0.0 mm 0.00 in0.0 mm
08:21 AM 22.5°F-5.3°C 20.5°F-6.4°C 92% 8.9 mph W14.3 kmh W 16.1 mph25.9 kmh 29.68 in1005.1 mb 0.00 in0.0 mm 0.00 in0.0 mm 0.00 in0.0 mm
08:22 AM 22.5°F-5.3°C 20.5°F-6.4°C 92% 7.3 mph NNW11.7 kmh NNW 16.1 mph25.9 kmh 29.68 in1005.1 mb 0.00 in0.0 mm 0.00 in0.0 mm 0.00 in0.0 mm
08:23 AM 22.5°F-5.3°C 20.5°F-6.4°C 92% 4.2 mph NNE6.8 kmh NNE 16.1 mph25.9 kmh 29.68 in1005.1 mb 0.00 in0.0 mm 0.00 in0.0 mm 0.00 in0.0 mm
08:24 AM 22.5°F-5.3°C 20.5°F-6.4°C 92% 7.8 mph N12.6 kmh N 16.1 mph25.9 kmh 29.68 in1005.1 mb 0.00 in0.0 mm 0.00 in0.0 mm 0.00 in0.0 mm
08:30 AM 22.5°F-5.3°C 20.5°F-6.4°C 92% 6.8 mph NNE10.9 kmh NNE 10.9 mph17.5 kmh 29.69 in1005.4 mb 0.00 in0.0 mm 0.00 in0.0 mm 0.00 in0.0 mm
08:31 AM 22.8°F-5.1°C 20.8°F-6.2°C 92% 8.3 mph NW13.4 kmh NW 10.9 mph17.5 kmh 29.69 in1005.4 mb 0.00 in0.0 mm 0.00 in0.0 mm 0.00 in0.0 mm
08:32 AM 22.8°F-5.1°C 20.8°F-6.2°C 92% 10.4 mph NNE16.7 kmh NNE 11.4 mph18.3 kmh 29.69 in1005.4 mb 0.00 in0.0 mm 0.00 in0.0 mm 0.00 in0.0 mm
08:33 AM 22.8°F-5.1°C 20.6°F-6.3°C 91% 10.4 mph N16.7 kmh N 15.5 mph24.9 kmh 29.69 in1005.4 mb 0.00 in0.0 mm 0.00 in0.0 mm 0.00 in0.0 mm
08:34 AM 22.8°F-5.1°C 20.8°F-6.2°C 92% 8.3 mph NE13.4 kmh NE 15.5 mph24.9 kmh 29.69 in1005.4 mb 0.00 in0.0 mm 0.00 in0.0 mm 0.00 in0.0 mm
08:35 AM 22.8°F-5.1°C 20.8°F-6.2°C 92% 7.3 mph NNE11.7 kmh NNE 15.5 mph24.9 kmh 29.69 in1005.4 mb 0.00 in0.0 mm 0.00 in0.0 mm 0.00 in0.0 mm
08:36 AM 22.8°F-5.1°C 20.6°F-6.3°C 91% 8.9 mph NNW14.3 kmh NNW 15.5 mph24.9 kmh 29.69 in1005.4 mb 0.00 in0.0 mm 0.00 in0.0 mm 0.00 in0.0 mm
08:37 AM 22.8°F-5.1°C 20.6°F-6.3°C 91% 11.4 mph NNW18.3 kmh NNW 15.5 mph24.9 kmh 29.69 in1005.4 mb 0.00 in0.0 mm 0.00 in0.0 mm 0.00 in0.0 mm
08:38 AM 22.8°F-5.1°C 20.6°F-6.3°C 91% 10.4 mph N16.7 kmh N 15.5 mph24.9 kmh 29.69 in1005.4 mb 0.00 in0.0 mm 0.00 in0.0 mm 0.00 in0.0 mm
08:39 AM 22.8°F-5.1°C 20.6°F-6.3°C 91% 10.4 mph N16.7 kmh N 15.5 mph24.9 kmh 29.69 in1005.4 mb 0.00 in0.0 mm 0.00 in0.0 mm 0.00 in0.0 mm
08:40 AM 23.0°F-5.0°C 20.8°F-6.2°C 91% 10.9 mph ENE17.5 kmh ENE 15.5 mph24.9 kmh 29.69 in1005.4 mb 0.00 in0.0 mm 0.00 in0.0 mm 0.00 in0.0 mm
08:41 AM 23.0°F-5.0°C 20.8°F-6.2°C 91% 6.8 mph NE10.9 kmh NE 15.5 mph24.9 kmh 29.69 in1005.4 mb 0.00 in0.0 mm 0.00 in0.0 mm 0.00 in0.0 mm
08:42 AM 23.0°F-5.0°C 20.8°F-6.2°C 91% 8.3 mph N13.4 kmh N 15.5 mph24.9 kmh 29.69 in1005.4 mb 0.00 in0.0 mm 0.00 in0.0 mm 0.00 in0.0 mm
08:43 AM 23.0°F-5.0°C 20.8°F-6.2°C 91% 9.4 mph WNW15.1 kmh WNW 11.9 mph19.2 kmh 29.69 in1005.4 mb 0.00 in0.0 mm 0.00 in0.0 mm 0.00 in0.0 mm
08:44 AM 23.0°F-5.0°C 20.8°F-6.2°C 91% 5.3 mph NNE8.5 kmh NNE 11.9 mph19.2 kmh 29.69 in1005.4 mb 0.00 in0.0 mm 0.00 in0.0 mm 0.00 in0.0 mm
08:45 AM 23.0°F-5.0°C 20.8°F-6.2°C 91% 15.0 mph NNE24.1 kmh NNE 15.0 mph24.1 kmh 29.69 in1005.4 mb 0.00 in0.0 mm 0.00 in0.0 mm 0.00 in0.0 mm
08:46 AM 23.0°F-5.0°C 20.5°F-6.4°C 90% 13.0 mph NNW20.9 kmh NNW 15.0 mph24.1 kmh 29.69 in1005.4 mb 0.00 in0.0 mm 0.00 in0.0 mm 0.00 in0.0 mm
08:47 AM 23.0°F-5.0°C 20.5°F-6.4°C 90% 9.4 mph N15.1 kmh N 15.0 mph24.1 kmh 29.69 in1005.4 mb 0.00 in0.0 mm 0.00 in0.0 mm 0.00 in0.0 mm
08:48 AM 23.0°F-5.0°C 20.5°F-6.4°C 90% 9.4 mph NNW15.1 kmh NNW 15.0 mph24.1 kmh 29.69 in1005.4 mb 0.00 in0.0 mm 0.00 in0.0 mm 0.00 in0.0 mm
08:49 AM 23.0°F-5.0°C 20.5°F-6.4°C 90% 12.5 mph N20.1 kmh N 15.0 mph24.1 kmh 29.69 in1005.4 mb 0.00 in0.0 mm 0.00 in0.0 mm 0.00 in0.0 mm
08:50 AM 23.2°F-4.9°C 20.4°F-6.4°C 89% 11.9 mph N19.2 kmh N 15.0 mph24.1 kmh 29.69 in1005.4 mb 0.00 in0.0 mm 0.00 in0.0 mm 0.00 in0.0 mm
08:51 AM 23.2°F-4.9°C 20.4°F-6.4°C 89% 7.8 mph N12.6 kmh N 15.0 mph24.1 kmh 29.69 in1005.4 mb 0.00 in0.0 mm 0.00 in0.0 mm 0.00 in0.0 mm
08:52 AM 23.2°F-4.9°C 20.4°F-6.4°C 89% 3.2 mph SSE5.1 kmh SSE 15.0 mph24.1 kmh 29.69 in1005.4 mb 0.00 in0.0 mm 0.00 in0.0 mm 0.00 in0.0 mm
08:53 AM 23.2°F-4.9°C 20.4°F-6.4°C 89% 5.3 mph NNW8.5 kmh NNW 15.0 mph24.1 kmh 29.70 in1005.8 mb 0.00 in0.0 mm 0.00 in0.0 mm 0.00 in0.0 mm
08:54 AM 23.2°F-4.9°C 20.4°F-6.4°C 89% 5.3 mph N8.5 kmh N 15.0 mph24.1 kmh 29.70 in1005.8 mb 0.00 in0.0 mm 0.00 in0.0 mm 0.00 in0.0 mm
08:55 AM 23.2°F-4.9°C 20.4°F-6.4°C 89% 8.9 mph NNW14.3 kmh NNW 13.0 mph20.9 kmh 29.70 in1005.8 mb 0.00 in0.0 mm 0.00 in0.0 mm 0.00 in0.0 mm
08:56 AM 23.4°F-4.8°C 20.6°F-6.3°C 89% 9.4 mph N15.1 kmh N 13.0 mph20.9 kmh 29.70 in1005.8 mb 0.00 in0.0 mm 0.00 in0.0 mm 0.00 in0.0 mm
08:57 AM 23.4°F-4.8°C 20.9°F-6.2°C 90% 7.3 mph NNW11.7 kmh NNW 13.0 mph20.9 kmh 29.70 in1005.8 mb 0.00 in0.0 mm 0.00 in0.0 mm 0.00 in0.0 mm
08:58 AM 23.4°F-4.8°C 20.9°F-6.2°C 90% 5.8 mph W9.3 kmh W 13.0 mph20.9 kmh 29.70 in1005.8 mb 0.00 in0.0 mm 0.00 in0.0 mm 0.00 in0.0 mm
08:59 AM 23.4°F-4.8°C 20.9°F-6.2°C 90% 4.7 mph NNW7.6 kmh NNW 12.5 mph20.1 kmh 29.70 in1005.8 mb 0.00 in0.0 mm 0.00 in0.0 mm 0.00 in0.0 mm
09:00 AM 23.5°F-4.7°C 20.7°F-6.3°C 89% 4.2 mph NNE6.8 kmh NNE 11.9 mph19.2 kmh 29.70 in1005.8 mb 0.00 in0.0 mm 0.00 in0.0 mm 0.00 in0.0 mm
09:01 AM 23.5°F-4.7°C 20.7°F-6.3°C 89% 8.3 mph N13.4 kmh N 10.9 mph17.5 kmh 29.70 in1005.8 mb 0.00 in0.0 mm 0.00 in0.0 mm 0.00 in0.0 mm
09:02 AM 23.5°F-4.7°C 20.5°F-6.4°C 88% 3.7 mph NNE6.0 kmh NNE 10.9 mph17.5 kmh 29.70 in1005.8 mb 0.00 in0.0 mm 0.00 in0.0 mm 0.00 in0.0 mm
09:03 AM 23.5°F-4.7°C 20.5°F-6.4°C 88% 8.9 mph NNW14.3 kmh NNW 10.9 mph17.5 kmh 29.70 in1005.8 mb 0.00 in0.0 mm 0.00 in0.0 mm 0.00 in0.0 mm
09:04 AM 23.5°F-4.7°C 20.5°F-6.4°C 88% 13.0 mph NNE20.9 kmh NNE 13.0 mph20.9 kmh 29.70 in1005.8 mb 0.00 in0.0 mm 0.00 in0.0 mm 0.00 in0.0 mm
09:05 AM 23.5°F-4.7°C 20.2°F-6.6°C 87% 6.8 mph NNE10.9 kmh NNE 13.0 mph20.9 kmh 29.71 in1006.1 mb 0.00 in0.0 mm 0.00 in0.0 mm 0.00 in0.0 mm
09:06 AM 23.5°F-4.7°C 20.2°F-6.6°C 87% 6.8 mph E10.9 kmh E 13.0 mph20.9 kmh 29.71 in1006.1 mb 0.00 in0.0 mm 0.00 in0.0 mm 0.00 in0.0 mm
09:07 AM 23.5°F-4.7°C 20.5°F-6.4°C 88% 7.3 mph NNE11.7 kmh NNE 13.0 mph20.9 kmh 29.71 in1006.1 mb 0.00 in0.0 mm 0.00 in0.0 mm 0.00 in0.0 mm
09:08 AM 23.5°F-4.7°C 20.5°F-6.4°C 88% 6.3 mph NNW10.1 kmh NNW 13.0 mph20.9 kmh 29.71 in1006.1 mb 0.00 in0.0 mm 0.00 in0.0 mm 0.00 in0.0 mm
09:09 AM 23.5°F-4.7°C 20.2°F-6.6°C 87% 10.9 mph NNW17.5 kmh NNW 13.0 mph20.9 kmh 29.71 in1006.1 mb 0.00 in0.0 mm 0.00 in0.0 mm 0.00 in0.0 mm
09:10 AM 23.5°F-4.7°C 20.5°F-6.4°C 88% 10.4 mph NE16.7 kmh NE 13.0 mph20.9 kmh 29.71 in1006.1 mb 0.00 in0.0 mm 0.00 in0.0 mm 0.00 in0.0 mm
09:11 AM 23.5°F-4.7°C 20.5°F-6.4°C 88% 11.9 mph N19.2 kmh N 13.0 mph20.9 kmh 29.71 in1006.1 mb 0.00 in0.0 mm 0.00 in0.0 mm 0.00 in0.0 mm
09:12 AM 23.5°F-4.7°C 20.2°F-6.6°C 87% 7.8 mph NNE12.6 kmh NNE 13.0 mph20.9 kmh 29.71 in1006.1 mb 0.00 in0.0 mm 0.00 in0.0 mm 0.00 in0.0 mm
09:13 AM 23.5°F-4.7°C 20.2°F-6.6°C 87% 10.9 mph WNW17.5 kmh WNW 13.0 mph20.9 kmh 29.71 in1006.1 mb 0.00 in0.0 mm 0.00 in0.0 mm 0.00 in0.0 mm
09:14 AM 23.5°F-4.7°C 20.2°F-6.6°C 87% 7.3 mph N11.7 kmh N 12.5 mph20.1 kmh 29.71 in1006.1 mb 0.00 in0.0 mm 0.00 in0.0 mm 0.00 in0.0 mm
09:15 AM 23.5°F-4.7°C 20.2°F-6.6°C 87% 6.3 mph NNW10.1 kmh NNW 12.5 mph20.1 kmh 29.71 in1006.1 mb 0.00 in0.0 mm 0.00 in0.0 mm 0.00 in0.0 mm
09:16 AM 23.5°F-4.7°C 20.2°F-6.6°C 87% 6.8 mph N10.9 kmh N 12.5 mph20.1 kmh 29.71 in1006.1 mb 0.00 in0.0 mm 0.00 in0.0 mm 0.00 in0.0 mm
09:17 AM 23.7°F-4.6°C 20.1°F-6.6°C 86% 5.8 mph NNE9.3 kmh NNE 12.5 mph20.1 kmh 29.71 in1006.1 mb 0.00 in0.0 mm 0.00 in0.0 mm 0.00 in0.0 mm
09:18 AM 23.7°F-4.6°C 20.4°F-6.4°C 87% 9.9 mph NNE15.9 kmh NNE 12.5 mph20.1 kmh 29.71 in1006.1 mb 0.00 in0.0 mm 0.00 in0.0 mm 0.00 in0.0 mm
09:19 AM 23.7°F-4.6°C 20.1°F-6.6°C 86% 5.3 mph N8.5 kmh N 12.5 mph20.1 kmh 29.71 in1006.1 mb 0.00 in0.0 mm 0.00 in0.0 mm 0.00 in0.0 mm
09:20 AM 23.7°F-4.6°C 20.1°F-6.6°C 86% 7.3 mph WNW11.7 kmh WNW 13.0 mph20.9 kmh 29.71 in1006.1 mb 0.00 in0.0 mm 0.00 in0.0 mm 0.00 in0.0 mm
09:21 AM 23.7°F-4.6°C 20.1°F-6.6°C 86% 5.3 mph WNW8.5 kmh WNW 13.0 mph20.9 kmh 29.71 in1006.1 mb 0.00 in0.0 mm 0.00 in0.0 mm 0.00 in0.0 mm
09:22 AM 23.9°F-4.5°C 20.1°F-6.6°C 85% 6.3 mph W10.1 kmh W 13.0 mph20.9 kmh 29.71 in1006.1 mb 0.00 in0.0 mm 0.00 in0.0 mm 0.00 in0.0 mm
09:23 AM 23.9°F-4.5°C 20.3°F-6.5°C 86% 6.3 mph NNW10.1 kmh NNW 13.0 mph20.9 kmh 29.71 in1006.1 mb 0.00 in0.0 mm 0.00 in0.0 mm 0.00 in0.0 mm
09:24 AM 23.9°F-4.5°C 20.3°F-6.5°C 86% 13.5 mph NNW21.7 kmh NNW 13.5 mph21.7 kmh 29.71 in1006.1 mb 0.00 in0.0 mm 0.00 in0.0 mm 0.00 in0.0 mm
09:25 AM 23.9°F-4.5°C 20.3°F-6.5°C 86% 5.3 mph NNE8.5 kmh NNE 13.5 mph21.7 kmh 29.71 in1006.1 mb 0.00 in0.0 mm 0.00 in0.0 mm 0.00 in0.0 mm
09:26 AM 23.9°F-4.5°C 20.1°F-6.6°C 85% 7.3 mph NNE11.7 kmh NNE 13.5 mph21.7 kmh 29.71 in1006.1 mb 0.00 in0.0 mm 0.00 in0.0 mm 0.00 in0.0 mm
09:27 AM 23.9°F-4.5°C 20.3°F-6.5°C 86% 9.9 mph NW15.9 kmh NW 13.5 mph21.7 kmh 29.71 in1006.1 mb 0.00 in0.0 mm 0.00 in0.0 mm 0.00 in0.0 mm
09:28 AM 23.9°F-4.5°C 20.3°F-6.5°C 86% 8.9 mph SSW14.3 kmh SSW 13.5 mph21.7 kmh 29.71 in1006.1 mb 0.00 in0.0 mm 0.00 in0.0 mm 0.00 in0.0 mm
09:29 AM 23.9°F-4.5°C 20.1°F-6.6°C 85% 4.7 mph W7.6 kmh W 13.5 mph21.7 kmh 29.72 in1006.4 mb 0.00 in0.0 mm 0.00 in0.0 mm 0.00 in0.0 mm
09:30 AM 24.1°F-4.4°C 20.0°F-6.7°C 84% 8.3 mph N13.4 kmh N 13.5 mph21.7 kmh 29.72 in1006.4 mb 0.00 in0.0 mm 0.00 in0.0 mm 0.00 in0.0 mm
09:31 AM 24.1°F-4.4°C 20.0°F-6.7°C 84% 6.8 mph N10.9 kmh N 13.5 mph21.7 kmh 29.72 in1006.4 mb 0.00 in0.0 mm 0.00 in0.0 mm 0.00 in0.0 mm
09:32 AM 24.1°F-4.4°C 20.0°F-6.7°C 84% 7.8 mph NNE12.6 kmh NNE 13.5 mph21.7 kmh 29.72 in1006.4 mb 0.00 in0.0 mm 0.00 in0.0 mm 0.00 in0.0 mm
09:33 AM 24.1°F-4.4°C 20.0°F-6.7°C 84% 6.8 mph NW10.9 kmh NW 13.5 mph21.7 kmh 29.72 in1006.4 mb 0.00 in0.0 mm 0.00 in0.0 mm 0.00 in0.0 mm
09:34 AM 24.1°F-4.4°C 20.0°F-6.7°C 84% 3.2 mph NNW5.1 kmh NNW 13.5 mph21.7 kmh 29.72 in1006.4 mb 0.00 in0.0 mm 0.00 in0.0 mm 0.00 in0.0 mm
09:35 AM 24.3°F-4.3°C 19.6°F-6.9°C 82% 6.3 mph WSW10.1 kmh WSW 11.4 mph18.3 kmh 29.72 in1006.4 mb 0.00 in0.0 mm 0.00 in0.0 mm 0.00 in0.0 mm
09:36 AM 24.1°F-4.4°C 20.3°F-6.5°C 85% 5.8 mph N9.3 kmh N 11.4 mph18.3 kmh 29.72 in1006.4 mb 0.00 in0.0 mm 0.00 in0.0 mm 0.00 in0.0 mm
09:37 AM 24.1°F-4.4°C 20.3°F-6.5°C 85% 5.8 mph NNW9.3 kmh NNW 11.4 mph18.3 kmh 29.72 in1006.4 mb 0.00 in0.0 mm 0.00 in0.0 mm 0.00 in0.0 mm
09:38 AM 24.1°F-4.4°C 20.3°F-6.5°C 85% 5.3 mph NNW8.5 kmh NNW 11.4 mph18.3 kmh 29.72 in1006.4 mb 0.00 in0.0 mm 0.00 in0.0 mm 0.00 in0.0 mm
09:39 AM 24.1°F-4.4°C 20.3°F-6.5°C 85% 3.7 mph W6.0 kmh W 11.4 mph18.3 kmh 29.72 in1006.4 mb 0.00 in0.0 mm 0.00 in0.0 mm 0.00 in0.0 mm
09:40 AM 24.3°F-4.3°C 20.2°F-6.6°C 84% 3.7 mph WSW6.0 kmh WSW 9.4 mph15.1 kmh 29.72 in1006.4 mb 0.00 in0.0 mm 0.00 in0.0 mm 0.00 in0.0 mm
09:41 AM 24.4°F-4.2°C 20.0°F-6.7°C 83% 8.3 mph NE13.4 kmh NE 9.4 mph15.1 kmh 29.72 in1006.4 mb 0.00 in0.0 mm 0.00 in0.0 mm 0.00 in0.0 mm
09:42 AM 24.4°F-4.2°C 20.0°F-6.7°C 83% 6.3 mph NNE10.1 kmh NNE 9.9 mph15.9 kmh 29.72 in1006.4 mb 0.00 in0.0 mm 0.00 in0.0 mm 0.00 in0.0 mm
09:43 AM 24.4°F-4.2°C 20.3°F-6.5°C 84% 3.7 mph N6.0 kmh N 9.9 mph15.9 kmh 29.72 in1006.4 mb 0.00 in0.0 mm 0.00 in0.0 mm 0.00 in0.0 mm
09:44 AM 24.3°F-4.3°C 20.2°F-6.6°C 84% 2.2 mph ENE3.5 kmh ENE 9.9 mph15.9 kmh 29.72 in1006.4 mb 0.00 in0.0 mm 0.00 in0.0 mm 0.00 in0.0 mm
09:45 AM 24.3°F-4.3°C 19.9°F-6.7°C 83% 5.8 mph NW9.3 kmh NW 9.9 mph15.9 kmh 29.72 in1006.4 mb 0.00 in0.0 mm 0.00 in0.0 mm 0.00 in0.0 mm
09:46 AM 24.4°F-4.2°C 20.0°F-6.7°C 83% 7.3 mph W11.7 kmh W 9.9 mph15.9 kmh 29.72 in1006.4 mb 0.00 in0.0 mm 0.00 in0.0 mm 0.00 in0.0 mm
09:47 AM 24.4°F-4.2°C 20.0°F-6.7°C 83% 8.3 mph W13.4 kmh W 9.9 mph15.9 kmh 29.72 in1006.4 mb 0.00 in0.0 mm 0.00 in0.0 mm 0.00 in0.0 mm
09:48 AM 24.4°F-4.2°C 20.0°F-6.7°C 83% 7.8 mph W12.6 kmh W 9.9 mph15.9 kmh 29.72 in1006.4 mb 0.00 in0.0 mm 0.00 in0.0 mm 0.00 in0.0 mm
09:49 AM 24.3°F-4.3°C 19.9°F-6.7°C 83% 8.9 mph ESE14.3 kmh ESE 9.9 mph15.9 kmh 29.72 in1006.4 mb 0.00 in0.0 mm 0.00 in0.0 mm 0.00 in0.0 mm
09:50 AM 24.4°F-4.2°C 19.7°F-6.8°C 82% 12.5 mph SW20.1 kmh SW 12.5 mph20.1 kmh 29.72 in1006.4 mb 0.00 in0.0 mm 0.00 in0.0 mm 0.00 in0.0 mm
09:51 AM 24.4°F-4.2°C 19.4°F-7.0°C 81% 7.8 mph NNW12.6 kmh NNW 14.5 mph23.3 kmh 29.72 in1006.4 mb 0.00 in0.0 mm 0.00 in0.0 mm 0.00 in0.0 mm
09:52 AM 24.6°F-4.1°C 19.3°F-7.1°C 80% 9.4 mph NNE15.1 kmh NNE 14.5 mph23.3 kmh 29.72 in1006.4 mb 0.00 in0.0 mm 0.00 in0.0 mm 0.00 in0.0 mm
09:53 AM 24.6°F-4.1°C 19.6°F-6.9°C 81% 5.3 mph W8.5 kmh W 14.5 mph23.3 kmh 29.73 in1006.8 mb 0.00 in0.0 mm 0.00 in0.0 mm 0.00 in0.0 mm
09:54 AM 24.4°F-4.2°C 19.7°F-6.8°C 82% 9.9 mph W15.9 kmh W 14.5 mph23.3 kmh 29.73 in1006.8 mb 0.00 in0.0 mm 0.00 in0.0 mm 0.00 in0.0 mm
09:55 AM 24.3°F-4.3°C 19.9°F-6.7°C 83% 17.1 mph NW27.5 kmh NW 17.1 mph27.5 kmh 29.73 in1006.8 mb 0.00 in0.0 mm 0.00 in0.0 mm 0.00 in0.0 mm
09:56 AM 24.4°F-4.2°C 19.4°F-7.0°C 81% 7.3 mph W11.7 kmh W 17.1 mph27.5 kmh 29.73 in1006.8 mb 0.00 in0.0 mm 0.00 in0.0 mm 0.00 in0.0 mm
09:57 AM 24.4°F-4.2°C 19.4°F-7.0°C 81% 6.8 mph NNW10.9 kmh NNW 17.1 mph27.5 kmh 29.73 in1006.8 mb 0.00 in0.0 mm 0.00 in0.0 mm 0.00 in0.0 mm
09:58 AM 24.8°F-4.0°C 19.2°F-7.1°C 79% 6.8 mph WNW10.9 kmh WNW 17.1 mph27.5 kmh 29.73 in1006.8 mb 0.00 in0.0 mm 0.00 in0.0 mm 0.00 in0.0 mm
09:59 AM 24.8°F-4.0°C 19.5°F-6.9°C 80% 12.5 mph NNE20.1 kmh NNE 17.1 mph27.5 kmh 29.73 in1006.8 mb 0.00 in0.0 mm 0.00 in0.0 mm 0.00 in0.0 mm
10:00 AM 24.8°F-4.0°C 19.2°F-7.1°C 79% 9.9 mph NNE15.9 kmh NNE 17.1 mph27.5 kmh 29.73 in1006.8 mb 0.00 in0.0 mm 0.00 in0.0 mm 0.00 in0.0 mm
10:01 AM 24.8°F-4.0°C 19.2°F-7.1°C 79% 9.9 mph NNW15.9 kmh NNW 17.1 mph27.5 kmh 29.73 in1006.8 mb 0.00 in0.0 mm 0.00 in0.0 mm 0.00 in0.0 mm
10:02 AM 25.0°F-3.9°C 19.1°F-7.2°C 78% 4.7 mph W7.6 kmh W 17.1 mph27.5 kmh 29.73 in1006.8 mb 0.00 in0.0 mm 0.00 in0.0 mm 0.00 in0.0 mm
10:03 AM 25.0°F-3.9°C 19.4°F-7.0°C 79% 11.9 mph NNE19.2 kmh NNE 17.1 mph27.5 kmh 29.73 in1006.8 mb 0.00 in0.0 mm 0.00 in0.0 mm 0.00 in0.0 mm
10:04 AM 25.0°F-3.9°C 19.4°F-7.0°C 79% 8.9 mph NNE14.3 kmh NNE 17.1 mph27.5 kmh 29.73 in1006.8 mb 0.00 in0.0 mm 0.00 in0.0 mm 0.00 in0.0 mm
10:05 AM 24.8°F-4.0°C 19.5°F-6.9°C 80% 7.3 mph NW11.7 kmh NW 17.1 mph27.5 kmh 29.73 in1006.8 mb 0.00 in0.0 mm 0.00 in0.0 mm 0.00 in0.0 mm
10:06 AM 24.8°F-4.0°C 19.5°F-6.9°C 80% 10.4 mph N16.7 kmh N 14.0 mph22.5 kmh 29.73 in1006.8 mb 0.00 in0.0 mm 0.00 in0.0 mm 0.00 in0.0 mm
10:07 AM 25.0°F-3.9°C 19.1°F-7.2°C 78% 14.5 mph N23.3 kmh N 14.5 mph23.3 kmh 29.73 in1006.8 mb 0.00 in0.0 mm 0.00 in0.0 mm 0.00 in0.0 mm
10:08 AM 25.0°F-3.9°C 18.8°F-7.3°C 77% 8.9 mph N14.3 kmh N 14.5 mph23.3 kmh 29.73 in1006.8 mb 0.00 in0.0 mm 0.00 in0.0 mm 0.00 in0.0 mm
10:09 AM 25.2°F-3.8°C 19.0°F-7.2°C 77% 12.5 mph NNW20.1 kmh NNW 14.5 mph23.3 kmh 29.73 in1006.8 mb 0.00 in0.0 mm 0.00 in0.0 mm 0.00 in0.0 mm
10:10 AM 25.2°F-3.8°C 19.0°F-7.2°C 77% 11.4 mph N18.3 kmh N 14.5 mph23.3 kmh 29.73 in1006.8 mb 0.00 in0.0 mm 0.00 in0.0 mm 0.00 in0.0 mm
10:11 AM 25.0°F-3.9°C 18.8°F-7.3°C 77% 9.9 mph NNW15.9 kmh NNW 14.5 mph23.3 kmh 29.73 in1006.8 mb 0.00 in0.0 mm 0.00 in0.0 mm 0.00 in0.0 mm
10:12 AM 25.2°F-3.8°C 18.4°F-7.6°C 75% 14.0 mph N22.5 kmh N 14.5 mph23.3 kmh 29.73 in1006.8 mb 0.00 in0.0 mm 0.00 in0.0 mm 0.00 in0.0 mm
10:13 AM 25.2°F-3.8°C 18.4°F-7.6°C 75% 16.6 mph E26.7 kmh E 16.6 mph26.7 kmh 29.73 in1006.8 mb 0.00 in0.0 mm 0.00 in0.0 mm 0.00 in0.0 mm
10:14 AM 25.2°F-3.8°C 18.4°F-7.6°C 75% 7.3 mph WNW11.7 kmh WNW 16.6 mph26.7 kmh 29.73 in1006.8 mb 0.00 in0.0 mm 0.00 in0.0 mm 0.00 in0.0 mm
10:15 AM 25.0°F-3.9°C 19.1°F-7.2°C 78% 9.9 mph N15.9 kmh N 16.6 mph26.7 kmh 29.73 in1006.8 mb 0.00 in0.0 mm 0.00 in0.0 mm 0.00 in0.0 mm
10:16 AM 25.0°F-3.9°C 18.8°F-7.3°C 77% 11.4 mph SW18.3 kmh SW 16.6 mph26.7 kmh 29.73 in1006.8 mb 0.00 in0.0 mm 0.00 in0.0 mm 0.00 in0.0 mm
10:17 AM 25.0°F-3.9°C 18.8°F-7.3°C 77% 8.9 mph N14.3 kmh N 16.6 mph26.7 kmh 29.74 in1007.1 mb 0.00 in0.0 mm 0.00 in0.0 mm 0.00 in0.0 mm
10:18 AM 25.2°F-3.8°C 19.3°F-7.1°C 78% 6.3 mph NW10.1 kmh NW 16.6 mph26.7 kmh 29.74 in1007.1 mb 0.00 in0.0 mm 0.00 in0.0 mm 0.00 in0.0 mm
10:19 AM 25.2°F-3.8°C 19.3°F-7.1°C 78% 8.9 mph NNW14.3 kmh NNW 16.6 mph26.7 kmh 29.74 in1007.1 mb 0.00 in0.0 mm 0.00 in0.0 mm 0.00 in0.0 mm
10:20 AM 25.2°F-3.8°C 19.6°F-6.9°C 79% 9.9 mph WNW15.9 kmh WNW 16.6 mph26.7 kmh 29.74 in1007.1 mb 0.00 in0.0 mm 0.00 in0.0 mm 0.00 in0.0 mm
10:21 AM 25.2°F-3.8°C 19.6°F-6.9°C 79% 16.1 mph NNE25.9 kmh NNE 16.6 mph26.7 kmh 29.74 in1007.1 mb 0.00 in0.0 mm 0.00 in0.0 mm 0.00 in0.0 mm
10:22 AM 25.2°F-3.8°C 19.6°F-6.9°C 79% 6.8 mph NW10.9 kmh NW 16.6 mph26.7 kmh 29.74 in1007.1 mb 0.00 in0.0 mm 0.00 in0.0 mm 0.00 in0.0 mm
10:23 AM 25.2°F-3.8°C 19.3°F-7.1°C 78% 11.4 mph N18.3 kmh N 16.1 mph25.9 kmh 29.74 in1007.1 mb 0.00 in0.0 mm 0.00 in0.0 mm 0.00 in0.0 mm
10:24 AM 25.2°F-3.8°C 19.0°F-7.2°C 77% 10.9 mph NNW17.5 kmh NNW 16.1 mph25.9 kmh 29.74 in1007.1 mb 0.00 in0.0 mm 0.00 in0.0 mm 0.00 in0.0 mm
10:25 AM 25.2°F-3.8°C 19.0°F-7.2°C 77% 8.3 mph N13.4 kmh N 16.1 mph25.9 kmh 29.74 in1007.1 mb 0.00 in0.0 mm 0.00 in0.0 mm 0.00 in0.0 mm
10:26 AM 25.2°F-3.8°C 19.3°F-7.1°C 78% 13.0 mph NNW20.9 kmh NNW 16.1 mph25.9 kmh 29.74 in1007.1 mb 0.00 in0.0 mm 0.00 in0.0 mm 0.00 in0.0 mm
10:27 AM 25.0°F-3.9°C 19.4°F-7.0°C 79% 18.1 mph NNW29.1 kmh NNW 18.1 mph29.1 kmh 29.74 in1007.1 mb 0.00 in0.0 mm 0.00 in0.0 mm 0.00 in0.0 mm
10:28 AM 25.0°F-3.9°C 19.1°F-7.2°C 78% 12.5 mph W20.1 kmh W 18.1 mph29.1 kmh 29.74 in1007.1 mb 0.00 in0.0 mm 0.00 in0.0 mm 0.00 in0.0 mm
10:29 AM 25.0°F-3.9°C 19.1°F-7.2°C 78% 9.4 mph N15.1 kmh N 18.1 mph29.1 kmh 29.75 in1007.5 mb 0.00 in0.0 mm 0.00 in0.0 mm 0.00 in0.0 mm
10:30 AM 25.0°F-3.9°C 19.1°F-7.2°C 78% 10.9 mph NNW17.5 kmh NNW 18.1 mph29.1 kmh 29.75 in1007.5 mb 0.00 in0.0 mm 0.00 in0.0 mm 0.00 in0.0 mm
10:31 AM 25.0°F-3.9°C 19.4°F-7.0°C 79% 6.3 mph NNW10.1 kmh NNW 18.1 mph29.1 kmh 29.75 in1007.5 mb 0.00 in0.0 mm 0.00 in0.0 mm 0.00 in0.0 mm
10:32 AM 25.0°F-3.9°C 19.7°F-6.8°C 80% 7.3 mph W11.7 kmh W 18.1 mph29.1 kmh 29.75 in1007.5 mb 0.00 in0.0 mm 0.00 in0.0 mm 0.00 in0.0 mm
10:33 AM 25.0°F-3.9°C 19.4°F-7.0°C 79% 11.9 mph NNW19.2 kmh NNW 18.1 mph29.1 kmh 29.75 in1007.5 mb 0.00 in0.0 mm 0.00 in0.0 mm 0.00 in0.0 mm
10:34 AM 25.0°F-3.9°C 19.4°F-7.0°C 79% 12.5 mph NNW20.1 kmh NNW 18.1 mph29.1 kmh 29.75 in1007.5 mb 0.00 in0.0 mm 0.00 in0.0 mm 0.00 in0.0 mm
10:35 AM 25.0°F-3.9°C 19.4°F-7.0°C 79% 8.3 mph NNW13.4 kmh NNW 18.1 mph29.1 kmh 29.75 in1007.5 mb 0.00 in0.0 mm 0.00 in0.0 mm 0.00 in0.0 mm
10:36 AM 25.2°F-3.8°C 19.3°F-7.1°C 78% 10.4 mph NW16.7 kmh NW 18.1 mph29.1 kmh 29.75 in1007.5 mb 0.00 in0.0 mm 0.00 in0.0 mm 0.00 in0.0 mm
10:37 AM 25.2°F-3.8°C 19.0°F-7.2°C 77% 17.1 mph NNW27.5 kmh NNW 18.1 mph29.1 kmh 29.75 in1007.5 mb 0.00 in0.0 mm 0.00 in0.0 mm 0.00 in0.0 mm
10:38 AM 25.0°F-3.9°C 19.1°F-7.2°C 78% 16.6 mph N26.7 kmh N 17.1 mph27.5 kmh 29.75 in1007.5 mb 0.00 in0.0 mm 0.00 in0.0 mm 0.00 in0.0 mm
10:39 AM 24.8°F-4.0°C 19.2°F-7.1°C 79% 10.4 mph NNE16.7 kmh NNE 18.6 mph29.9 kmh 29.75 in1007.5 mb 0.00 in0.0 mm 0.00 in0.0 mm 0.00 in0.0 mm
10:40 AM 24.8°F-4.0°C 19.2°F-7.1°C 79% 13.5 mph NW21.7 kmh NW 18.6 mph29.9 kmh 29.75 in1007.5 mb 0.00 in0.0 mm 0.00 in0.0 mm 0.00 in0.0 mm
10:41 AM 24.6°F-4.1°C 19.6°F-6.9°C 81% 13.0 mph W20.9 kmh W 18.6 mph29.9 kmh 29.75 in1007.5 mb 0.00 in0.0 mm 0.00 in0.0 mm 0.00 in0.0 mm
10:42 AM 24.6°F-4.1°C 19.6°F-6.9°C 81% 9.9 mph NNE15.9 kmh NNE 18.6 mph29.9 kmh 29.75 in1007.5 mb 0.00 in0.0 mm 0.00 in0.0 mm 0.00 in0.0 mm
10:43 AM 24.6°F-4.1°C 19.6°F-6.9°C 81% 14.5 mph NNE23.3 kmh NNE 18.6 mph29.9 kmh 29.75 in1007.5 mb 0.00 in0.0 mm 0.00 in0.0 mm 0.00 in0.0 mm
10:44 AM 24.6°F-4.1°C 19.3°F-7.1°C 80% 13.5 mph NE21.7 kmh NE 18.6 mph29.9 kmh 29.75 in1007.5 mb 0.00 in0.0 mm 0.00 in0.0 mm 0.00 in0.0 mm
10:45 AM 24.8°F-4.0°C 19.5°F-6.9°C 80% 12.5 mph NNE20.1 kmh NNE 18.6 mph29.9 kmh 29.75 in1007.5 mb 0.00 in0.0 mm 0.00 in0.0 mm 0.00 in0.0 mm
10:46 AM 24.8°F-4.0°C 19.5°F-6.9°C 80% 6.8 mph W10.9 kmh W 18.6 mph29.9 kmh 29.75 in1007.5 mb 0.00 in0.0 mm 0.00 in0.0 mm 0.00 in0.0 mm
10:47 AM 24.8°F-4.0°C 19.8°F-6.8°C 81% 6.8 mph NNE10.9 kmh NNE 18.6 mph29.9 kmh 29.75 in1007.5 mb 0.00 in0.0 mm 0.00 in0.0 mm 0.00 in0.0 mm
10:48 AM 24.8°F-4.0°C 19.8°F-6.8°C 81% 7.8 mph WNW12.6 kmh WNW 18.6 mph29.9 kmh 29.75 in1007.5 mb 0.00 in0.0 mm 0.00 in0.0 mm 0.00 in0.0 mm
10:49 AM 24.8°F-4.0°C 19.8°F-6.8°C 81% 11.4 mph NNE18.3 kmh NNE 15.5 mph24.9 kmh 29.75 in1007.5 mb 0.00 in0.0 mm 0.00 in0.0 mm 0.00 in0.0 mm
10:50 AM 24.8°F-4.0°C 19.8°F-6.8°C 81% 13.5 mph N21.7 kmh N 15.5 mph24.9 kmh 29.75 in1007.5 mb 0.00 in0.0 mm 0.00 in0.0 mm 0.00 in0.0 mm
10:51 AM 24.8°F-4.0°C 19.5°F-6.9°C 80% 14.0 mph NNE22.5 kmh NNE 15.5 mph24.9 kmh 29.75 in1007.5 mb 0.00 in0.0 mm 0.00 in0.0 mm 0.00 in0.0 mm
10:52 AM 24.8°F-4.0°C 19.5°F-6.9°C 80% 15.0 mph N24.1 kmh N 15.5 mph24.9 kmh 29.75 in1007.5 mb 0.00 in0.0 mm 0.00 in0.0 mm 0.00 in0.0 mm
10:53 AM 24.8°F-4.0°C 19.5°F-6.9°C 80% 12.5 mph WNW20.1 kmh WNW 16.6 mph26.7 kmh 29.74 in1007.1 mb 0.00 in0.0 mm 0.00 in0.0 mm 0.00 in0.0 mm
10:54 AM 24.8°F-4.0°C 19.8°F-6.8°C 81% 8.3 mph NNW13.4 kmh NNW 16.6 mph26.7 kmh 29.74 in1007.1 mb 0.00 in0.0 mm 0.00 in0.0 mm 0.00 in0.0 mm
10:55 AM 24.8°F-4.0°C 20.1°F-6.6°C 82% 7.3 mph ENE11.7 kmh ENE 16.6 mph26.7 kmh 29.74 in1007.1 mb 0.00 in0.0 mm 0.00 in0.0 mm 0.00 in0.0 mm
10:56 AM 24.8°F-4.0°C 20.4°F-6.4°C 83% 7.3 mph ENE11.7 kmh ENE 16.6 mph26.7 kmh 29.74 in1007.1 mb 0.00 in0.0 mm 0.00 in0.0 mm 0.00 in0.0 mm
10:57 AM 24.8°F-4.0°C 20.1°F-6.6°C 82% 10.9 mph N17.5 kmh N 16.6 mph26.7 kmh 29.74 in1007.1 mb 0.00 in0.0 mm 0.00 in0.0 mm 0.00 in0.0 mm
10:58 AM 24.8°F-4.0°C 20.1°F-6.6°C 82% 7.8 mph N12.6 kmh N 16.6 mph26.7 kmh 29.74 in1007.1 mb 0.00 in0.0 mm 0.00 in0.0 mm 0.00 in0.0 mm
10:59 AM 24.8°F-4.0°C 20.1°F-6.6°C 82% 6.8 mph N10.9 kmh N 16.6 mph26.7 kmh 29.74 in1007.1 mb 0.00 in0.0 mm 0.00 in0.0 mm 0.00 in0.0 mm
11:00 AM 24.8°F-4.0°C 20.1°F-6.6°C 82% 16.6 mph N26.7 kmh N 16.6 mph26.7 kmh 29.74 in1007.1 mb 0.00 in0.0 mm 0.00 in0.0 mm 0.00 in0.0 mm
11:01 AM 24.6°F-4.1°C 19.6°F-6.9°C 81% 13.0 mph NNW20.9 kmh NNW 16.6 mph26.7 kmh 29.74 in1007.1 mb 0.00 in0.0 mm 0.00 in0.0 mm 0.00 in0.0 mm
11:02 AM 24.4°F-4.2°C 19.4°F-7.0°C 81% 14.5 mph N23.3 kmh N 16.6 mph26.7 kmh 29.74 in1007.1 mb 0.00 in0.0 mm 0.00 in0.0 mm 0.00 in0.0 mm
11:08 AM 24.4°F-4.2°C 19.4°F-7.0°C 81% 8.9 mph NW14.3 kmh NW 16.6 mph26.7 kmh 29.75 in1007.5 mb 0.00 in0.0 mm 0.00 in0.0 mm 0.00 in0.0 mm
11:09 AM 24.3°F-4.3°C 19.9°F-6.7°C 83% 19.1 mph NW30.7 kmh NW 19.1 mph30.7 kmh 29.75 in1007.5 mb 0.00 in0.0 mm 0.00 in0.0 mm 0.00 in0.0 mm
11:10 AM 24.3°F-4.3°C 19.9°F-6.7°C 83% 14.0 mph NNW22.5 kmh NNW 19.1 mph30.7 kmh 29.75 in1007.5 mb 0.00 in0.0 mm 0.00 in0.0 mm 0.00 in0.0 mm
11:11 AM 24.3°F-4.3°C 19.6°F-6.9°C 82% 5.3 mph W8.5 kmh W 19.1 mph30.7 kmh 29.75 in1007.5 mb 0.00 in0.0 mm 0.00 in0.0 mm 0.00 in0.0 mm
11:12 AM 24.3°F-4.3°C 19.9°F-6.7°C 83% 7.3 mph N11.7 kmh N 19.1 mph30.7 kmh 29.75 in1007.5 mb 0.00 in0.0 mm 0.00 in0.0 mm 0.00 in0.0 mm
11:13 AM 24.3°F-4.3°C 20.2°F-6.6°C 84% 10.4 mph N16.7 kmh N 19.1 mph30.7 kmh 29.75 in1007.5 mb 0.00 in0.0 mm 0.00 in0.0 mm 0.00 in0.0 mm
11:14 AM 24.4°F-4.2°C 20.0°F-6.7°C 83% 12.5 mph NNE20.1 kmh NNE 19.1 mph30.7 kmh 29.75 in1007.5 mb 0.00 in0.0 mm 0.00 in0.0 mm 0.00 in0.0 mm
11:15 AM 24.4°F-4.2°C 20.0°F-6.7°C 83% 12.5 mph NNW20.1 kmh NNW 19.1 mph30.7 kmh 29.75 in1007.5 mb 0.00 in0.0 mm 0.00 in0.0 mm 0.00 in0.0 mm
11:16 AM 24.4°F-4.2°C 20.0°F-6.7°C 83% 11.4 mph NNW18.3 kmh NNW 19.1 mph30.7 kmh 29.75 in1007.5 mb 0.00 in0.0 mm 0.00 in0.0 mm 0.00 in0.0 mm
11:17 AM 24.4°F-4.2°C 19.7°F-6.8°C 82% 12.5 mph NNE20.1 kmh NNE 19.1 mph30.7 kmh 29.75 in1007.5 mb 0.00 in0.0 mm 0.00 in0.0 mm 0.00 in0.0 mm
11:18 AM 24.4°F-4.2°C 19.7°F-6.8°C 82% 7.3 mph WNW11.7 kmh WNW 19.1 mph30.7 kmh 29.75 in1007.5 mb 0.00 in0.0 mm 0.00 in0.0 mm 0.00 in0.0 mm
11:19 AM 24.6°F-4.1°C 19.6°F-6.9°C 81% 7.3 mph WNW11.7 kmh WNW 19.1 mph30.7 kmh 29.75 in1007.5 mb 0.00 in0.0 mm 0.00 in0.0 mm 0.00 in0.0 mm
11:20 AM 24.6°F-4.1°C 19.9°F-6.7°C 82% 5.3 mph W8.5 kmh W 17.1 mph27.5 kmh 29.75 in1007.5 mb 0.00 in0.0 mm 0.00 in0.0 mm 0.00 in0.0 mm
11:21 AM 24.6°F-4.1°C 19.9°F-6.7°C 82% 5.8 mph N9.3 kmh N 17.1 mph27.5 kmh 29.75 in1007.5 mb 0.00 in0.0 mm 0.00 in0.0 mm 0.00 in0.0 mm
11:22 AM 24.6°F-4.1°C 19.9°F-6.7°C 82% 7.3 mph NE11.7 kmh NE 17.1 mph27.5 kmh 29.75 in1007.5 mb 0.00 in0.0 mm 0.00 in0.0 mm 0.00 in0.0 mm
11:23 AM 24.6°F-4.1°C 19.6°F-6.9°C 81% 10.4 mph N16.7 kmh N 17.1 mph27.5 kmh 29.75 in1007.5 mb 0.00 in0.0 mm 0.00 in0.0 mm 0.00 in0.0 mm
11:24 AM 24.6°F-4.1°C 19.6°F-6.9°C 81% 8.3 mph N13.4 kmh N 17.1 mph27.5 kmh 29.75 in1007.5 mb 0.00 in0.0 mm 0.00 in0.0 mm 0.00 in0.0 mm
11:29 AM 24.6°F-4.1°C 19.6°F-6.9°C 81% 10.4 mph SSW16.7 kmh SSW 15.5 mph24.9 kmh 29.74 in1007.1 mb 0.00 in0.0 mm 0.00 in0.0 mm 0.00 in0.0 mm
11:30 AM 24.6°F-4.1°C 19.9°F-6.7°C 82% 6.8 mph SSW10.9 kmh SSW 15.5 mph24.9 kmh 29.74 in1007.1 mb 0.00 in0.0 mm 0.00 in0.0 mm 0.00 in0.0 mm
11:31 AM 24.6°F-4.1°C 19.9°F-6.7°C 82% 8.9 mph NNW14.3 kmh NNW 15.5 mph24.9 kmh 29.74 in1007.1 mb 0.00 in0.0 mm 0.00 in0.0 mm 0.00 in0.0 mm
11:32 AM 24.8°F-4.0°C 20.4°F-6.4°C 83% 7.8 mph NNW12.6 kmh NNW 15.5 mph24.9 kmh 29.74 in1007.1 mb 0.00 in0.0 mm 0.00 in0.0 mm 0.00 in0.0 mm
11:33 AM 24.8°F-4.0°C 20.1°F-6.6°C 82% 11.9 mph NNW19.2 kmh NNW 13.0 mph20.9 kmh 29.74 in1007.1 mb 0.00 in0.0 mm 0.00 in0.0 mm 0.00 in0.0 mm
11:34 AM 24.8°F-4.0°C 19.8°F-6.8°C 81% 7.3 mph WSW11.7 kmh WSW 13.0 mph20.9 kmh 29.74 in1007.1 mb 0.00 in0.0 mm 0.00 in0.0 mm 0.00 in0.0 mm
11:35 AM 24.8°F-4.0°C 20.1°F-6.6°C 82% 15.0 mph NNE24.1 kmh NNE 15.0 mph24.1 kmh 29.74 in1007.1 mb 0.00 in0.0 mm 0.00 in0.0 mm 0.00 in0.0 mm
11:36 AM 24.8°F-4.0°C 19.8°F-6.8°C 81% 18.1 mph NNE29.1 kmh NNE 18.1 mph29.1 kmh 29.74 in1007.1 mb 0.00 in0.0 mm 0.00 in0.0 mm 0.00 in0.0 mm
11:37 AM 24.8°F-4.0°C 19.8°F-6.8°C 81% 9.9 mph NW15.9 kmh NW 18.1 mph29.1 kmh 29.74 in1007.1 mb 0.00 in0.0 mm 0.00 in0.0 mm 0.00 in0.0 mm
11:38 AM 24.8°F-4.0°C 19.8°F-6.8°C 81% 10.9 mph W17.5 kmh W 18.1 mph29.1 kmh 29.74 in1007.1 mb 0.00 in0.0 mm 0.00 in0.0 mm 0.00 in0.0 mm
11:39 AM 25.0°F-3.9°C 20.0°F-6.7°C 81% 8.3 mph NNW13.4 kmh NNW 18.1 mph29.1 kmh 29.74 in1007.1 mb 0.00 in0.0 mm 0.00 in0.0 mm 0.00 in0.0 mm
11:40 AM 25.2°F-3.8°C 19.9°F-6.7°C 80% 6.3 mph NNE10.1 kmh NNE 18.1 mph29.1 kmh 29.74 in1007.1 mb 0.00 in0.0 mm 0.00 in0.0 mm 0.00 in0.0 mm
11:41 AM 25.2°F-3.8°C 19.9°F-6.7°C 80% 9.9 mph NNE15.9 kmh NNE 18.1 mph29.1 kmh 29.74 in1007.1 mb 0.00 in0.0 mm 0.00 in0.0 mm 0.00 in0.0 mm
11:42 AM 25.2°F-3.8°C 19.9°F-6.7°C 80% 8.3 mph W13.4 kmh W 18.1 mph29.1 kmh 29.74 in1007.1 mb 0.00 in0.0 mm 0.00 in0.0 mm 0.00 in0.0 mm
11:43 AM 25.0°F-3.9°C 20.0°F-6.7°C 81% 8.3 mph W13.4 kmh W 18.1 mph29.1 kmh 29.74 in1007.1 mb 0.00 in0.0 mm 0.00 in0.0 mm 0.00 in0.0 mm
11:44 AM 25.0°F-3.9°C 20.3°F-6.5°C 82% 7.8 mph NNW12.6 kmh NNW 18.1 mph29.1 kmh 29.74 in1007.1 mb 0.00 in0.0 mm 0.00 in0.0 mm 0.00 in0.0 mm
11:45 AM 25.0°F-3.9°C 20.3°F-6.5°C 82% 10.4 mph NNW16.7 kmh NNW 18.1 mph29.1 kmh 29.74 in1007.1 mb 0.00 in0.0 mm 0.00 in0.0 mm 0.00 in0.0 mm
11:46 AM 25.0°F-3.9°C 20.3°F-6.5°C 82% 13.0 mph NNW20.9 kmh NNW 18.1 mph29.1 kmh 29.74 in1007.1 mb 0.00 in0.0 mm 0.00 in0.0 mm 0.00 in0.0 mm
11:47 AM 25.0°F-3.9°C 20.6°F-6.3°C 83% 7.3 mph NNW11.7 kmh NNW 15.5 mph24.9 kmh 29.74 in1007.1 mb 0.00 in0.0 mm 0.00 in0.0 mm 0.00 in0.0 mm
11:48 AM 25.2°F-3.8°C 20.5°F-6.4°C 82% 12.5 mph N20.1 kmh N 15.5 mph24.9 kmh 29.74 in1007.1 mb 0.00 in0.0 mm 0.00 in0.0 mm 0.00 in0.0 mm
11:49 AM 25.3°F-3.7°C 20.6°F-6.3°C 82% 10.9 mph NNW17.5 kmh NNW 15.5 mph24.9 kmh 29.74 in1007.1 mb 0.00 in0.0 mm 0.00 in0.0 mm 0.00 in0.0 mm
11:50 AM 25.2°F-3.8°C 20.2°F-6.6°C 81% 8.9 mph WSW14.3 kmh WSW 15.5 mph24.9 kmh 29.74 in1007.1 mb 0.00 in0.0 mm 0.00 in0.0 mm 0.00 in0.0 mm
11:51 AM 25.2°F-3.8°C 20.2°F-6.6°C 81% 6.8 mph SW10.9 kmh SW 15.5 mph24.9 kmh 29.74 in1007.1 mb 0.00 in0.0 mm 0.00 in0.0 mm 0.00 in0.0 mm
11:52 AM 25.3°F-3.7°C 20.3°F-6.5°C 81% 8.9 mph SSW14.3 kmh SSW 15.5 mph24.9 kmh 29.74 in1007.1 mb 0.00 in0.0 mm 0.00 in0.0 mm 0.00 in0.0 mm
11:53 AM 25.5°F-3.6°C 20.5°F-6.4°C 81% 6.8 mph ESE10.9 kmh ESE 14.0 mph22.5 kmh 29.73 in1006.8 mb 0.00 in0.0 mm 0.00 in0.0 mm 0.00 in0.0 mm
11:54 AM 25.5°F-3.6°C 20.8°F-6.2°C 82% 4.2 mph NW6.8 kmh NW 14.0 mph22.5 kmh 29.73 in1006.8 mb 0.00 in0.0 mm 0.00 in0.0 mm 0.00 in0.0 mm
11:55 AM 25.7°F-3.5°C 21.0°F-6.1°C 82% 7.8 mph N12.6 kmh N 14.0 mph22.5 kmh 29.73 in1006.8 mb 0.00 in0.0 mm 0.00 in0.0 mm 0.00 in0.0 mm
11:56 AM 25.7°F-3.5°C 20.7°F-6.3°C 81% 9.4 mph N15.1 kmh N 14.0 mph22.5 kmh 29.73 in1006.8 mb 0.00 in0.0 mm 0.00 in0.0 mm 0.00 in0.0 mm
11:57 AM 25.7°F-3.5°C 20.4°F-6.4°C 80% 5.8 mph NNE9.3 kmh NNE 14.0 mph22.5 kmh 29.73 in1006.8 mb 0.00 in0.0 mm 0.00 in0.0 mm 0.00 in0.0 mm
11:58 AM 25.7°F-3.5°C 20.7°F-6.3°C 81% 4.2 mph NW6.8 kmh NW 14.0 mph22.5 kmh 29.73 in1006.8 mb 0.00 in0.0 mm 0.00 in0.0 mm 0.00 in0.0 mm
11:59 AM 25.9°F-3.4°C 20.9°F-6.2°C 81% 6.8 mph SSW10.9 kmh SSW 12.5 mph20.1 kmh 29.73 in1006.8 mb 0.00 in0.0 mm 0.00 in0.0 mm 0.00 in0.0 mm
12:00 PM 25.9°F-3.4°C 20.6°F-6.3°C 80% 4.7 mph NW7.6 kmh NW 10.9 mph17.5 kmh 29.73 in1006.8 mb 0.00 in0.0 mm 0.00 in0.0 mm 0.00 in0.0 mm
12:01 PM 26.1°F-3.3°C 20.8°F-6.2°C 80% 11.9 mph NW19.2 kmh NW 11.9 mph19.2 kmh 29.73 in1006.8 mb 0.00 in0.0 mm 0.00 in0.0 mm 0.00 in0.0 mm
12:02 PM 26.1°F-3.3°C 20.8°F-6.2°C 80% 10.4 mph NNW16.7 kmh NNW 12.5 mph20.1 kmh 29.73 in1006.8 mb 0.00 in0.0 mm 0.00 in0.0 mm 0.00 in0.0 mm
12:03 PM 26.1°F-3.3°C 20.2°F-6.6°C 78% 14.0 mph NNW22.5 kmh NNW 16.6 mph26.7 kmh 29.73 in1006.8 mb 0.00 in0.0 mm 0.00 in0.0 mm 0.00 in0.0 mm
12:04 PM 25.7°F-3.5°C 19.2°F-7.1°C 76% 9.9 mph NNW15.9 kmh NNW 16.6 mph26.7 kmh 29.73 in1006.8 mb 0.00 in0.0 mm 0.00 in0.0 mm 0.00 in0.0 mm
12:05 PM 25.5°F-3.6°C 19.3°F-7.1°C 77% 14.0 mph NW22.5 kmh NW 16.6 mph26.7 kmh 29.73 in1006.8 mb 0.00 in0.0 mm 0.00 in0.0 mm 0.00 in0.0 mm
12:06 PM 25.5°F-3.6°C 19.3°F-7.1°C 77% 9.4 mph NNE15.1 kmh NNE 16.6 mph26.7 kmh 29.73 in1006.8 mb 0.00 in0.0 mm 0.00 in0.0 mm 0.00 in0.0 mm
12:07 PM 25.9°F-3.4°C 19.7°F-6.8°C 77% 6.8 mph N10.9 kmh N 16.6 mph26.7 kmh 29.73 in1006.8 mb 0.00 in0.0 mm 0.00 in0.0 mm 0.00 in0.0 mm
12:08 PM 26.1°F-3.3°C 19.6°F-6.9°C 76% 7.3 mph WNW11.7 kmh WNW 16.6 mph26.7 kmh 29.73 in1006.8 mb 0.00 in0.0 mm 0.00 in0.0 mm 0.00 in0.0 mm
12:09 PM 26.2°F-3.2°C 19.4°F-7.0°C 75% 7.3 mph NNW11.7 kmh NNW 16.6 mph26.7 kmh 29.73 in1006.8 mb 0.00 in0.0 mm 0.00 in0.0 mm 0.00 in0.0 mm
12:10 PM 26.1°F-3.3°C 19.3°F-7.1°C 75% 15.5 mph NNE24.9 kmh NNE 16.6 mph26.7 kmh 29.73 in1006.8 mb 0.00 in0.0 mm 0.00 in0.0 mm 0.00 in0.0 mm
12:11 PM 25.9°F-3.4°C 19.1°F-7.2°C 75% 11.4 mph NNE18.3 kmh NNE 16.6 mph26.7 kmh 29.73 in1006.8 mb 0.00 in0.0 mm 0.00 in0.0 mm 0.00 in0.0 mm
12:12 PM 25.9°F-3.4°C 19.1°F-7.2°C 75% 5.8 mph WNW9.3 kmh WNW 16.6 mph26.7 kmh 29.73 in1006.8 mb 0.00 in0.0 mm 0.00 in0.0 mm 0.00 in0.0 mm
12:13 PM 25.9°F-3.4°C 19.1°F-7.2°C 75% 16.1 mph WNW25.9 kmh WNW 16.6 mph26.7 kmh 29.73 in1006.8 mb 0.00 in0.0 mm 0.00 in0.0 mm 0.00 in0.0 mm
12:14 PM 25.9°F-3.4°C 18.8°F-7.3°C 74% 9.4 mph W15.1 kmh W 16.6 mph26.7 kmh 29.73 in1006.8 mb 0.00 in0.0 mm 0.00 in0.0 mm 0.00 in0.0 mm
12:15 PM 25.7°F-3.5°C 18.6°F-7.4°C 74% 8.3 mph N13.4 kmh N 16.6 mph26.7 kmh 29.73 in1006.8 mb 0.00 in0.0 mm 0.00 in0.0 mm 0.00 in0.0 mm
12:16 PM 25.7°F-3.5°C 18.9°F-7.3°C 75% 9.9 mph W15.9 kmh W 16.6 mph26.7 kmh 29.73 in1006.8 mb 0.00 in0.0 mm 0.00 in0.0 mm 0.00 in0.0 mm
12:17 PM 26.1°F-3.3°C 19.0°F-7.2°C 74% 8.3 mph N13.4 kmh N 16.6 mph26.7 kmh 29.73 in1006.8 mb 0.00 in0.0 mm 0.00 in0.0 mm 0.00 in0.0 mm
12:18 PM 26.2°F-3.2°C 18.7°F-7.4°C 73% 14.5 mph N23.3 kmh N 16.6 mph26.7 kmh 29.73 in1006.8 mb 0.00 in0.0 mm 0.00 in0.0 mm 0.00 in0.0 mm
12:19 PM 26.6°F-3.0°C 18.8°F-7.3°C 72% 7.3 mph NNE11.7 kmh NNE 16.6 mph26.7 kmh 29.73 in1006.8 mb 0.00 in0.0 mm 0.00 in0.0 mm 0.00 in0.0 mm
12:20 PM 26.4°F-3.1°C 18.9°F-7.3°C 73% 13.0 mph WSW20.9 kmh WSW 16.6 mph26.7 kmh 29.73 in1006.8 mb 0.00 in0.0 mm 0.00 in0.0 mm 0.00 in0.0 mm
12:21 PM 26.2°F-3.2°C 18.7°F-7.4°C 73% 13.5 mph N21.7 kmh N 16.1 mph25.9 kmh 29.73 in1006.8 mb 0.00 in0.0 mm 0.00 in0.0 mm 0.00 in0.0 mm
12:22 PM 26.1°F-3.3°C 18.3°F-7.6°C 72% 13.0 mph N20.9 kmh N 16.1 mph25.9 kmh 29.73 in1006.8 mb 0.00 in0.0 mm 0.00 in0.0 mm 0.00 in0.0 mm
12:23 PM 26.1°F-3.3°C 18.0°F-7.8°C 71% 9.9 mph NNE15.9 kmh NNE 14.5 mph23.3 kmh 29.73 in1006.8 mb 0.00 in0.0 mm 0.00 in0.0 mm 0.00 in0.0 mm
12:24 PM 25.9°F-3.4°C 18.5°F-7.5°C 73% 7.3 mph W11.7 kmh W 14.5 mph23.3 kmh 29.73 in1006.8 mb 0.00 in0.0 mm 0.00 in0.0 mm 0.00 in0.0 mm
12:25 PM 26.1°F-3.3°C 19.0°F-7.2°C 74% 7.3 mph NNE11.7 kmh NNE 14.5 mph23.3 kmh 29.73 in1006.8 mb 0.00 in0.0 mm 0.00 in0.0 mm 0.00 in0.0 mm
12:26 PM 26.2°F-3.2°C 19.1°F-7.2°C 74% 8.3 mph WNW13.4 kmh WNW 14.5 mph23.3 kmh 29.73 in1006.8 mb 0.00 in0.0 mm 0.00 in0.0 mm 0.00 in0.0 mm
12:27 PM 26.2°F-3.2°C 18.7°F-7.4°C 73% 6.3 mph N10.1 kmh N 14.5 mph23.3 kmh 29.73 in1006.8 mb 0.00 in0.0 mm 0.00 in0.0 mm 0.00 in0.0 mm
12:28 PM 26.4°F-3.1°C 18.6°F-7.4°C 72% 7.3 mph NNE11.7 kmh NNE 14.0 mph22.5 kmh 29.73 in1006.8 mb 0.00 in0.0 mm 0.00 in0.0 mm 0.00 in0.0 mm
12:29 PM 26.4°F-3.1°C 18.6°F-7.4°C 72% 13.5 mph N21.7 kmh N 14.0 mph22.5 kmh 29.72 in1006.4 mb 0.00 in0.0 mm 0.00 in0.0 mm 0.00 in0.0 mm
12:30 PM 26.6°F-3.0°C 18.5°F-7.5°C 71% 6.8 mph NNW10.9 kmh NNW 14.0 mph22.5 kmh 29.72 in1006.4 mb 0.00 in0.0 mm 0.00 in0.0 mm 0.00 in0.0 mm
12:31 PM 26.6°F-3.0°C 18.5°F-7.5°C 71% 8.3 mph NW13.4 kmh NW 14.0 mph22.5 kmh 29.72 in1006.4 mb 0.00 in0.0 mm 0.00 in0.0 mm 0.00 in0.0 mm
12:32 PM 26.6°F-3.0°C 18.2°F-7.7°C 70% 6.3 mph W10.1 kmh W 13.5 mph21.7 kmh 29.72 in1006.4 mb 0.00 in0.0 mm 0.00 in0.0 mm 0.00 in0.0 mm
12:33 PM 26.6°F-3.0°C 18.5°F-7.5°C 71% 4.7 mph NW7.6 kmh NW 13.5 mph21.7 kmh 29.72 in1006.4 mb 0.00 in0.0 mm 0.00 in0.0 mm 0.00 in0.0 mm
12:34 PM 26.8°F-2.9°C 18.3°F-7.6°C 70% 9.4 mph W15.1 kmh W 13.5 mph21.7 kmh 29.72 in1006.4 mb 0.00 in0.0 mm 0.00 in0.0 mm 0.00 in0.0 mm
12:35 PM 26.6°F-3.0°C 18.2°F-7.7°C 70% 6.8 mph N10.9 kmh N 13.5 mph21.7 kmh 29.72 in1006.4 mb 0.00 in0.0 mm 0.00 in0.0 mm 0.00 in0.0 mm
12:36 PM 26.8°F-2.9°C 18.0°F-7.8°C 69% 6.3 mph W10.1 kmh W 13.5 mph21.7 kmh 29.72 in1006.4 mb 0.00 in0.0 mm 0.00 in0.0 mm 0.00 in0.0 mm
12:37 PM 26.8°F-2.9°C 17.3°F-8.2°C 67% 13.5 mph W21.7 kmh W 14.0 mph22.5 kmh 29.72 in1006.4 mb 0.00 in0.0 mm 0.00 in0.0 mm 0.00 in0.0 mm
12:38 PM 27.0°F-2.8°C 17.2°F-8.2°C 66% 8.9 mph NNW14.3 kmh NNW 14.0 mph22.5 kmh 29.72 in1006.4 mb 0.00 in0.0 mm 0.00 in0.0 mm 0.00 in0.0 mm
12:39 PM 27.5°F-2.5°C 17.7°F-7.9°C 66% 10.9 mph NW17.5 kmh NW 14.0 mph22.5 kmh 29.72 in1006.4 mb 0.00 in0.0 mm 0.00 in0.0 mm 0.00 in0.0 mm
12:40 PM 27.7°F-2.4°C 17.8°F-7.9°C 66% 9.4 mph NNW15.1 kmh NNW 14.0 mph22.5 kmh 29.72 in1006.4 mb 0.00 in0.0 mm 0.00 in0.0 mm 0.00 in0.0 mm
12:41 PM 27.7°F-2.4°C 17.5°F-8.1°C 65% 7.8 mph W12.6 kmh W 14.0 mph22.5 kmh 29.72 in1006.4 mb 0.00 in0.0 mm 0.00 in0.0 mm 0.00 in0.0 mm
12:42 PM 27.7°F-2.4°C 17.1°F-8.3°C 64% 9.4 mph NNE15.1 kmh NNE 14.0 mph22.5 kmh 29.72 in1006.4 mb 0.00 in0.0 mm 0.00 in0.0 mm 0.00 in0.0 mm
12:43 PM 27.7°F-2.4°C 16.8°F-8.4°C 63% 11.4 mph NW18.3 kmh NW 14.0 mph22.5 kmh 29.72 in1006.4 mb 0.00 in0.0 mm 0.00 in0.0 mm 0.00 in0.0 mm
12:44 PM 27.7°F-2.4°C 16.8°F-8.4°C 63% 8.3 mph W13.4 kmh W 14.0 mph22.5 kmh 29.72 in1006.4 mb 0.00 in0.0 mm 0.00 in0.0 mm 0.00 in0.0 mm
12:45 PM 28.0°F-2.2°C 17.1°F-8.3°C 63% 9.4 mph N15.1 kmh N 14.0 mph22.5 kmh 29.72 in1006.4 mb 0.00 in0.0 mm 0.00 in0.0 mm 0.00 in0.0 mm
12:46 PM 28.4°F-2.0°C 17.1°F-8.3°C 62% 8.3 mph W13.4 kmh W 14.0 mph22.5 kmh 29.72 in1006.4 mb 0.00 in0.0 mm 0.00 in0.0 mm 0.00 in0.0 mm
12:47 PM 28.6°F-1.9°C 16.9°F-8.4°C 61% 17.1 mph WSW27.5 kmh WSW 17.1 mph27.5 kmh 29.72 in1006.4 mb 0.00 in0.0 mm 0.00 in0.0 mm 0.00 in0.0 mm
12:48 PM 28.6°F-1.9°C 17.3°F-8.2°C 62% 8.3 mph NNE13.4 kmh NNE 17.1 mph27.5 kmh 29.72 in1006.4 mb 0.00 in0.0 mm 0.00 in0.0 mm 0.00 in0.0 mm
12:49 PM 28.6°F-1.9°C 17.3°F-8.2°C 62% 11.4 mph NNW18.3 kmh NNW 17.1 mph27.5 kmh 29.72 in1006.4 mb 0.00 in0.0 mm 0.00 in0.0 mm 0.00 in0.0 mm
12:50 PM 28.8°F-1.8°C 17.1°F-8.3°C 61% 14.0 mph NNE22.5 kmh NNE 17.1 mph27.5 kmh 29.72 in1006.4 mb 0.00 in0.0 mm 0.00 in0.0 mm 0.00 in0.0 mm
12:51 PM 28.6°F-1.9°C 17.6°F-8.0°C 63% 11.9 mph NNE19.2 kmh NNE 17.1 mph27.5 kmh 29.72 in1006.4 mb 0.00 in0.0 mm 0.00 in0.0 mm 0.00 in0.0 mm
12:52 PM 28.0°F-2.2°C 18.5°F-7.5°C 67% 8.9 mph W14.3 kmh W 17.1 mph27.5 kmh 29.72 in1006.4 mb 0.00 in0.0 mm 0.00 in0.0 mm 0.00 in0.0 mm
12:53 PM 27.5°F-2.5°C 19.0°F-7.2°C 70% 9.9 mph N15.9 kmh N 17.1 mph27.5 kmh 29.72 in1006.4 mb 0.00 in0.0 mm 0.00 in0.0 mm 0.00 in0.0 mm
12:54 PM 27.5°F-2.5°C 19.0°F-7.2°C 70% 8.3 mph W13.4 kmh W 17.1 mph27.5 kmh 29.72 in1006.4 mb 0.00 in0.0 mm 0.00 in0.0 mm 0.00 in0.0 mm
12:55 PM 27.1°F-2.7°C 18.3°F-7.6°C 69% 16.6 mph N26.7 kmh N 17.1 mph27.5 kmh 29.72 in1006.4 mb 0.00 in0.0 mm 0.00 in0.0 mm 0.00 in0.0 mm
12:56 PM 27.1°F-2.7°C 18.0°F-7.8°C 68% 14.0 mph WNW22.5 kmh WNW 17.1 mph27.5 kmh 29.72 in1006.4 mb 0.00 in0.0 mm 0.00 in0.0 mm 0.00 in0.0 mm
12:57 PM 27.3°F-2.6°C 17.5°F-8.1°C 66% 11.4 mph N18.3 kmh N 21.7 mph34.9 kmh 29.72 in1006.4 mb 0.00 in0.0 mm 0.00 in0.0 mm 0.00 in0.0 mm
12:58 PM 27.5°F-2.5°C 16.9°F-8.4°C 64% 14.0 mph NNW22.5 kmh NNW 21.7 mph34.9 kmh 29.72 in1006.4 mb 0.00 in0.0 mm 0.00 in0.0 mm 0.00 in0.0 mm
12:59 PM 27.9°F-2.3°C 15.8°F-9.0°C 60% 5.3 mph ESE8.5 kmh ESE 21.7 mph34.9 kmh 29.72 in1006.4 mb 0.00 in0.0 mm 0.00 in0.0 mm 0.00 in0.0 mm
01:00 PM 28.2°F-2.1°C 16.1°F-8.8°C 60% 6.8 mph N10.9 kmh N 21.7 mph34.9 kmh 29.72 in1006.4 mb 0.00 in0.0 mm 0.00 in0.0 mm 0.00 in0.0 mm
01:01 PM 28.6°F-1.9°C 16.1°F-8.8°C 59% 8.3 mph NNE13.4 kmh NNE 21.7 mph34.9 kmh 29.72 in1006.4 mb 0.00 in0.0 mm 0.00 in0.0 mm 0.00 in0.0 mm
01:02 PM 28.9°F-1.7°C 15.6°F-9.1°C 57% 11.4 mph NNW18.3 kmh NNW 21.7 mph34.9 kmh 29.72 in1006.4 mb 0.00 in0.0 mm 0.00 in0.0 mm 0.00 in0.0 mm
01:03 PM 28.9°F-1.7°C 16.0°F-8.9°C 58% 11.9 mph W19.2 kmh W 21.7 mph34.9 kmh 29.72 in1006.4 mb 0.00 in0.0 mm 0.00 in0.0 mm 0.00 in0.0 mm
01:04 PM 28.9°F-1.7°C 15.2°F-9.3°C 56% 14.0 mph NNW22.5 kmh NNW 22.7 mph36.5 kmh 29.72 in1006.4 mb 0.00 in0.0 mm 0.00 in0.0 mm 0.00 in0.0 mm
01:05 PM 28.9°F-1.7°C 15.2°F-9.3°C 56% 10.9 mph NNW17.5 kmh NNW 22.7 mph36.5 kmh 29.72 in1006.4 mb 0.00 in0.0 mm 0.00 in0.0 mm 0.00 in0.0 mm
01:06 PM 28.9°F-1.7°C 14.8°F-9.6°C 55% 16.1 mph W25.9 kmh W 22.7 mph36.5 kmh 29.72 in1006.4 mb 0.00 in0.0 mm 0.00 in0.0 mm 0.00 in0.0 mm
01:07 PM 28.9°F-1.7°C 14.4°F-9.8°C 54% 11.9 mph W19.2 kmh W 22.7 mph36.5 kmh 29.72 in1006.4 mb 0.00 in0.0 mm 0.00 in0.0 mm 0.00 in0.0 mm
01:08 PM 28.9°F-1.7°C 14.4°F-9.8°C 54% 13.0 mph NW20.9 kmh NW 22.7 mph36.5 kmh 29.72 in1006.4 mb 0.00 in0.0 mm 0.00 in0.0 mm 0.00 in0.0 mm
01:09 PM 29.1°F-1.6°C 14.6°F-9.7°C 54% 8.3 mph N13.4 kmh N 22.7 mph36.5 kmh 29.72 in1006.4 mb 0.00 in0.0 mm 0.00 in0.0 mm 0.00 in0.0 mm
01:10 PM 29.5°F-1.4°C 14.5°F-9.7°C 53% 6.8 mph NNE10.9 kmh NNE 22.7 mph36.5 kmh 29.72 in1006.4 mb 0.00 in0.0 mm 0.00 in0.0 mm 0.00 in0.0 mm
01:11 PM 29.5°F-1.4°C 14.5°F-9.7°C 53% 6.3 mph W10.1 kmh W 22.7 mph36.5 kmh 29.72 in1006.4 mb 0.00 in0.0 mm 0.00 in0.0 mm 0.00 in0.0 mm
01:12 PM 29.7°F-1.3°C 14.7°F-9.6°C 53% 8.3 mph SSE13.4 kmh SSE 22.7 mph36.5 kmh 29.72 in1006.4 mb 0.00 in0.0 mm 0.00 in0.0 mm 0.00 in0.0 mm
01:13 PM 29.3°F-1.5°C 14.3°F-9.8°C 53% 16.1 mph NNW25.9 kmh NNW 22.7 mph36.5 kmh 29.72 in1006.4 mb 0.00 in0.0 mm 0.00 in0.0 mm 0.00 in0.0 mm
01:14 PM 28.9°F-1.7°C 13.5°F-10.3°C 52% 10.4 mph W16.7 kmh W 19.1 mph30.7 kmh 29.72 in1006.4 mb 0.00 in0.0 mm 0.00 in0.0 mm 0.00 in0.0 mm
01:15 PM 28.8°F-1.8°C 13.4°F-10.3°C 52% 15.5 mph N24.9 kmh N 19.1 mph30.7 kmh 29.72 in1006.4 mb 0.00 in0.0 mm 0.00 in0.0 mm 0.00 in0.0 mm
01:16 PM 28.9°F-1.7°C 13.5°F-10.3°C 52% 13.0 mph N20.9 kmh N 19.1 mph30.7 kmh 29.72 in1006.4 mb 0.00 in0.0 mm 0.00 in0.0 mm 0.00 in0.0 mm
01:17 PM 28.9°F-1.7°C 13.5°F-10.3°C 52% 11.9 mph NNE19.2 kmh NNE 19.1 mph30.7 kmh 29.72 in1006.4 mb 0.00 in0.0 mm 0.00 in0.0 mm 0.00 in0.0 mm
01:18 PM 28.8°F-1.8°C 13.4°F-10.3°C 52% 11.4 mph NNE18.3 kmh NNE 16.1 mph25.9 kmh 29.72 in1006.4 mb 0.00 in0.0 mm 0.00 in0.0 mm 0.00 in0.0 mm
01:19 PM 28.9°F-1.7°C 13.5°F-10.3°C 52% 5.8 mph W9.3 kmh W 16.1 mph25.9 kmh 29.72 in1006.4 mb 0.00 in0.0 mm 0.00 in0.0 mm 0.00 in0.0 mm
01:20 PM 29.1°F-1.6°C 12.8°F-10.7°C 50% 10.9 mph N17.5 kmh N 16.1 mph25.9 kmh 29.72 in1006.4 mb 0.00 in0.0 mm 0.00 in0.0 mm 0.00 in0.0 mm
01:21 PM 29.1°F-1.6°C 12.8°F-10.7°C 50% 10.4 mph NNE16.7 kmh NNE 16.1 mph25.9 kmh 29.72 in1006.4 mb 0.00 in0.0 mm 0.00 in0.0 mm 0.00 in0.0 mm
01:22 PM 28.9°F-1.7°C 12.6°F-10.8°C 50% 7.3 mph W11.7 kmh W 16.1 mph25.9 kmh 29.72 in1006.4 mb 0.00 in0.0 mm 0.00 in0.0 mm 0.00 in0.0 mm
01:23 PM 29.1°F-1.6°C 12.8°F-10.7°C 50% 9.9 mph N15.9 kmh N 16.1 mph25.9 kmh 29.72 in1006.4 mb 0.00 in0.0 mm 0.00 in0.0 mm 0.00 in0.0 mm
01:24 PM 29.5°F-1.4°C 13.2°F-10.4°C 50% 11.4 mph N18.3 kmh N 15.5 mph24.9 kmh 29.72 in1006.4 mb 0.00 in0.0 mm 0.00 in0.0 mm 0.00 in0.0 mm
01:25 PM 29.5°F-1.4°C 13.2°F-10.4°C 50% 9.4 mph NNE15.1 kmh NNE 15.5 mph24.9 kmh 29.72 in1006.4 mb 0.00 in0.0 mm 0.00 in0.0 mm 0.00 in0.0 mm
01:26 PM 29.5°F-1.4°C 12.7°F-10.7°C 49% 12.5 mph NW20.1 kmh NW 17.6 mph28.3 kmh 29.72 in1006.4 mb 0.00 in0.0 mm 0.00 in0.0 mm 0.00 in0.0 mm
01:27 PM 29.3°F-1.5°C 12.5°F-10.8°C 49% 13.0 mph N20.9 kmh N 17.6 mph28.3 kmh 29.72 in1006.4 mb 0.00 in0.0 mm 0.00 in0.0 mm 0.00 in0.0 mm
01:28 PM 29.1°F-1.6°C 12.4°F-10.9°C 49% 10.9 mph NNW17.5 kmh NNW 17.6 mph28.3 kmh 29.72 in1006.4 mb 0.00 in0.0 mm 0.00 in0.0 mm 0.00 in0.0 mm
01:34 PM 29.3°F-1.5°C 12.5°F-10.8°C 49% 9.9 mph NNW15.9 kmh NNW 17.6 mph28.3 kmh 29.72 in1006.4 mb 0.00 in0.0 mm 0.00 in0.0 mm 0.00 in0.0 mm
01:35 PM 29.5°F-1.4°C 12.3°F-10.9°C 48% 7.8 mph W12.6 kmh W 17.6 mph28.3 kmh 29.72 in1006.4 mb 0.00 in0.0 mm 0.00 in0.0 mm 0.00 in0.0 mm
01:36 PM 29.5°F-1.4°C 12.3°F-10.9°C 48% 9.9 mph SSW15.9 kmh SSW 13.0 mph20.9 kmh 29.72 in1006.4 mb 0.00 in0.0 mm 0.00 in0.0 mm 0.00 in0.0 mm
01:37 PM 29.7°F-1.3°C 12.4°F-10.9°C 48% 14.5 mph N23.3 kmh N 14.5 mph23.3 kmh 29.72 in1006.4 mb 0.00 in0.0 mm 0.00 in0.0 mm 0.00 in0.0 mm
01:38 PM 29.7°F-1.3°C 12.4°F-10.9°C 48% 8.9 mph NNW14.3 kmh NNW 14.5 mph23.3 kmh 29.72 in1006.4 mb 0.00 in0.0 mm 0.00 in0.0 mm 0.00 in0.0 mm
01:39 PM 29.5°F-1.4°C 12.3°F-10.9°C 48% 10.9 mph W17.5 kmh W 14.5 mph23.3 kmh 29.72 in1006.4 mb 0.00 in0.0 mm 0.00 in0.0 mm 0.00 in0.0 mm
01:40 PM 29.5°F-1.4°C 12.3°F-10.9°C 48% 11.4 mph NNW18.3 kmh NNW 17.1 mph27.5 kmh 29.72 in1006.4 mb 0.00 in0.0 mm 0.00 in0.0 mm 0.00 in0.0 mm
01:41 PM 29.8°F-1.2°C 12.5°F-10.8°C 48% 6.3 mph W10.1 kmh W 17.1 mph27.5 kmh 29.72 in1006.4 mb 0.00 in0.0 mm 0.00 in0.0 mm 0.00 in0.0 mm
01:42 PM 30.2°F-1.0°C 12.9°F-10.6°C 48% 5.8 mph NE9.3 kmh NE 17.1 mph27.5 kmh 29.72 in1006.4 mb 0.00 in0.0 mm 0.00 in0.0 mm 0.00 in0.0 mm
01:43 PM 30.6°F-0.8°C 12.8°F-10.7°C 47% 9.9 mph W15.9 kmh W 17.1 mph27.5 kmh 29.72 in1006.4 mb 0.00 in0.0 mm 0.00 in0.0 mm 0.00 in0.0 mm
01:44 PM 30.7°F-0.7°C 12.9°F-10.6°C 47% 13.5 mph W21.7 kmh W 17.1 mph27.5 kmh 29.72 in1006.4 mb 0.00 in0.0 mm 0.00 in0.0 mm 0.00 in0.0 mm
01:45 PM 30.6°F-0.8°C 12.8°F-10.7°C 47% 15.5 mph WSW24.9 kmh WSW 17.1 mph27.5 kmh 29.72 in1006.4 mb 0.00 in0.0 mm 0.00 in0.0 mm 0.00 in0.0 mm
01:46 PM 30.4°F-0.9°C 12.6°F-10.8°C 47% 13.0 mph WSW20.9 kmh WSW 17.1 mph27.5 kmh 29.72 in1006.4 mb 0.00 in0.0 mm 0.00 in0.0 mm 0.00 in0.0 mm
01:47 PM 30.0°F-1.1°C 12.2°F-11.0°C 47% 8.3 mph WNW13.4 kmh WNW 17.1 mph27.5 kmh 29.72 in1006.4 mb 0.00 in0.0 mm 0.00 in0.0 mm 0.00 in0.0 mm
01:48 PM 30.2°F-1.0°C 12.4°F-10.9°C 47% 13.0 mph NNE20.9 kmh NNE 17.1 mph27.5 kmh 29.72 in1006.4 mb 0.00 in0.0 mm 0.00 in0.0 mm 0.00 in0.0 mm
01:49 PM 30.4°F-0.9°C 12.1°F-11.1°C 46% 18.1 mph NNE29.1 kmh NNE 18.1 mph29.1 kmh 29.72 in1006.4 mb 0.00 in0.0 mm 0.00 in0.0 mm 0.00 in0.0 mm
01:50 PM 30.6°F-0.8°C 12.8°F-10.7°C 47% 8.9 mph WNW14.3 kmh WNW 18.1 mph29.1 kmh 29.72 in1006.4 mb 0.00 in0.0 mm 0.00 in0.0 mm 0.00 in0.0 mm
01:51 PM 30.6°F-0.8°C 12.8°F-10.7°C 47% 14.0 mph NW22.5 kmh NW 18.1 mph29.1 kmh 29.72 in1006.4 mb 0.00 in0.0 mm 0.00 in0.0 mm 0.00 in0.0 mm
01:52 PM 30.7°F-0.7°C 12.4°F-10.9°C 46% 10.4 mph WNW16.7 kmh WNW 18.1 mph29.1 kmh 29.72 in1006.4 mb 0.00 in0.0 mm 0.00 in0.0 mm 0.00 in0.0 mm
01:53 PM 30.9°F-0.6°C 12.6°F-10.8°C 46% 8.9 mph WNW14.3 kmh WNW 18.1 mph29.1 kmh 29.72 in1006.4 mb 0.00 in0.0 mm 0.00 in0.0 mm 0.00 in0.0 mm
01:54 PM 30.7°F-0.7°C 12.4°F-10.9°C 46% 9.9 mph N15.9 kmh N 18.1 mph29.1 kmh 29.72 in1006.4 mb 0.00 in0.0 mm 0.00 in0.0 mm 0.00 in0.0 mm
01:55 PM 30.7°F-0.7°C 11.9°F-11.2°C 45% 11.9 mph NNW19.2 kmh NNW 18.1 mph29.1 kmh 29.72 in1006.4 mb 0.00 in0.0 mm 0.00 in0.0 mm 0.00 in0.0 mm
01:56 PM 30.6°F-0.8°C 11.8°F-11.2°C 45% 13.5 mph W21.7 kmh W 18.1 mph29.1 kmh 29.72 in1006.4 mb 0.00 in0.0 mm 0.00 in0.0 mm 0.00 in0.0 mm
01:57 PM 30.4°F-0.9°C 11.6°F-11.3°C 45% 9.9 mph W15.9 kmh W 18.1 mph29.1 kmh 29.72 in1006.4 mb 0.00 in0.0 mm 0.00 in0.0 mm 0.00 in0.0 mm
01:58 PM 30.6°F-0.8°C 11.8°F-11.2°C 45% 11.4 mph W18.3 kmh W 18.1 mph29.1 kmh 29.72 in1006.4 mb 0.00 in0.0 mm 0.00 in0.0 mm 0.00 in0.0 mm
01:59 PM 30.2°F-1.0°C 10.9°F-11.7°C 44% 10.9 mph W17.5 kmh W 16.1 mph25.9 kmh 29.72 in1006.4 mb 0.00 in0.0 mm 0.00 in0.0 mm 0.00 in0.0 mm
02:00 PM 30.4°F-0.9°C 11.6°F-11.3°C 45% 11.9 mph WNW19.2 kmh WNW 16.1 mph25.9 kmh 29.72 in1006.4 mb 0.00 in0.0 mm 0.00 in0.0 mm 0.00 in0.0 mm
02:01 PM 30.6°F-0.8°C 11.8°F-11.2°C 45% 17.1 mph W27.5 kmh W 21.7 mph34.9 kmh 29.72 in1006.4 mb 0.00 in0.0 mm 0.00 in0.0 mm 0.00 in0.0 mm
02:02 PM 30.4°F-0.9°C 11.1°F-11.6°C 44% 17.1 mph W27.5 kmh W 21.7 mph34.9 kmh 29.72 in1006.4 mb 0.00 in0.0 mm 0.00 in0.0 mm 0.00 in0.0 mm
02:03 PM 30.4°F-0.9°C 11.1°F-11.6°C 44% 7.3 mph WNW11.7 kmh WNW 21.7 mph34.9 kmh 29.72 in1006.4 mb 0.00 in0.0 mm 0.00 in0.0 mm 0.00 in0.0 mm
02:04 PM 30.6°F-0.8°C 11.3°F-11.5°C 44% 8.9 mph W14.3 kmh W 21.7 mph34.9 kmh 29.73 in1006.8 mb 0.00 in0.0 mm 0.00 in0.0 mm 0.00 in0.0 mm
02:05 PM 30.7°F-0.7°C 11.4°F-11.4°C 44% 7.3 mph W11.7 kmh W 21.7 mph34.9 kmh 29.73 in1006.8 mb 0.00 in0.0 mm 0.00 in0.0 mm 0.00 in0.0 mm
02:06 PM 30.9°F-0.6°C 11.1°F-11.6°C 43% 11.4 mph NNW18.3 kmh NNW 21.7 mph34.9 kmh 29.73 in1006.8 mb 0.00 in0.0 mm 0.00 in0.0 mm 0.00 in0.0 mm
02:07 PM 30.6°F-0.8°C 10.8°F-11.8°C 43% 12.5 mph NNE20.1 kmh NNE 21.7 mph34.9 kmh 29.73 in1006.8 mb 0.00 in0.0 mm 0.00 in0.0 mm 0.00 in0.0 mm
02:08 PM 30.6°F-0.8°C 10.8°F-11.8°C 43% 6.8 mph WNW10.9 kmh WNW 21.7 mph34.9 kmh 29.73 in1006.8 mb 0.00 in0.0 mm 0.00 in0.0 mm 0.00 in0.0 mm
02:09 PM 30.0°F-1.1°C 10.8°F-11.8°C 44% 13.0 mph W20.9 kmh W 21.7 mph34.9 kmh 29.73 in1006.8 mb 0.00 in0.0 mm 0.00 in0.0 mm 0.00 in0.0 mm
02:10 PM 29.7°F-1.3°C 10.5°F-11.9°C 44% 13.5 mph NW21.7 kmh NW 21.7 mph34.9 kmh 29.73 in1006.8 mb 0.00 in0.0 mm 0.00 in0.0 mm 0.00 in0.0 mm
02:11 PM 29.5°F-1.4°C 10.3°F-12.1°C 44% 7.8 mph W12.6 kmh W 17.6 mph28.3 kmh 29.73 in1006.8 mb 0.00 in0.0 mm 0.00 in0.0 mm 0.00 in0.0 mm
02:12 PM 29.3°F-1.5°C 10.6°F-11.9°C 45% 7.3 mph WNW11.7 kmh WNW 17.6 mph28.3 kmh 29.73 in1006.8 mb 0.00 in0.0 mm 0.00 in0.0 mm 0.00 in0.0 mm
02:13 PM 29.1°F-1.6°C 10.4°F-12.0°C 45% 7.3 mph WNW11.7 kmh WNW 17.6 mph28.3 kmh 29.73 in1006.8 mb 0.00 in0.0 mm 0.00 in0.0 mm 0.00 in0.0 mm
02:14 PM 29.1°F-1.6°C 10.4°F-12.0°C 45% 6.8 mph W10.9 kmh W 17.6 mph28.3 kmh 29.73 in1006.8 mb 0.00 in0.0 mm 0.00 in0.0 mm 0.00 in0.0 mm
02:15 PM 29.1°F-1.6°C 10.4°F-12.0°C 45% 6.8 mph W10.9 kmh W 17.6 mph28.3 kmh 29.73 in1006.8 mb 0.00 in0.0 mm 0.00 in0.0 mm 0.00 in0.0 mm
02:16 PM 29.3°F-1.5°C 10.6°F-11.9°C 45% 20.7 mph NNW33.3 kmh NNW 20.7 mph33.3 kmh 29.73 in1006.8 mb 0.00 in0.0 mm 0.00 in0.0 mm 0.00 in0.0 mm
02:17 PM 29.1°F-1.6°C 9.9°F-12.3°C 44% 5.3 mph W8.5 kmh W 20.7 mph33.3 kmh 29.73 in1006.8 mb 0.00 in0.0 mm 0.00 in0.0 mm 0.00 in0.0 mm
02:18 PM 29.1°F-1.6°C 10.4°F-12.0°C 45% 13.5 mph NNW21.7 kmh NNW 20.7 mph33.3 kmh 29.73 in1006.8 mb 0.00 in0.0 mm 0.00 in0.0 mm 0.00 in0.0 mm
02:19 PM 29.1°F-1.6°C 10.4°F-12.0°C 45% 8.3 mph NNE13.4 kmh NNE 20.7 mph33.3 kmh 29.73 in1006.8 mb 0.00 in0.0 mm 0.00 in0.0 mm 0.00 in0.0 mm
02:20 PM 29.1°F-1.6°C 9.9°F-12.3°C 44% 5.3 mph W8.5 kmh W 20.7 mph33.3 kmh 29.73 in1006.8 mb 0.00 in0.0 mm 0.00 in0.0 mm 0.00 in0.0 mm
02:21 PM 29.1°F-1.6°C 10.4°F-12.0°C 45% 3.2 mph WSW5.1 kmh WSW 20.7 mph33.3 kmh 29.73 in1006.8 mb 0.00 in0.0 mm 0.00 in0.0 mm 0.00 in0.0 mm
02:22 PM 29.5°F-1.4°C 10.8°F-11.8°C 45% 4.7 mph WSW7.6 kmh WSW 20.7 mph33.3 kmh 29.73 in1006.8 mb 0.00 in0.0 mm 0.00 in0.0 mm 0.00 in0.0 mm
02:23 PM 29.5°F-1.4°C 10.8°F-11.8°C 45% 11.4 mph NW18.3 kmh NW 20.7 mph33.3 kmh 29.73 in1006.8 mb 0.00 in0.0 mm 0.00 in0.0 mm 0.00 in0.0 mm
02:24 PM 30.0°F-1.1°C 10.8°F-11.8°C 44% 7.8 mph N12.6 kmh N 20.7 mph33.3 kmh 29.73 in1006.8 mb 0.00 in0.0 mm 0.00 in0.0 mm 0.00 in0.0 mm
02:25 PM 30.2°F-1.0°C 10.9°F-11.7°C 44% 9.9 mph NW15.9 kmh NW 20.7 mph33.3 kmh 29.73 in1006.8 mb 0.00 in0.0 mm 0.00 in0.0 mm 0.00 in0.0 mm
02:26 PM 30.2°F-1.0°C 10.9°F-11.7°C 44% 5.8 mph SW9.3 kmh SW 13.5 mph21.7 kmh 29.73 in1006.8 mb 0.00 in0.0 mm 0.00 in0.0 mm 0.00 in0.0 mm
02:27 PM 30.2°F-1.0°C 10.9°F-11.7°C 44% 10.9 mph NNW17.5 kmh NNW 13.5 mph21.7 kmh 29.73 in1006.8 mb 0.00 in0.0 mm 0.00 in0.0 mm 0.00 in0.0 mm
02:28 PM 30.0°F-1.1°C 10.8°F-11.8°C 44% 9.9 mph WNW15.9 kmh WNW 13.5 mph21.7 kmh 29.73 in1006.8 mb 0.00 in0.0 mm 0.00 in0.0 mm 0.00 in0.0 mm
02:29 PM 30.2°F-1.0°C 10.4°F-12.0°C 43% 7.8 mph SW12.6 kmh SW 12.5 mph20.1 kmh 29.73 in1006.8 mb 0.00 in0.0 mm 0.00 in0.0 mm 0.00 in0.0 mm
02:30 PM 30.2°F-1.0°C 10.4°F-12.0°C 43% 7.8 mph NNW12.6 kmh NNW 12.5 mph20.1 kmh 29.73 in1006.8 mb 0.00 in0.0 mm 0.00 in0.0 mm 0.00 in0.0 mm
02:31 PM 30.2°F-1.0°C 10.4°F-12.0°C 43% 10.4 mph SSW16.7 kmh SSW 17.1 mph27.5 kmh 29.73 in1006.8 mb 0.00 in0.0 mm 0.00 in0.0 mm 0.00 in0.0 mm
02:32 PM 30.0°F-1.1°C 10.2°F-12.1°C 43% 11.4 mph WNW18.3 kmh WNW 17.1 mph27.5 kmh 29.73 in1006.8 mb 0.00 in0.0 mm 0.00 in0.0 mm 0.00 in0.0 mm
02:33 PM 30.0°F-1.1°C 10.2°F-12.1°C 43% 13.0 mph NE20.9 kmh NE 17.1 mph27.5 kmh 29.73 in1006.8 mb 0.00 in0.0 mm 0.00 in0.0 mm 0.00 in0.0 mm
02:34 PM 30.0°F-1.1°C 9.7°F-12.4°C 42% 13.5 mph NNW21.7 kmh NNW 17.1 mph27.5 kmh 29.73 in1006.8 mb 0.00 in0.0 mm 0.00 in0.0 mm 0.00 in0.0 mm
02:35 PM 29.8°F-1.2°C 9.5°F-12.5°C 42% 10.4 mph N16.7 kmh N 17.1 mph27.5 kmh 29.73 in1006.8 mb 0.00 in0.0 mm 0.00 in0.0 mm 0.00 in0.0 mm
02:36 PM 29.8°F-1.2°C 10.1°F-12.2°C 43% 9.9 mph W15.9 kmh W 17.1 mph27.5 kmh 29.73 in1006.8 mb 0.00 in0.0 mm 0.00 in0.0 mm 0.00 in0.0 mm
02:37 PM 30.0°F-1.1°C 10.2°F-12.1°C 43% 5.3 mph NNW8.5 kmh NNW 17.1 mph27.5 kmh 29.73 in1006.8 mb 0.00 in0.0 mm 0.00 in0.0 mm 0.00 in0.0 mm
02:38 PM 30.2°F-1.0°C 10.4°F-12.0°C 43% 5.8 mph WSW9.3 kmh WSW 17.1 mph27.5 kmh 29.73 in1006.8 mb 0.00 in0.0 mm 0.00 in0.0 mm 0.00 in0.0 mm
02:39 PM 30.4°F-0.9°C 10.6°F-11.9°C 43% 6.3 mph NNW10.1 kmh NNW 17.1 mph27.5 kmh 29.73 in1006.8 mb 0.00 in0.0 mm 0.00 in0.0 mm 0.00 in0.0 mm
02:40 PM 30.4°F-0.9°C 10.6°F-11.9°C 43% 8.9 mph W14.3 kmh W 17.1 mph27.5 kmh 29.73 in1006.8 mb 0.00 in0.0 mm 0.00 in0.0 mm 0.00 in0.0 mm
02:41 PM 30.2°F-1.0°C 9.9°F-12.3°C 42% 6.8 mph W10.9 kmh W 15.5 mph24.9 kmh 29.73 in1006.8 mb 0.00 in0.0 mm 0.00 in0.0 mm 0.00 in0.0 mm
02:42 PM 30.2°F-1.0°C 9.9°F-12.3°C 42% 14.5 mph NNW23.3 kmh NNW 15.5 mph24.9 kmh 29.73 in1006.8 mb 0.00 in0.0 mm 0.00 in0.0 mm 0.00 in0.0 mm
02:43 PM 30.4°F-0.9°C 10.1°F-12.2°C 42% 7.8 mph WSW12.6 kmh WSW 15.5 mph24.9 kmh 29.73 in1006.8 mb 0.00 in0.0 mm 0.00 in0.0 mm 0.00 in0.0 mm
02:44 PM 30.4°F-0.9°C 10.1°F-12.2°C 42% 15.5 mph W24.9 kmh W 15.5 mph24.9 kmh 29.73 in1006.8 mb 0.00 in0.0 mm 0.00 in0.0 mm 0.00 in0.0 mm
02:45 PM 30.4°F-0.9°C 10.1°F-12.2°C 42% 17.6 mph NW28.3 kmh NW 17.6 mph28.3 kmh 29.73 in1006.8 mb 0.00 in0.0 mm 0.00 in0.0 mm 0.00 in0.0 mm
02:46 PM 30.0°F-1.1°C 9.2°F-12.7°C 41% 15.0 mph WNW24.1 kmh WNW 22.2 mph35.7 kmh 29.73 in1006.8 mb 0.00 in0.0 mm 0.00 in0.0 mm 0.00 in0.0 mm
02:47 PM 29.8°F-1.2°C 9.0°F-12.8°C 41% 12.5 mph SSW20.1 kmh SSW 22.2 mph35.7 kmh 29.73 in1006.8 mb 0.00 in0.0 mm 0.00 in0.0 mm 0.00 in0.0 mm
02:48 PM 29.8°F-1.2°C 9.0°F-12.8°C 41% 10.4 mph WNW16.7 kmh WNW 22.2 mph35.7 kmh 29.73 in1006.8 mb 0.00 in0.0 mm 0.00 in0.0 mm 0.00 in0.0 mm
02:49 PM 29.8°F-1.2°C 9.5°F-12.5°C 42% 11.9 mph WNW19.2 kmh WNW 22.2 mph35.7 kmh 29.73 in1006.8 mb 0.00 in0.0 mm 0.00 in0.0 mm 0.00 in0.0 mm
02:50 PM 29.8°F-1.2°C 9.5°F-12.5°C 42% 11.9 mph NW19.2 kmh NW 22.2 mph35.7 kmh 29.73 in1006.8 mb 0.00 in0.0 mm 0.00 in0.0 mm 0.00 in0.0 mm
02:51 PM 29.7°F-1.3°C 8.9°F-12.8°C 41% 8.9 mph W14.3 kmh W 22.2 mph35.7 kmh 29.73 in1006.8 mb 0.00 in0.0 mm 0.00 in0.0 mm 0.00 in0.0 mm
02:52 PM 29.7°F-1.3°C 8.9°F-12.8°C 41% 6.3 mph S10.1 kmh S 22.2 mph35.7 kmh 29.73 in1006.8 mb 0.00 in0.0 mm 0.00 in0.0 mm 0.00 in0.0 mm
02:53 PM 29.7°F-1.3°C 8.9°F-12.8°C 41% 9.9 mph NW15.9 kmh NW 22.2 mph35.7 kmh 29.73 in1006.8 mb 0.00 in0.0 mm 0.00 in0.0 mm 0.00 in0.0 mm
02:54 PM 29.7°F-1.3°C 8.9°F-12.8°C 41% 8.9 mph W14.3 kmh W 22.2 mph35.7 kmh 29.73 in1006.8 mb 0.00 in0.0 mm 0.00 in0.0 mm 0.00 in0.0 mm
02:55 PM 29.8°F-1.2°C 9.0°F-12.8°C 41% 9.9 mph W15.9 kmh W 22.2 mph35.7 kmh 29.73 in1006.8 mb 0.00 in0.0 mm 0.00 in0.0 mm 0.00 in0.0 mm
02:56 PM 29.7°F-1.3°C 8.9°F-12.8°C 41% 10.9 mph SW17.5 kmh SW 15.0 mph24.1 kmh 29.73 in1006.8 mb 0.00 in0.0 mm 0.00 in0.0 mm 0.00 in0.0 mm
02:57 PM 29.5°F-1.4°C 8.7°F-12.9°C 41% 11.4 mph W18.3 kmh W 15.0 mph24.1 kmh 29.73 in1006.8 mb 0.00 in0.0 mm 0.00 in0.0 mm 0.00 in0.0 mm
02:58 PM 29.3°F-1.5°C 9.1°F-12.7°C 42% 11.4 mph WNW18.3 kmh WNW 15.0 mph24.1 kmh 29.73 in1006.8 mb 0.00 in0.0 mm 0.00 in0.0 mm 0.00 in0.0 mm
02:59 PM 29.5°F-1.4°C 9.3°F-12.6°C 42% 11.4 mph WNW18.3 kmh WNW 15.0 mph24.1 kmh 29.73 in1006.8 mb 0.00 in0.0 mm 0.00 in0.0 mm 0.00 in0.0 mm
03:00 PM 29.5°F-1.4°C 9.3°F-12.6°C 42% 14.5 mph WNW23.3 kmh WNW 15.0 mph24.1 kmh 29.73 in1006.8 mb 0.00 in0.0 mm 0.00 in0.0 mm 0.00 in0.0 mm
03:01 PM 29.5°F-1.4°C 9.3°F-12.6°C 42% 16.6 mph W26.7 kmh W 16.6 mph26.7 kmh 29.73 in1006.8 mb 0.00 in0.0 mm 0.00 in0.0 mm 0.00 in0.0 mm
03:02 PM 29.5°F-1.4°C 8.7°F-12.9°C 41% 9.9 mph NW15.9 kmh NW 16.6 mph26.7 kmh 29.73 in1006.8 mb 0.00 in0.0 mm 0.00 in0.0 mm 0.00 in0.0 mm
03:03 PM 29.7°F-1.3°C 8.9°F-12.8°C 41% 13.0 mph NNW20.9 kmh NNW 16.6 mph26.7 kmh 29.73 in1006.8 mb 0.00 in0.0 mm 0.00 in0.0 mm 0.00 in0.0 mm
03:04 PM 29.5°F-1.4°C 8.7°F-12.9°C 41% 12.5 mph NNE20.1 kmh NNE 16.6 mph26.7 kmh 29.73 in1006.8 mb 0.00 in0.0 mm 0.00 in0.0 mm 0.00 in0.0 mm
03:05 PM 29.5°F-1.4°C 8.7°F-12.9°C 41% 12.5 mph NNE20.1 kmh NNE 16.6 mph26.7 kmh 29.73 in1006.8 mb 0.00 in0.0 mm 0.00 in0.0 mm 0.00 in0.0 mm
03:06 PM 29.5°F-1.4°C 8.7°F-12.9°C 41% 10.4 mph W16.7 kmh W 16.6 mph26.7 kmh 29.73 in1006.8 mb 0.00 in0.0 mm 0.00 in0.0 mm 0.00 in0.0 mm
03:07 PM 29.5°F-1.4°C 8.7°F-12.9°C 41% 7.8 mph NNW12.6 kmh NNW 16.6 mph26.7 kmh 29.73 in1006.8 mb 0.00 in0.0 mm 0.00 in0.0 mm 0.00 in0.0 mm
03:08 PM 29.5°F-1.4°C 8.7°F-12.9°C 41% 10.9 mph W17.5 kmh W 16.6 mph26.7 kmh 29.73 in1006.8 mb 0.00 in0.0 mm 0.00 in0.0 mm 0.00 in0.0 mm
03:09 PM 29.7°F-1.3°C 8.9°F-12.8°C 41% 14.5 mph W23.3 kmh W 18.1 mph29.1 kmh 29.73 in1006.8 mb 0.00 in0.0 mm 0.00 in0.0 mm 0.00 in0.0 mm
03:10 PM 29.7°F-1.3°C 8.9°F-12.8°C 41% 12.5 mph W20.1 kmh W 18.1 mph29.1 kmh 29.73 in1006.8 mb 0.00 in0.0 mm 0.00 in0.0 mm 0.00 in0.0 mm
03:11 PM 29.8°F-1.2°C 8.5°F-13.1°C 40% 10.4 mph WNW16.7 kmh WNW 18.1 mph29.1 kmh 29.73 in1006.8 mb 0.00 in0.0 mm 0.00 in0.0 mm 0.00 in0.0 mm
03:12 PM 29.5°F-1.4°C 8.7°F-12.9°C 41% 8.3 mph W13.4 kmh W 18.1 mph29.1 kmh 29.73 in1006.8 mb 0.00 in0.0 mm 0.00 in0.0 mm 0.00 in0.0 mm
03:13 PM 29.5°F-1.4°C 8.7°F-12.9°C 41% 11.9 mph WNW19.2 kmh WNW 18.1 mph29.1 kmh 29.73 in1006.8 mb 0.00 in0.0 mm 0.00 in0.0 mm 0.00 in0.0 mm
03:14 PM 29.5°F-1.4°C 8.7°F-12.9°C 41% 8.9 mph W14.3 kmh W 18.1 mph29.1 kmh 29.73 in1006.8 mb 0.00 in0.0 mm 0.00 in0.0 mm 0.00 in0.0 mm
03:15 PM 29.5°F-1.4°C 8.7°F-12.9°C 41% 14.0 mph W22.5 kmh W 18.1 mph29.1 kmh 29.73 in1006.8 mb 0.00 in0.0 mm 0.00 in0.0 mm 0.00 in0.0 mm
03:16 PM 29.7°F-1.3°C 8.9°F-12.8°C 41% 9.4 mph WSW15.1 kmh WSW 18.1 mph29.1 kmh 29.73 in1006.8 mb 0.00 in0.0 mm 0.00 in0.0 mm 0.00 in0.0 mm
03:17 PM 29.7°F-1.3°C 8.9°F-12.8°C 41% 5.8 mph W9.3 kmh W 18.1 mph29.1 kmh 29.75 in1007.5 mb 0.00 in0.0 mm 0.00 in0.0 mm 0.00 in0.0 mm
03:18 PM 29.7°F-1.3°C 8.9°F-12.8°C 41% 6.3 mph W10.1 kmh W 18.1 mph29.1 kmh 29.75 in1007.5 mb 0.00 in0.0 mm 0.00 in0.0 mm 0.00 in0.0 mm
03:19 PM 29.7°F-1.3°C 8.9°F-12.8°C 41% 9.4 mph NNW15.1 kmh NNW 17.6 mph28.3 kmh 29.75 in1007.5 mb 0.00 in0.0 mm 0.00 in0.0 mm 0.00 in0.0 mm
03:20 PM 29.8°F-1.2°C 9.0°F-12.8°C 41% 8.9 mph W14.3 kmh W 17.6 mph28.3 kmh 29.75 in1007.5 mb 0.00 in0.0 mm 0.00 in0.0 mm 0.00 in0.0 mm
03:21 PM 29.7°F-1.3°C 8.9°F-12.8°C 41% 7.8 mph NNE12.6 kmh NNE 17.6 mph28.3 kmh 29.75 in1007.5 mb 0.00 in0.0 mm 0.00 in0.0 mm 0.00 in0.0 mm
03:22 PM 29.7°F-1.3°C 8.9°F-12.8°C 41% 8.9 mph N14.3 kmh N 15.5 mph24.9 kmh 29.75 in1007.5 mb 0.00 in0.0 mm 0.00 in0.0 mm 0.00 in0.0 mm
03:23 PM 29.8°F-1.2°C 9.0°F-12.8°C 41% 7.3 mph NNW11.7 kmh NNW 15.5 mph24.9 kmh 29.75 in1007.5 mb 0.00 in0.0 mm 0.00 in0.0 mm 0.00 in0.0 mm
03:24 PM 29.8°F-1.2°C 9.0°F-12.8°C 41% 14.0 mph W22.5 kmh W 14.0 mph22.5 kmh 29.75 in1007.5 mb 0.00 in0.0 mm 0.00 in0.0 mm 0.00 in0.0 mm
03:25 PM 29.8°F-1.2°C 8.5°F-13.1°C 40% 9.9 mph NW15.9 kmh NW 14.0 mph22.5 kmh 29.75 in1007.5 mb 0.00 in0.0 mm 0.00 in0.0 mm 0.00 in0.0 mm
03:26 PM 29.8°F-1.2°C 8.5°F-13.1°C 40% 6.3 mph NNW10.1 kmh NNW 14.0 mph22.5 kmh 29.75 in1007.5 mb 0.00 in0.0 mm 0.00 in0.0 mm 0.00 in0.0 mm
03:27 PM 29.8°F-1.2°C 8.5°F-13.1°C 40% 10.4 mph WSW16.7 kmh WSW 17.1 mph27.5 kmh 29.75 in1007.5 mb 0.00 in0.0 mm 0.00 in0.0 mm 0.00 in0.0 mm
03:28 PM 29.8°F-1.2°C 8.5°F-13.1°C 40% 10.9 mph NNE17.5 kmh NNE 17.1 mph27.5 kmh 29.75 in1007.5 mb 0.00 in0.0 mm 0.00 in0.0 mm 0.00 in0.0 mm
03:29 PM 29.8°F-1.2°C 8.5°F-13.1°C 40% 16.1 mph NNW25.9 kmh NNW 17.1 mph27.5 kmh 29.74 in1007.1 mb 0.00 in0.0 mm 0.00 in0.0 mm 0.00 in0.0 mm
03:30 PM 29.7°F-1.3°C 8.4°F-13.1°C 40% 9.9 mph NNW15.9 kmh NNW 17.1 mph27.5 kmh 29.74 in1007.1 mb 0.00 in0.0 mm 0.00 in0.0 mm 0.00 in0.0 mm
03:31 PM 29.7°F-1.3°C 8.4°F-13.1°C 40% 8.3 mph NW13.4 kmh NW 17.1 mph27.5 kmh 29.74 in1007.1 mb 0.00 in0.0 mm 0.00 in0.0 mm 0.00 in0.0 mm
03:32 PM 29.8°F-1.2°C 8.5°F-13.1°C 40% 7.8 mph NNE12.6 kmh NNE 17.1 mph27.5 kmh 29.74 in1007.1 mb 0.00 in0.0 mm 0.00 in0.0 mm 0.00 in0.0 mm
03:33 PM 29.8°F-1.2°C 8.5°F-13.1°C 40% 12.5 mph N20.1 kmh N 17.1 mph27.5 kmh 29.74 in1007.1 mb 0.00 in0.0 mm 0.00 in0.0 mm 0.00 in0.0 mm
03:34 PM 30.0°F-1.1°C 8.1°F-13.3°C 39% 10.4 mph SW16.7 kmh SW 17.1 mph27.5 kmh 29.74 in1007.1 mb 0.00 in0.0 mm 0.00 in0.0 mm 0.00 in0.0 mm
03:35 PM 30.0°F-1.1°C 8.1°F-13.3°C 39% 9.9 mph WSW15.9 kmh WSW 17.1 mph27.5 kmh 29.74 in1007.1 mb 0.00 in0.0 mm 0.00 in0.0 mm 0.00 in0.0 mm
03:36 PM 30.0°F-1.1°C 8.1°F-13.3°C 39% 7.3 mph W11.7 kmh W 17.6 mph28.3 kmh 29.74 in1007.1 mb 0.00 in0.0 mm 0.00 in0.0 mm 0.00 in0.0 mm
03:37 PM 30.0°F-1.1°C 8.1°F-13.3°C 39% 10.4 mph W16.7 kmh W 17.6 mph28.3 kmh 29.74 in1007.1 mb 0.00 in0.0 mm 0.00 in0.0 mm 0.00 in0.0 mm
03:38 PM 30.0°F-1.1°C 8.1°F-13.3°C 39% 9.4 mph NW15.1 kmh NW 17.6 mph28.3 kmh 29.74 in1007.1 mb 0.00 in0.0 mm 0.00 in0.0 mm 0.00 in0.0 mm
03:39 PM 30.0°F-1.1°C 8.1°F-13.3°C 39% 5.8 mph W9.3 kmh W 17.6 mph28.3 kmh 29.74 in1007.1 mb 0.00 in0.0 mm 0.00 in0.0 mm 0.00 in0.0 mm
03:40 PM 30.2°F-1.0°C 8.3°F-13.2°C 39% 5.8 mph W9.3 kmh W 17.6 mph28.3 kmh 29.74 in1007.1 mb 0.00 in0.0 mm 0.00 in0.0 mm 0.00 in0.0 mm
03:41 PM 30.4°F-0.9°C 8.4°F-13.1°C 39% 5.3 mph NNW8.5 kmh NNW 17.6 mph28.3 kmh 29.75 in1007.5 mb 0.00 in0.0 mm 0.00 in0.0 mm 0.00 in0.0 mm
03:42 PM 30.6°F-0.8°C 8.6°F-13.0°C 39% 10.9 mph NW17.5 kmh NW 17.6 mph28.3 kmh 29.75 in1007.5 mb 0.00 in0.0 mm 0.00 in0.0 mm 0.00 in0.0 mm
03:43 PM 30.6°F-0.8°C 8.6°F-13.0°C 39% 7.8 mph W12.6 kmh W 17.6 mph28.3 kmh 29.75 in1007.5 mb 0.00 in0.0 mm 0.00 in0.0 mm 0.00 in0.0 mm
03:44 PM 30.6°F-0.8°C 8.6°F-13.0°C 39% 7.3 mph WNW11.7 kmh WNW 17.6 mph28.3 kmh 29.75 in1007.5 mb 0.00 in0.0 mm 0.00 in0.0 mm 0.00 in0.0 mm
03:45 PM 30.4°F-0.9°C 8.4°F-13.1°C 39% 10.4 mph WNW16.7 kmh WNW 17.6 mph28.3 kmh 29.75 in1007.5 mb 0.00 in0.0 mm 0.00 in0.0 mm 0.00 in0.0 mm
03:46 PM 30.4°F-0.9°C 8.4°F-13.1°C 39% 13.0 mph W20.9 kmh W 14.5 mph23.3 kmh 29.75 in1007.5 mb 0.00 in0.0 mm 0.00 in0.0 mm 0.00 in0.0 mm
03:47 PM 30.4°F-0.9°C 8.4°F-13.1°C 39% 10.9 mph W17.5 kmh W 14.5 mph23.3 kmh 29.75 in1007.5 mb 0.00 in0.0 mm 0.00 in0.0 mm 0.00 in0.0 mm
03:48 PM 30.2°F-1.0°C 8.3°F-13.2°C 39% 9.4 mph NNW15.1 kmh NNW 14.5 mph23.3 kmh 29.75 in1007.5 mb 0.00 in0.0 mm 0.00 in0.0 mm 0.00 in0.0 mm
03:49 PM 30.2°F-1.0°C 8.3°F-13.2°C 39% 6.8 mph W10.9 kmh W 14.5 mph23.3 kmh 29.75 in1007.5 mb 0.00 in0.0 mm 0.00 in0.0 mm 0.00 in0.0 mm
03:50 PM 30.4°F-0.9°C 8.4°F-13.1°C 39% 7.8 mph W12.6 kmh W 14.5 mph23.3 kmh 29.75 in1007.5 mb 0.00 in0.0 mm 0.00 in0.0 mm 0.00 in0.0 mm
03:51 PM 30.2°F-1.0°C 8.3°F-13.2°C 39% 6.3 mph WNW10.1 kmh WNW 14.5 mph23.3 kmh 29.75 in1007.5 mb 0.00 in0.0 mm 0.00 in0.0 mm 0.00 in0.0 mm
03:52 PM 30.4°F-0.9°C 8.4°F-13.1°C 39% 4.7 mph W7.6 kmh W 14.5 mph23.3 kmh 29.75 in1007.5 mb 0.00 in0.0 mm 0.00 in0.0 mm 0.00 in0.0 mm
03:53 PM 30.6°F-0.8°C 8.6°F-13.0°C 39% 5.3 mph W8.5 kmh W 14.5 mph23.3 kmh 29.75 in1007.5 mb 0.00 in0.0 mm 0.00 in0.0 mm 0.00 in0.0 mm
03:54 PM 30.4°F-0.9°C 8.4°F-13.1°C 39% 15.0 mph WSW24.1 kmh WSW 15.0 mph24.1 kmh 29.75 in1007.5 mb 0.00 in0.0 mm 0.00 in0.0 mm 0.00 in0.0 mm
03:55 PM 30.4°F-0.9°C 8.4°F-13.1°C 39% 14.0 mph NNE22.5 kmh NNE 15.0 mph24.1 kmh 29.75 in1007.5 mb 0.00 in0.0 mm 0.00 in0.0 mm 0.00 in0.0 mm
03:56 PM 30.2°F-1.0°C 7.7°F-13.5°C 38% 13.0 mph WNW20.9 kmh WNW 15.0 mph24.1 kmh 29.75 in1007.5 mb 0.00 in0.0 mm 0.00 in0.0 mm 0.00 in0.0 mm
03:57 PM 29.8°F-1.2°C 7.3°F-13.7°C 38% 11.9 mph W19.2 kmh W 15.0 mph24.1 kmh 29.75 in1007.5 mb 0.00 in0.0 mm 0.00 in0.0 mm 0.00 in0.0 mm
03:58 PM 29.8°F-1.2°C 7.3°F-13.7°C 38% 11.9 mph WSW19.2 kmh WSW 15.0 mph24.1 kmh 29.75 in1007.5 mb 0.00 in0.0 mm 0.00 in0.0 mm 0.00 in0.0 mm
03:59 PM 29.8°F-1.2°C 7.3°F-13.7°C 38% 9.4 mph W15.1 kmh W 15.0 mph24.1 kmh 29.75 in1007.5 mb 0.00 in0.0 mm 0.00 in0.0 mm 0.00 in0.0 mm
04:00 PM 29.8°F-1.2°C 7.3°F-13.7°C 38% 13.0 mph W20.9 kmh W 15.0 mph24.1 kmh 29.75 in1007.5 mb 0.00 in0.0 mm 0.00 in0.0 mm 0.00 in0.0 mm
04:01 PM 29.8°F-1.2°C 7.9°F-13.4°C 39% 8.3 mph WNW13.4 kmh WNW 15.0 mph24.1 kmh 29.75 in1007.5 mb 0.00 in0.0 mm 0.00 in0.0 mm 0.00 in0.0 mm
04:02 PM 29.8°F-1.2°C 7.9°F-13.4°C 39% 8.3 mph W13.4 kmh W 15.0 mph24.1 kmh 29.75 in1007.5 mb 0.00 in0.0 mm 0.00 in0.0 mm 0.00 in0.0 mm
04:03 PM 29.8°F-1.2°C 7.9°F-13.4°C 39% 8.3 mph W13.4 kmh W 15.0 mph24.1 kmh 29.75 in1007.5 mb 0.00 in0.0 mm 0.00 in0.0 mm 0.00 in0.0 mm
04:08 PM 29.8°F-1.2°C 7.9°F-13.4°C 39% 6.8 mph W10.9 kmh W 13.0 mph20.9 kmh 29.76 in1007.8 mb 0.00 in0.0 mm 0.00 in0.0 mm 0.00 in0.0 mm
04:09 PM 29.3°F-1.5°C 7.5°F-13.6°C 39% 7.8 mph W12.6 kmh W 13.0 mph20.9 kmh 29.76 in1007.8 mb 0.00 in0.0 mm 0.00 in0.0 mm 0.00 in0.0 mm
04:10 PM 29.5°F-1.4°C 7.6°F-13.6°C 39% 8.9 mph W14.3 kmh W 13.0 mph20.9 kmh 29.76 in1007.8 mb 0.00 in0.0 mm 0.00 in0.0 mm 0.00 in0.0 mm
04:11 PM 29.3°F-1.5°C 7.5°F-13.6°C 39% 11.9 mph W19.2 kmh W 16.1 mph25.9 kmh 29.76 in1007.8 mb 0.00 in0.0 mm 0.00 in0.0 mm 0.00 in0.0 mm
04:12 PM 29.3°F-1.5°C 7.5°F-13.6°C 39% 9.9 mph WSW15.9 kmh WSW 16.1 mph25.9 kmh 29.76 in1007.8 mb 0.00 in0.0 mm 0.00 in0.0 mm 0.00 in0.0 mm
04:13 PM 29.3°F-1.5°C 7.5°F-13.6°C 39% 9.9 mph WNW15.9 kmh WNW 16.1 mph25.9 kmh 29.76 in1007.8 mb 0.00 in0.0 mm 0.00 in0.0 mm 0.00 in0.0 mm
04:14 PM 29.5°F-1.4°C 7.6°F-13.6°C 39% 9.4 mph W15.1 kmh W 16.1 mph25.9 kmh 29.76 in1007.8 mb 0.00 in0.0 mm 0.00 in0.0 mm 0.00 in0.0 mm
04:15 PM 29.5°F-1.4°C 7.6°F-13.6°C 39% 7.3 mph NW11.7 kmh NW 16.1 mph25.9 kmh 29.76 in1007.8 mb 0.00 in0.0 mm 0.00 in0.0 mm 0.00 in0.0 mm
04:16 PM 29.5°F-1.4°C 7.6°F-13.6°C 39% 10.9 mph WNW17.5 kmh WNW 16.1 mph25.9 kmh 29.76 in1007.8 mb 0.00 in0.0 mm 0.00 in0.0 mm 0.00 in0.0 mm
04:17 PM 29.5°F-1.4°C 7.6°F-13.6°C 39% 6.3 mph NNW10.1 kmh NNW 16.1 mph25.9 kmh 29.76 in1007.8 mb 0.00 in0.0 mm 0.00 in0.0 mm 0.00 in0.0 mm
04:18 PM 29.3°F-1.5°C 7.5°F-13.6°C 39% 18.6 mph WNW29.9 kmh WNW 18.6 mph29.9 kmh 29.76 in1007.8 mb 0.00 in0.0 mm 0.00 in0.0 mm 0.00 in0.0 mm
04:19 PM 29.1°F-1.6°C 7.3°F-13.7°C 39% 9.9 mph W15.9 kmh W 18.6 mph29.9 kmh 29.76 in1007.8 mb 0.00 in0.0 mm 0.00 in0.0 mm 0.00 in0.0 mm
04:20 PM 29.1°F-1.6°C 7.3°F-13.7°C 39% 12.5 mph W20.1 kmh W 18.6 mph29.9 kmh 29.76 in1007.8 mb 0.00 in0.0 mm 0.00 in0.0 mm 0.00 in0.0 mm
04:21 PM 29.1°F-1.6°C 7.3°F-13.7°C 39% 16.1 mph W25.9 kmh W 18.6 mph29.9 kmh 29.76 in1007.8 mb 0.00 in0.0 mm 0.00 in0.0 mm 0.00 in0.0 mm
04:22 PM 29.1°F-1.6°C 7.3°F-13.7°C 39% 8.3 mph W13.4 kmh W 18.6 mph29.9 kmh 29.76 in1007.8 mb 0.00 in0.0 mm 0.00 in0.0 mm 0.00 in0.0 mm
04:23 PM 29.1°F-1.6°C 7.3°F-13.7°C 39% 14.0 mph WNW22.5 kmh WNW 18.6 mph29.9 kmh 29.76 in1007.8 mb 0.00 in0.0 mm 0.00 in0.0 mm 0.00 in0.0 mm
04:24 PM 29.1°F-1.6°C 7.3°F-13.7°C 39% 7.8 mph WNW12.6 kmh WNW 18.6 mph29.9 kmh 29.76 in1007.8 mb 0.00 in0.0 mm 0.00 in0.0 mm 0.00 in0.0 mm
04:25 PM 29.1°F-1.6°C 7.3°F-13.7°C 39% 5.3 mph WNW8.5 kmh WNW 18.6 mph29.9 kmh 29.76 in1007.8 mb 0.00 in0.0 mm 0.00 in0.0 mm 0.00 in0.0 mm
04:26 PM 29.3°F-1.5°C 7.5°F-13.6°C 39% 7.3 mph WNW11.7 kmh WNW 18.6 mph29.9 kmh 29.76 in1007.8 mb 0.00 in0.0 mm 0.00 in0.0 mm 0.00 in0.0 mm
04:27 PM 29.3°F-1.5°C 7.5°F-13.6°C 39% 9.4 mph NNE15.1 kmh NNE 18.6 mph29.9 kmh 29.76 in1007.8 mb 0.00 in0.0 mm 0.00 in0.0 mm 0.00 in0.0 mm
04:28 PM 29.3°F-1.5°C 7.5°F-13.6°C 39% 8.9 mph W14.3 kmh W 18.6 mph29.9 kmh 29.77 in1008.1 mb 0.00 in0.0 mm 0.00 in0.0 mm 0.00 in0.0 mm
04:29 PM 29.1°F-1.6°C 7.3°F-13.7°C 39% 6.8 mph W10.9 kmh W 16.1 mph25.9 kmh 29.77 in1008.1 mb 0.00 in0.0 mm 0.00 in0.0 mm 0.00 in0.0 mm
04:30 PM 29.1°F-1.6°C 7.3°F-13.7°C 39% 6.3 mph W10.1 kmh W 16.1 mph25.9 kmh 29.77 in1008.1 mb 0.00 in0.0 mm 0.00 in0.0 mm 0.00 in0.0 mm
04:31 PM 29.1°F-1.6°C 7.3°F-13.7°C 39% 4.2 mph NNW6.8 kmh NNW 14.0 mph22.5 kmh 29.77 in1008.1 mb 0.00 in0.0 mm 0.00 in0.0 mm 0.00 in0.0 mm
04:32 PM 29.3°F-1.5°C 7.5°F-13.6°C 39% 7.8 mph NNW12.6 kmh NNW 14.0 mph22.5 kmh 29.77 in1008.1 mb 0.00 in0.0 mm 0.00 in0.0 mm 0.00 in0.0 mm
04:33 PM 29.1°F-1.6°C 7.3°F-13.7°C 39% 5.3 mph WSW8.5 kmh WSW 14.0 mph22.5 kmh 29.77 in1008.1 mb 0.00 in0.0 mm 0.00 in0.0 mm 0.00 in0.0 mm
04:34 PM 28.9°F-1.7°C 7.6°F-13.6°C 40% 6.3 mph WSW10.1 kmh WSW 10.4 mph16.7 kmh 29.77 in1008.1 mb 0.00 in0.0 mm 0.00 in0.0 mm 0.00 in0.0 mm
04:35 PM 28.8°F-1.8°C 7.6°F-13.6°C 40% 3.7 mph WNW6.0 kmh WNW 10.4 mph16.7 kmh 29.77 in1008.1 mb 0.00 in0.0 mm 0.00 in0.0 mm 0.00 in0.0 mm
04:36 PM 28.8°F-1.8°C 7.6°F-13.6°C 40% 6.3 mph NW10.1 kmh NW 10.4 mph16.7 kmh 29.77 in1008.1 mb 0.00 in0.0 mm 0.00 in0.0 mm 0.00 in0.0 mm
04:37 PM 28.6°F-1.9°C 7.4°F-13.7°C 40% 8.9 mph WSW14.3 kmh WSW 10.4 mph16.7 kmh 29.77 in1008.1 mb 0.00 in0.0 mm 0.00 in0.0 mm 0.00 in0.0 mm
04:38 PM 28.4°F-2.0°C 7.2°F-13.8°C 40% 6.3 mph WNW10.1 kmh WNW 9.9 mph15.9 kmh 29.77 in1008.1 mb 0.00 in0.0 mm 0.00 in0.0 mm 0.00 in0.0 mm
04:39 PM 28.4°F-2.0°C 7.2°F-13.8°C 40% 6.8 mph WSW10.9 kmh WSW 9.9 mph15.9 kmh 29.77 in1008.1 mb 0.00 in0.0 mm 0.00 in0.0 mm 0.00 in0.0 mm
04:40 PM 28.2°F-2.1°C 7.0°F-13.9°C 40% 8.3 mph WSW13.4 kmh WSW 9.9 mph15.9 kmh 29.77 in1008.1 mb 0.00 in0.0 mm 0.00 in0.0 mm 0.00 in0.0 mm
04:41 PM 28.2°F-2.1°C 7.0°F-13.9°C 40% 10.4 mph WNW16.7 kmh WNW 10.4 mph16.7 kmh 29.77 in1008.1 mb 0.00 in0.0 mm 0.00 in0.0 mm 0.00 in0.0 mm
04:42 PM 28.2°F-2.1°C 7.0°F-13.9°C 40% 13.5 mph W21.7 kmh W 15.5 mph24.9 kmh 29.77 in1008.1 mb 0.00 in0.0 mm 0.00 in0.0 mm 0.00 in0.0 mm
04:43 PM 28.0°F-2.2°C 6.8°F-14.0°C 40% 13.5 mph NNW21.7 kmh NNW 15.5 mph24.9 kmh 29.77 in1008.1 mb 0.00 in0.0 mm 0.00 in0.0 mm 0.00 in0.0 mm
04:44 PM 28.0°F-2.2°C 6.8°F-14.0°C 40% 7.3 mph WNW11.7 kmh WNW 15.5 mph24.9 kmh 29.77 in1008.1 mb 0.00 in0.0 mm 0.00 in0.0 mm 0.00 in0.0 mm
04:45 PM 28.0°F-2.2°C 6.8°F-14.0°C 40% 11.9 mph W19.2 kmh W 15.5 mph24.9 kmh 29.77 in1008.1 mb 0.00 in0.0 mm 0.00 in0.0 mm 0.00 in0.0 mm
04:46 PM 28.0°F-2.2°C 6.8°F-14.0°C 40% 6.8 mph W10.9 kmh W 15.5 mph24.9 kmh 29.77 in1008.1 mb 0.00 in0.0 mm 0.00 in0.0 mm 0.00 in0.0 mm
04:47 PM 28.0°F-2.2°C 6.8°F-14.0°C 40% 7.8 mph W12.6 kmh W 15.5 mph24.9 kmh 29.77 in1008.1 mb 0.00 in0.0 mm 0.00 in0.0 mm 0.00 in0.0 mm
04:48 PM 27.9°F-2.3°C 6.7°F-14.1°C 40% 7.8 mph WNW12.6 kmh WNW 15.5 mph24.9 kmh 29.77 in1008.1 mb 0.00 in0.0 mm 0.00 in0.0 mm 0.00 in0.0 mm
04:49 PM 27.9°F-2.3°C 6.7°F-14.1°C 40% 10.4 mph NNW16.7 kmh NNW 15.5 mph24.9 kmh 29.77 in1008.1 mb 0.00 in0.0 mm 0.00 in0.0 mm 0.00 in0.0 mm
04:50 PM 27.9°F-2.3°C 6.7°F-14.1°C 40% 15.5 mph NNW24.9 kmh NNW 15.5 mph24.9 kmh 29.77 in1008.1 mb 0.00 in0.0 mm 0.00 in0.0 mm 0.00 in0.0 mm
04:51 PM 27.9°F-2.3°C 6.7°F-14.1°C 40% 9.9 mph W15.9 kmh W 15.5 mph24.9 kmh 29.77 in1008.1 mb 0.00 in0.0 mm 0.00 in0.0 mm 0.00 in0.0 mm
04:52 PM 27.9°F-2.3°C 6.7°F-14.1°C 40% 6.3 mph NNE10.1 kmh NNE 15.5 mph24.9 kmh 29.77 in1008.1 mb 0.00 in0.0 mm 0.00 in0.0 mm 0.00 in0.0 mm
04:53 PM 27.7°F-2.4°C 6.6°F-14.1°C 40% 9.9 mph NNW15.9 kmh NNW 15.5 mph24.9 kmh 29.78 in1008.5 mb 0.00 in0.0 mm 0.00 in0.0 mm 0.00 in0.0 mm
04:54 PM 27.7°F-2.4°C 7.1°F-13.8°C 41% 8.3 mph SSW13.4 kmh SSW 15.5 mph24.9 kmh 29.78 in1008.5 mb 0.00 in0.0 mm 0.00 in0.0 mm 0.00 in0.0 mm
04:55 PM 27.7°F-2.4°C 7.1°F-13.8°C 41% 9.4 mph SW15.1 kmh SW 15.5 mph24.9 kmh 29.78 in1008.5 mb 0.00 in0.0 mm 0.00 in0.0 mm 0.00 in0.0 mm
04:56 PM 27.7°F-2.4°C 6.6°F-14.1°C 40% 11.9 mph W19.2 kmh W 15.5 mph24.9 kmh 29.78 in1008.5 mb 0.00 in0.0 mm 0.00 in0.0 mm 0.00 in0.0 mm
04:57 PM 27.7°F-2.4°C 6.6°F-14.1°C 40% 13.0 mph N20.9 kmh N 15.5 mph24.9 kmh 29.78 in1008.5 mb 0.00 in0.0 mm 0.00 in0.0 mm 0.00 in0.0 mm
04:58 PM 27.7°F-2.4°C 6.6°F-14.1°C 40% 6.8 mph W10.9 kmh W 15.5 mph24.9 kmh 29.78 in1008.5 mb 0.00 in0.0 mm 0.00 in0.0 mm 0.00 in0.0 mm
04:59 PM 27.7°F-2.4°C 6.6°F-14.1°C 40% 9.4 mph WNW15.1 kmh WNW 15.5 mph24.9 kmh 29.78 in1008.5 mb 0.00 in0.0 mm 0.00 in0.0 mm 0.00 in0.0 mm
05:00 PM 27.7°F-2.4°C 6.6°F-14.1°C 40% 5.3 mph N8.5 kmh N 13.0 mph20.9 kmh 29.78 in1008.5 mb 0.00 in0.0 mm 0.00 in0.0 mm 0.00 in0.0 mm
05:01 PM 27.5°F-2.5°C 6.9°F-13.9°C 41% 4.7 mph W7.6 kmh W 13.0 mph20.9 kmh 29.78 in1008.5 mb 0.00 in0.0 mm 0.00 in0.0 mm 0.00 in0.0 mm
05:02 PM 27.3°F-2.6°C 6.7°F-14.1°C 41% 7.3 mph ESE11.7 kmh ESE 13.0 mph20.9 kmh 29.78 in1008.5 mb 0.00 in0.0 mm 0.00 in0.0 mm 0.00 in0.0 mm
05:03 PM 27.3°F-2.6°C 6.7°F-14.1°C 41% 7.8 mph WSW12.6 kmh WSW 13.0 mph20.9 kmh 29.78 in1008.5 mb 0.00 in0.0 mm 0.00 in0.0 mm 0.00 in0.0 mm
05:04 PM 27.3°F-2.6°C 6.2°F-14.3°C 40% 18.6 mph W29.9 kmh W 18.6 mph29.9 kmh 29.78 in1008.5 mb 0.00 in0.0 mm 0.00 in0.0 mm 0.00 in0.0 mm
05:05 PM 27.5°F-2.5°C 6.4°F-14.2°C 40% 8.9 mph W14.3 kmh W 18.6 mph29.9 kmh 29.78 in1008.5 mb 0.00 in0.0 mm 0.00 in0.0 mm 0.00 in0.0 mm
05:06 PM 27.5°F-2.5°C 6.4°F-14.2°C 40% 5.3 mph W8.5 kmh W 18.6 mph29.9 kmh 29.78 in1008.5 mb 0.00 in0.0 mm 0.00 in0.0 mm 0.00 in0.0 mm
05:07 PM 27.5°F-2.5°C 6.4°F-14.2°C 40% 13.5 mph W21.7 kmh W 22.2 mph35.7 kmh 29.78 in1008.5 mb 0.00 in0.0 mm 0.00 in0.0 mm 0.00 in0.0 mm
05:08 PM 27.5°F-2.5°C 5.8°F-14.6°C 39% 12.5 mph W20.1 kmh W 22.2 mph35.7 kmh 29.78 in1008.5 mb 0.00 in0.0 mm 0.00 in0.0 mm 0.00 in0.0 mm
05:09 PM 27.5°F-2.5°C 5.8°F-14.6°C 39% 7.3 mph SW11.7 kmh SW 22.2 mph35.7 kmh 29.78 in1008.5 mb 0.00 in0.0 mm 0.00 in0.0 mm 0.00 in0.0 mm
05:10 PM 27.3°F-2.6°C 5.7°F-14.6°C 39% 8.9 mph W14.3 kmh W 22.2 mph35.7 kmh 29.78 in1008.5 mb 0.00 in0.0 mm 0.00 in0.0 mm 0.00 in0.0 mm
05:11 PM 27.3°F-2.6°C 5.7°F-14.6°C 39% 6.3 mph W10.1 kmh W 22.2 mph35.7 kmh 29.78 in1008.5 mb 0.00 in0.0 mm 0.00 in0.0 mm 0.00 in0.0 mm
05:12 PM 27.3°F-2.6°C 5.7°F-14.6°C 39% 9.4 mph WNW15.1 kmh WNW 22.2 mph35.7 kmh 29.78 in1008.5 mb 0.00 in0.0 mm 0.00 in0.0 mm 0.00 in0.0 mm
05:13 PM 27.3°F-2.6°C 5.7°F-14.6°C 39% 9.9 mph WNW15.9 kmh WNW 22.2 mph35.7 kmh 29.78 in1008.5 mb 0.00 in0.0 mm 0.00 in0.0 mm 0.00 in0.0 mm
05:14 PM 27.3°F-2.6°C 5.7°F-14.6°C 39% 5.8 mph N9.3 kmh N 22.2 mph35.7 kmh 29.78 in1008.5 mb 0.00 in0.0 mm 0.00 in0.0 mm 0.00 in0.0 mm
05:15 PM 27.3°F-2.6°C 5.7°F-14.6°C 39% 8.3 mph NNW13.4 kmh NNW 22.2 mph35.7 kmh 29.78 in1008.5 mb 0.00 in0.0 mm 0.00 in0.0 mm 0.00 in0.0 mm
05:16 PM 27.1°F-2.7°C 5.5°F-14.7°C 39% 9.4 mph W15.1 kmh W 22.2 mph35.7 kmh 29.78 in1008.5 mb 0.00 in0.0 mm 0.00 in0.0 mm 0.00 in0.0 mm
05:17 PM 27.1°F-2.7°C 5.5°F-14.7°C 39% 6.8 mph NNE10.9 kmh NNE 15.0 mph24.1 kmh 29.78 in1008.5 mb 0.00 in0.0 mm 0.00 in0.0 mm 0.00 in0.0 mm
05:18 PM 27.1°F-2.7°C 6.0°F-14.4°C 40% 11.9 mph NNE19.2 kmh NNE 15.0 mph24.1 kmh 29.78 in1008.5 mb 0.00 in0.0 mm 0.00 in0.0 mm 0.00 in0.0 mm
05:19 PM 27.1°F-2.7°C 5.5°F-14.7°C 39% 11.9 mph WSW19.2 kmh WSW 15.0 mph24.1 kmh 29.78 in1008.5 mb 0.00 in0.0 mm 0.00 in0.0 mm 0.00 in0.0 mm
05:20 PM 27.1°F-2.7°C 4.9°F-15.1°C 38% 10.9 mph N17.5 kmh N 15.0 mph24.1 kmh 29.78 in1008.5 mb 0.00 in0.0 mm 0.00 in0.0 mm 0.00 in0.0 mm
05:21 PM 27.1°F-2.7°C 4.9°F-15.1°C 38% 9.4 mph W15.1 kmh W 15.5 mph24.9 kmh 29.78 in1008.5 mb 0.00 in0.0 mm 0.00 in0.0 mm 0.00 in0.0 mm
05:22 PM 27.1°F-2.7°C 4.9°F-15.1°C 38% 7.3 mph SW11.7 kmh SW 15.5 mph24.9 kmh 29.78 in1008.5 mb 0.00 in0.0 mm 0.00 in0.0 mm 0.00 in0.0 mm
05:23 PM 27.1°F-2.7°C 4.9°F-15.1°C 38% 6.8 mph WNW10.9 kmh WNW 15.5 mph24.9 kmh 29.78 in1008.5 mb 0.00 in0.0 mm 0.00 in0.0 mm 0.00 in0.0 mm
05:24 PM 27.1°F-2.7°C 4.9°F-15.1°C 38% 8.3 mph W13.4 kmh W 15.5 mph24.9 kmh 29.78 in1008.5 mb 0.00 in0.0 mm 0.00 in0.0 mm 0.00 in0.0 mm
05:25 PM 27.1°F-2.7°C 4.9°F-15.1°C 38% 8.9 mph NW14.3 kmh NW 15.5 mph24.9 kmh 29.78 in1008.5 mb 0.00 in0.0 mm 0.00 in0.0 mm 0.00 in0.0 mm
05:26 PM 27.0°F-2.8°C 4.8°F-15.1°C 38% 7.3 mph W11.7 kmh W 15.5 mph24.9 kmh 29.78 in1008.5 mb 0.00 in0.0 mm 0.00 in0.0 mm 0.00 in0.0 mm
05:27 PM 27.0°F-2.8°C 4.8°F-15.1°C 38% 5.8 mph WNW9.3 kmh WNW 15.5 mph24.9 kmh 29.78 in1008.5 mb 0.00 in0.0 mm 0.00 in0.0 mm 0.00 in0.0 mm
05:28 PM 27.0°F-2.8°C 4.8°F-15.1°C 38% 5.3 mph NNW8.5 kmh NNW 15.5 mph24.9 kmh 29.78 in1008.5 mb 0.00 in0.0 mm 0.00 in0.0 mm 0.00 in0.0 mm
05:29 PM 27.0°F-2.8°C 4.8°F-15.1°C 38% 9.9 mph WNW15.9 kmh WNW 15.5 mph24.9 kmh 29.79 in1008.8 mb 0.00 in0.0 mm 0.00 in0.0 mm 0.00 in0.0 mm
05:30 PM 27.0°F-2.8°C 4.8°F-15.1°C 38% 7.3 mph W11.7 kmh W 15.5 mph24.9 kmh 29.79 in1008.8 mb 0.00 in0.0 mm 0.00 in0.0 mm 0.00 in0.0 mm
05:31 PM 27.0°F-2.8°C 4.8°F-15.1°C 38% 5.3 mph NW8.5 kmh NW 10.9 mph17.5 kmh 29.79 in1008.8 mb 0.00 in0.0 mm 0.00 in0.0 mm 0.00 in0.0 mm
05:32 PM 27.0°F-2.8°C 5.4°F-14.8°C 39% 9.4 mph W15.1 kmh W 11.9 mph19.2 kmh 29.79 in1008.8 mb 0.00 in0.0 mm 0.00 in0.0 mm 0.00 in0.0 mm
05:33 PM 27.0°F-2.8°C 5.4°F-14.8°C 39% 9.4 mph W15.1 kmh W 11.9 mph19.2 kmh 29.79 in1008.8 mb 0.00 in0.0 mm 0.00 in0.0 mm 0.00 in0.0 mm
05:34 PM 27.0°F-2.8°C 5.4°F-14.8°C 39% 7.3 mph NNW11.7 kmh NNW 11.9 mph19.2 kmh 29.79 in1008.8 mb 0.00 in0.0 mm 0.00 in0.0 mm 0.00 in0.0 mm
05:35 PM 27.0°F-2.8°C 5.4°F-14.8°C 39% 6.3 mph W10.1 kmh W 11.9 mph19.2 kmh 29.79 in1008.8 mb 0.00 in0.0 mm 0.00 in0.0 mm 0.00 in0.0 mm
05:36 PM 26.8°F-2.9°C 5.2°F-14.9°C 39% 6.3 mph WNW10.1 kmh WNW 11.9 mph19.2 kmh 29.79 in1008.8 mb 0.00 in0.0 mm 0.00 in0.0 mm 0.00 in0.0 mm
05:37 PM 26.8°F-2.9°C 5.2°F-14.9°C 39% 7.3 mph W11.7 kmh W 11.9 mph19.2 kmh 29.79 in1008.8 mb 0.00 in0.0 mm 0.00 in0.0 mm 0.00 in0.0 mm
05:38 PM 26.8°F-2.9°C 5.2°F-14.9°C 39% 8.3 mph W13.4 kmh W 11.9 mph19.2 kmh 29.79 in1008.8 mb 0.00 in0.0 mm 0.00 in0.0 mm 0.00 in0.0 mm
05:39 PM 26.8°F-2.9°C 5.2°F-14.9°C 39% 10.4 mph NNE16.7 kmh NNE 11.9 mph19.2 kmh 29.79 in1008.8 mb 0.00 in0.0 mm 0.00 in0.0 mm 0.00 in0.0 mm
05:40 PM 26.8°F-2.9°C 5.2°F-14.9°C 39% 8.9 mph E14.3 kmh E 11.9 mph19.2 kmh 29.79 in1008.8 mb 0.00 in0.0 mm 0.00 in0.0 mm 0.00 in0.0 mm
05:41 PM 26.6°F-3.0°C 5.0°F-15.0°C 39% 6.3 mph WNW10.1 kmh WNW 11.9 mph19.2 kmh 29.79 in1008.8 mb 0.00 in0.0 mm 0.00 in0.0 mm 0.00 in0.0 mm
05:42 PM 26.6°F-3.0°C 5.0°F-15.0°C 39% 6.8 mph WNW10.9 kmh WNW 11.4 mph18.3 kmh 29.79 in1008.8 mb 0.00 in0.0 mm 0.00 in0.0 mm 0.00 in0.0 mm
05:43 PM 26.6°F-3.0°C 5.0°F-15.0°C 39% 5.3 mph WSW8.5 kmh WSW 11.4 mph18.3 kmh 29.79 in1008.8 mb 0.00 in0.0 mm 0.00 in0.0 mm 0.00 in0.0 mm
05:44 PM 26.6°F-3.0°C 5.6°F-14.7°C 40% 8.3 mph W13.4 kmh W 11.4 mph18.3 kmh 29.79 in1008.8 mb 0.00 in0.0 mm 0.00 in0.0 mm 0.00 in0.0 mm
05:45 PM 26.8°F-2.9°C 5.2°F-14.9°C 39% 9.4 mph W15.1 kmh W 13.0 mph20.9 kmh 29.79 in1008.8 mb 0.00 in0.0 mm 0.00 in0.0 mm 0.00 in0.0 mm
05:46 PM 26.8°F-2.9°C 5.2°F-14.9°C 39% 10.4 mph W16.7 kmh W 13.0 mph20.9 kmh 29.79 in1008.8 mb 0.00 in0.0 mm 0.00 in0.0 mm 0.00 in0.0 mm
05:47 PM 26.8°F-2.9°C 5.2°F-14.9°C 39% 11.4 mph WNW18.3 kmh WNW 13.0 mph20.9 kmh 29.79 in1008.8 mb 0.00 in0.0 mm 0.00 in0.0 mm 0.00 in0.0 mm
05:48 PM 26.8°F-2.9°C 5.2°F-14.9°C 39% 8.9 mph W14.3 kmh W 13.0 mph20.9 kmh 29.79 in1008.8 mb 0.00 in0.0 mm 0.00 in0.0 mm 0.00 in0.0 mm
05:49 PM 26.6°F-3.0°C 5.0°F-15.0°C 39% 4.7 mph WSW7.6 kmh WSW 13.0 mph20.9 kmh 29.79 in1008.8 mb 0.00 in0.0 mm 0.00 in0.0 mm 0.00 in0.0 mm
05:50 PM 26.6°F-3.0°C 5.0°F-15.0°C 39% 6.8 mph WNW10.9 kmh WNW 13.0 mph20.9 kmh 29.79 in1008.8 mb 0.00 in0.0 mm 0.00 in0.0 mm 0.00 in0.0 mm
05:51 PM 26.6°F-3.0°C 5.0°F-15.0°C 39% 5.8 mph W9.3 kmh W 13.0 mph20.9 kmh 29.79 in1008.8 mb 0.00 in0.0 mm 0.00 in0.0 mm 0.00 in0.0 mm
05:52 PM 26.6°F-3.0°C 5.0°F-15.0°C 39% 5.8 mph NNW9.3 kmh NNW 13.0 mph20.9 kmh 29.79 in1008.8 mb 0.00 in0.0 mm 0.00 in0.0 mm 0.00 in0.0 mm
05:53 PM 26.6°F-3.0°C 5.0°F-15.0°C 39% 11.4 mph W18.3 kmh W 13.0 mph20.9 kmh 29.80 in1009.1 mb 0.00 in0.0 mm 0.00 in0.0 mm 0.00 in0.0 mm
05:54 PM 26.4°F-3.1°C 4.8°F-15.1°C 39% 5.8 mph NNW9.3 kmh NNW 13.0 mph20.9 kmh 29.80 in1009.1 mb 0.00 in0.0 mm 0.00 in0.0 mm 0.00 in0.0 mm
05:55 PM 26.4°F-3.1°C 4.8°F-15.1°C 39% 12.5 mph W20.1 kmh W 12.5 mph20.1 kmh 29.80 in1009.1 mb 0.00 in0.0 mm 0.00 in0.0 mm 0.00 in0.0 mm
05:56 PM 26.4°F-3.1°C 4.8°F-15.1°C 39% 10.4 mph WSW16.7 kmh WSW 12.5 mph20.1 kmh 29.80 in1009.1 mb 0.00 in0.0 mm 0.00 in0.0 mm 0.00 in0.0 mm
05:57 PM 26.4°F-3.1°C 4.8°F-15.1°C 39% 5.3 mph NW8.5 kmh NW 12.5 mph20.1 kmh 29.80 in1009.1 mb 0.00 in0.0 mm 0.00 in0.0 mm 0.00 in0.0 mm
05:58 PM 26.4°F-3.1°C 4.8°F-15.1°C 39% 9.4 mph N15.1 kmh N 12.5 mph20.1 kmh 29.80 in1009.1 mb 0.00 in0.0 mm 0.00 in0.0 mm 0.00 in0.0 mm
05:59 PM 26.2°F-3.2°C 4.7°F-15.2°C 39% 9.4 mph WSW15.1 kmh WSW 12.5 mph20.1 kmh 29.80 in1009.1 mb 0.00 in0.0 mm 0.00 in0.0 mm 0.00 in0.0 mm
06:00 PM 26.2°F-3.2°C 4.7°F-15.2°C 39% 6.8 mph W10.9 kmh W 12.5 mph20.1 kmh 29.80 in1009.1 mb 0.00 in0.0 mm 0.00 in0.0 mm 0.00 in0.0 mm
06:01 PM 26.2°F-3.2°C 4.7°F-15.2°C 39% 4.7 mph W7.6 kmh W 12.5 mph20.1 kmh 29.80 in1009.1 mb 0.00 in0.0 mm 0.00 in0.0 mm 0.00 in0.0 mm
06:02 PM 26.2°F-3.2°C 4.7°F-15.2°C 39% 4.7 mph W7.6 kmh W 12.5 mph20.1 kmh 29.80 in1009.1 mb 0.00 in0.0 mm 0.00 in0.0 mm 0.00 in0.0 mm
06:03 PM 26.1°F-3.3°C 5.1°F-14.9°C 40% 4.7 mph W7.6 kmh W 12.5 mph20.1 kmh 29.80 in1009.1 mb 0.00 in0.0 mm 0.00 in0.0 mm 0.00 in0.0 mm
06:04 PM 26.1°F-3.3°C 5.1°F-14.9°C 40% 5.3 mph W8.5 kmh W 12.5 mph20.1 kmh 29.80 in1009.1 mb 0.00 in0.0 mm 0.00 in0.0 mm 0.00 in0.0 mm
06:05 PM 26.1°F-3.3°C 5.1°F-14.9°C 40% 5.8 mph NNW9.3 kmh NNW 10.4 mph16.7 kmh 29.81 in1009.5 mb 0.00 in0.0 mm 0.00 in0.0 mm 0.00 in0.0 mm
06:06 PM 25.9°F-3.4°C 5.5°F-14.7°C 41% 4.7 mph SW7.6 kmh SW 9.9 mph15.9 kmh 29.81 in1009.5 mb 0.00 in0.0 mm 0.00 in0.0 mm 0.00 in0.0 mm
06:07 PM 25.9°F-3.4°C 5.5°F-14.7°C 41% 8.9 mph W14.3 kmh W 9.9 mph15.9 kmh 29.81 in1009.5 mb 0.00 in0.0 mm 0.00 in0.0 mm 0.00 in0.0 mm
06:08 PM 25.9°F-3.4°C 5.5°F-14.7°C 41% 8.9 mph W14.3 kmh W 9.9 mph15.9 kmh 29.81 in1009.5 mb 0.00 in0.0 mm 0.00 in0.0 mm 0.00 in0.0 mm
06:09 PM 25.9°F-3.4°C 4.9°F-15.1°C 40% 11.9 mph NNE19.2 kmh NNE 11.9 mph19.2 kmh 29.81 in1009.5 mb 0.00 in0.0 mm 0.00 in0.0 mm 0.00 in0.0 mm
06:10 PM 26.1°F-3.3°C 5.1°F-14.9°C 40% 7.8 mph WNW12.6 kmh WNW 14.5 mph23.3 kmh 29.81 in1009.5 mb 0.00 in0.0 mm 0.00 in0.0 mm 0.00 in0.0 mm
06:11 PM 26.1°F-3.3°C 5.1°F-14.9°C 40% 10.4 mph W16.7 kmh W 14.5 mph23.3 kmh 29.81 in1009.5 mb 0.00 in0.0 mm 0.00 in0.0 mm 0.00 in0.0 mm
08:23 PM 22.6°F-5.2°C 2.0°F-16.7°C 40% 16.1 mph WNW25.9 kmh WNW 16.1 mph25.9 kmh 29.89 in1012.2 mb 0.00 in0.0 mm 0.00 in0.0 mm 0.00 in0.0 mm
08:24 PM 22.6°F-5.2°C 2.0°F-16.7°C 40% 8.9 mph WNW14.3 kmh WNW 16.1 mph25.9 kmh 29.89 in1012.2 mb 0.00 in0.0 mm 0.00 in0.0 mm 0.00 in0.0 mm
08:25 PM 22.6°F-5.2°C 2.0°F-16.7°C 40% 12.5 mph W20.1 kmh W 16.1 mph25.9 kmh 29.89 in1012.2 mb 0.00 in0.0 mm 0.00 in0.0 mm 0.00 in0.0 mm
08:26 PM 22.6°F-5.2°C 2.0°F-16.7°C 40% 5.8 mph W9.3 kmh W 16.1 mph25.9 kmh 29.89 in1012.2 mb 0.00 in0.0 mm 0.00 in0.0 mm 0.00 in0.0 mm
08:27 PM 22.5°F-5.3°C 2.4°F-16.4°C 41% 6.3 mph W10.1 kmh W 16.1 mph25.9 kmh 29.89 in1012.2 mb 0.00 in0.0 mm 0.00 in0.0 mm 0.00 in0.0 mm
08:28 PM 22.5°F-5.3°C 2.4°F-16.4°C 41% 8.3 mph NW13.4 kmh NW 16.1 mph25.9 kmh 29.89 in1012.2 mb 0.00 in0.0 mm 0.00 in0.0 mm 0.00 in0.0 mm
08:29 PM 22.3°F-5.4°C 2.2°F-16.6°C 41% 7.8 mph W12.6 kmh W 16.1 mph25.9 kmh 29.90 in1012.5 mb 0.00 in0.0 mm 0.00 in0.0 mm 0.00 in0.0 mm
08:30 PM 22.3°F-5.4°C 2.2°F-16.6°C 41% 11.4 mph N18.3 kmh N 16.1 mph25.9 kmh 29.90 in1012.5 mb 0.00 in0.0 mm 0.00 in0.0 mm 0.00 in0.0 mm
08:31 PM 22.3°F-5.4°C 2.2°F-16.6°C 41% 5.3 mph W8.5 kmh W 16.1 mph25.9 kmh 29.90 in1012.5 mb 0.00 in0.0 mm 0.00 in0.0 mm 0.00 in0.0 mm
08:32 PM 22.3°F-5.4°C 2.2°F-16.6°C 41% 6.8 mph N10.9 kmh N 16.1 mph25.9 kmh 29.90 in1012.5 mb 0.00 in0.0 mm 0.00 in0.0 mm 0.00 in0.0 mm
08:33 PM 22.3°F-5.4°C 2.7°F-16.3°C 42% 9.9 mph W15.9 kmh W 16.1 mph25.9 kmh 29.90 in1012.5 mb 0.00 in0.0 mm 0.00 in0.0 mm 0.00 in0.0 mm
08:34 PM 22.3°F-5.4°C 2.7°F-16.3°C 42% 6.8 mph NW10.9 kmh NW 14.5 mph23.3 kmh 29.90 in1012.5 mb 0.00 in0.0 mm 0.00 in0.0 mm 0.00 in0.0 mm
08:35 PM 22.3°F-5.4°C 2.7°F-16.3°C 42% 7.3 mph WSW11.7 kmh WSW 12.5 mph20.1 kmh 29.90 in1012.5 mb 0.00 in0.0 mm 0.00 in0.0 mm 0.00 in0.0 mm
08:36 PM 22.1°F-5.5°C 2.6°F-16.3°C 42% 8.9 mph W14.3 kmh W 11.4 mph18.3 kmh 29.90 in1012.5 mb 0.00 in0.0 mm 0.00 in0.0 mm 0.00 in0.0 mm
08:37 PM 22.1°F-5.5°C 2.6°F-16.3°C 42% 9.4 mph W15.1 kmh W 11.4 mph18.3 kmh 29.90 in1012.5 mb 0.00 in0.0 mm 0.00 in0.0 mm 0.00 in0.0 mm
08:38 PM 22.1°F-5.5°C 2.6°F-16.3°C 42% 9.9 mph NE15.9 kmh NE 11.4 mph18.3 kmh 29.90 in1012.5 mb 0.00 in0.0 mm 0.00 in0.0 mm 0.00 in0.0 mm
08:39 PM 22.1°F-5.5°C 2.6°F-16.3°C 42% 7.8 mph WNW12.6 kmh WNW 11.4 mph18.3 kmh 29.90 in1012.5 mb 0.00 in0.0 mm 0.00 in0.0 mm 0.00 in0.0 mm
08:40 PM 22.1°F-5.5°C 2.6°F-16.3°C 42% 9.9 mph W15.9 kmh W 14.0 mph22.5 kmh 29.90 in1012.5 mb 0.00 in0.0 mm 0.00 in0.0 mm 0.00 in0.0 mm
08:41 PM 22.1°F-5.5°C 2.6°F-16.3°C 42% 12.5 mph NW20.1 kmh NW 14.0 mph22.5 kmh 29.91 in1012.9 mb 0.00 in0.0 mm 0.00 in0.0 mm 0.00 in0.0 mm
08:42 PM 22.1°F-5.5°C 2.6°F-16.3°C 42% 10.4 mph W16.7 kmh W 14.0 mph22.5 kmh 29.91 in1012.9 mb 0.00 in0.0 mm 0.00 in0.0 mm 0.00 in0.0 mm
08:43 PM 22.1°F-5.5°C 2.6°F-16.3°C 42% 7.3 mph W11.7 kmh W 14.0 mph22.5 kmh 29.91 in1012.9 mb 0.00 in0.0 mm 0.00 in0.0 mm 0.00 in0.0 mm
08:44 PM 22.1°F-5.5°C 2.6°F-16.3°C 42% 9.4 mph WSW15.1 kmh WSW 14.0 mph22.5 kmh 29.91 in1012.9 mb 0.00 in0.0 mm 0.00 in0.0 mm 0.00 in0.0 mm
08:45 PM 22.1°F-5.5°C 2.6°F-16.3°C 42% 6.8 mph N10.9 kmh N 14.0 mph22.5 kmh 29.91 in1012.9 mb 0.00 in0.0 mm 0.00 in0.0 mm 0.00 in0.0 mm
08:46 PM 22.1°F-5.5°C 2.6°F-16.3°C 42% 6.8 mph WNW10.9 kmh WNW 14.0 mph22.5 kmh 29.91 in1012.9 mb 0.00 in0.0 mm 0.00 in0.0 mm 0.00 in0.0 mm
08:47 PM 21.9°F-5.6°C 2.4°F-16.4°C 42% 14.0 mph W22.5 kmh W 14.0 mph22.5 kmh 29.91 in1012.9 mb 0.00 in0.0 mm 0.00 in0.0 mm 0.00 in0.0 mm
08:49 PM 21.9°F-5.6°C 2.4°F-16.4°C 42% 12.5 mph W20.1 kmh W 14.0 mph22.5 kmh 29.91 in1012.9 mb 0.00 in0.0 mm 0.00 in0.0 mm 0.00 in0.0 mm
08:50 PM 21.9°F-5.6°C 2.4°F-16.4°C 42% 7.3 mph NNW11.7 kmh NNW 14.0 mph22.5 kmh 29.91 in1012.9 mb 0.00 in0.0 mm 0.00 in0.0 mm 0.00 in0.0 mm
08:51 PM 21.9°F-5.6°C 2.4°F-16.4°C 42% 11.4 mph W18.3 kmh W 14.0 mph22.5 kmh 29.91 in1012.9 mb 0.00 in0.0 mm 0.00 in0.0 mm 0.00 in0.0 mm
08:52 PM 21.9°F-5.6°C 2.4°F-16.4°C 42% 8.9 mph W14.3 kmh W 14.0 mph22.5 kmh 29.91 in1012.9 mb 0.00 in0.0 mm 0.00 in0.0 mm 0.00 in0.0 mm
08:53 PM 21.9°F-5.6°C 2.4°F-16.4°C 42% 5.8 mph NNW9.3 kmh NNW 14.0 mph22.5 kmh 29.92 in1013.2 mb 0.00 in0.0 mm 0.00 in0.0 mm 0.00 in0.0 mm
08:54 PM 21.7°F-5.7°C 2.2°F-16.6°C 42% 7.8 mph WNW12.6 kmh WNW 14.0 mph22.5 kmh 29.92 in1013.2 mb 0.00 in0.0 mm 0.00 in0.0 mm 0.00 in0.0 mm
08:55 PM 21.7°F-5.7°C 2.2°F-16.6°C 42% 11.4 mph WNW18.3 kmh WNW 14.0 mph22.5 kmh 29.92 in1013.2 mb 0.00 in0.0 mm 0.00 in0.0 mm 0.00 in0.0 mm
08:56 PM 21.7°F-5.7°C 2.2°F-16.6°C 42% 6.3 mph NNW10.1 kmh NNW 14.0 mph22.5 kmh 29.92 in1013.2 mb 0.00 in0.0 mm 0.00 in0.0 mm 0.00 in0.0 mm
08:57 PM 21.7°F-5.7°C 2.2°F-16.6°C 42% 8.3 mph WNW13.4 kmh WNW 14.0 mph22.5 kmh 29.92 in1013.2 mb 0.00 in0.0 mm 0.00 in0.0 mm 0.00 in0.0 mm
08:58 PM 21.6°F-5.8°C 2.1°F-16.6°C 42% 7.8 mph WNW12.6 kmh WNW 13.0 mph20.9 kmh 29.92 in1013.2 mb 0.00 in0.0 mm 0.00 in0.0 mm 0.00 in0.0 mm
08:59 PM 21.6°F-5.8°C 2.1°F-16.6°C 42% 6.3 mph SW10.1 kmh SW 13.0 mph20.9 kmh 29.92 in1013.2 mb 0.00 in0.0 mm 0.00 in0.0 mm 0.00 in0.0 mm
09:00 PM 21.6°F-5.8°C 2.6°F-16.3°C 43% 10.4 mph SW16.7 kmh SW 13.0 mph20.9 kmh 29.92 in1013.2 mb 0.00 in0.0 mm 0.00 in0.0 mm 0.00 in0.0 mm
09:01 PM 21.6°F-5.8°C 2.6°F-16.3°C 43% 6.8 mph WNW10.9 kmh WNW 11.4 mph18.3 kmh 29.92 in1013.2 mb 0.00 in0.0 mm 0.00 in0.0 mm 0.00 in0.0 mm
09:02 PM 21.4°F-5.9°C 2.4°F-16.4°C 43% 6.8 mph SW10.9 kmh SW 16.6 mph26.7 kmh 29.92 in1013.2 mb 0.00 in0.0 mm 0.00 in0.0 mm 0.00 in0.0 mm
09:03 PM 21.4°F-5.9°C 2.4°F-16.4°C 43% 12.5 mph W20.1 kmh W 16.6 mph26.7 kmh 29.92 in1013.2 mb 0.00 in0.0 mm 0.00 in0.0 mm 0.00 in0.0 mm
09:04 PM 21.4°F-5.9°C 1.9°F-16.7°C 42% 7.3 mph W11.7 kmh W 16.6 mph26.7 kmh 29.92 in1013.2 mb 0.00 in0.0 mm 0.00 in0.0 mm 0.00 in0.0 mm
09:05 PM 21.4°F-5.9°C 1.9°F-16.7°C 42% 5.8 mph W9.3 kmh W 16.6 mph26.7 kmh 29.92 in1013.2 mb 0.00 in0.0 mm 0.00 in0.0 mm 0.00 in0.0 mm
09:06 PM 21.4°F-5.9°C 1.9°F-16.7°C 42% 4.2 mph W6.8 kmh W 16.6 mph26.7 kmh 29.92 in1013.2 mb 0.00 in0.0 mm 0.00 in0.0 mm 0.00 in0.0 mm
09:07 PM 21.2°F-6.0°C 2.2°F-16.6°C 43% 8.9 mph WSW14.3 kmh WSW 16.6 mph26.7 kmh 29.92 in1013.2 mb 0.00 in0.0 mm 0.00 in0.0 mm 0.00 in0.0 mm
09:08 PM 21.2°F-6.0°C 2.2°F-16.6°C 43% 7.8 mph WSW12.6 kmh WSW 16.6 mph26.7 kmh 29.92 in1013.2 mb 0.00 in0.0 mm 0.00 in0.0 mm 0.00 in0.0 mm
09:09 PM 21.2°F-6.0°C 2.2°F-16.6°C 43% 7.3 mph WNW11.7 kmh WNW 16.6 mph26.7 kmh 29.92 in1013.2 mb 0.00 in0.0 mm 0.00 in0.0 mm 0.00 in0.0 mm
09:10 PM 21.0°F-6.1°C 2.1°F-16.6°C 43% 6.3 mph W10.1 kmh W 16.6 mph26.7 kmh 29.92 in1013.2 mb 0.00 in0.0 mm 0.00 in0.0 mm 0.00 in0.0 mm
09:11 PM 20.8°F-6.2°C 1.9°F-16.7°C 43% 7.3 mph N11.7 kmh N 16.6 mph26.7 kmh 29.92 in1013.2 mb 0.00 in0.0 mm 0.00 in0.0 mm 0.00 in0.0 mm
09:12 PM 20.8°F-6.2°C 1.9°F-16.7°C 43% 6.3 mph W10.1 kmh W 12.5 mph20.1 kmh 29.92 in1013.2 mb 0.00 in0.0 mm 0.00 in0.0 mm 0.00 in0.0 mm
09:13 PM 20.8°F-6.2°C 1.9°F-16.7°C 43% 10.4 mph W16.7 kmh W 18.1 mph29.1 kmh 29.92 in1013.2 mb 0.00 in0.0 mm 0.00 in0.0 mm 0.00 in0.0 mm
09:14 PM 21.0°F-6.1°C 2.1°F-16.6°C 43% 5.8 mph W9.3 kmh W 18.1 mph29.1 kmh 29.92 in1013.2 mb 0.00 in0.0 mm 0.00 in0.0 mm 0.00 in0.0 mm
09:15 PM 21.0°F-6.1°C 2.1°F-16.6°C 43% 10.4 mph N16.7 kmh N 18.1 mph29.1 kmh 29.92 in1013.2 mb 0.00 in0.0 mm 0.00 in0.0 mm 0.00 in0.0 mm
09:16 PM 21.0°F-6.1°C 1.6°F-16.9°C 42% 8.9 mph WNW14.3 kmh WNW 18.1 mph29.1 kmh 29.92 in1013.2 mb 0.00 in0.0 mm 0.00 in0.0 mm 0.00 in0.0 mm
09:17 PM 21.0°F-6.1°C 1.6°F-16.9°C 42% 13.0 mph WNW20.9 kmh WNW 18.1 mph29.1 kmh 29.93 in1013.5 mb 0.00 in0.0 mm 0.00 in0.0 mm 0.00 in0.0 mm
09:18 PM 21.0°F-6.1°C 1.6°F-16.9°C 42% 13.0 mph W20.9 kmh W 18.1 mph29.1 kmh 29.93 in1013.5 mb 0.00 in0.0 mm 0.00 in0.0 mm 0.00 in0.0 mm
09:19 PM 21.0°F-6.1°C 1.6°F-16.9°C 42% 6.3 mph W10.1 kmh W 18.1 mph29.1 kmh 29.93 in1013.5 mb 0.00 in0.0 mm 0.00 in0.0 mm 0.00 in0.0 mm
09:20 PM 21.0°F-6.1°C 1.6°F-16.9°C 42% 8.3 mph W13.4 kmh W 18.1 mph29.1 kmh 29.93 in1013.5 mb 0.00 in0.0 mm 0.00 in0.0 mm 0.00 in0.0 mm
09:21 PM 21.0°F-6.1°C 1.6°F-16.9°C 42% 9.9 mph W15.9 kmh W 18.1 mph29.1 kmh 29.93 in1013.5 mb 0.00 in0.0 mm 0.00 in0.0 mm 0.00 in0.0 mm
09:22 PM 21.0°F-6.1°C 1.6°F-16.9°C 42% 10.9 mph NNW17.5 kmh NNW 18.1 mph29.1 kmh 29.93 in1013.5 mb 0.00 in0.0 mm 0.00 in0.0 mm 0.00 in0.0 mm
09:23 PM 21.0°F-6.1°C 1.6°F-16.9°C 42% 5.8 mph SW9.3 kmh SW 16.1 mph25.9 kmh 29.93 in1013.5 mb 0.00 in0.0 mm 0.00 in0.0 mm 0.00 in0.0 mm
09:24 PM 21.0°F-6.1°C 1.0°F-17.2°C 41% 8.9 mph W14.3 kmh W 16.1 mph25.9 kmh 29.93 in1013.5 mb 0.00 in0.0 mm 0.00 in0.0 mm 0.00 in0.0 mm
09:25 PM 21.0°F-6.1°C 1.0°F-17.2°C 41% 6.8 mph W10.9 kmh W 16.1 mph25.9 kmh 29.93 in1013.5 mb 0.00 in0.0 mm 0.00 in0.0 mm 0.00 in0.0 mm
09:26 PM 20.8°F-6.2°C 1.4°F-17.0°C 42% 14.0 mph W22.5 kmh W 16.1 mph25.9 kmh 29.93 in1013.5 mb 0.00 in0.0 mm 0.00 in0.0 mm 0.00 in0.0 mm
09:27 PM 20.8°F-6.2°C 1.4°F-17.0°C 42% 9.4 mph W15.1 kmh W 16.1 mph25.9 kmh 29.93 in1013.5 mb 0.00 in0.0 mm 0.00 in0.0 mm 0.00 in0.0 mm
09:28 PM 20.8°F-6.2°C 1.4°F-17.0°C 42% 8.3 mph W13.4 kmh W 16.1 mph25.9 kmh 29.93 in1013.5 mb 0.00 in0.0 mm 0.00 in0.0 mm 0.00 in0.0 mm
09:29 PM 20.8°F-6.2°C 1.4°F-17.0°C 42% 5.8 mph W9.3 kmh W 16.1 mph25.9 kmh 29.93 in1013.5 mb 0.00 in0.0 mm 0.00 in0.0 mm 0.00 in0.0 mm
09:30 PM 20.7°F-6.3°C 1.3°F-17.1°C 42% 7.8 mph W12.6 kmh W 16.1 mph25.9 kmh 29.93 in1013.5 mb 0.00 in0.0 mm 0.00 in0.0 mm 0.00 in0.0 mm
09:31 PM 20.7°F-6.3°C 1.3°F-17.1°C 42% 11.4 mph WSW18.3 kmh WSW 16.1 mph25.9 kmh 29.93 in1013.5 mb 0.00 in0.0 mm 0.00 in0.0 mm 0.00 in0.0 mm
09:32 PM 20.7°F-6.3°C 1.3°F-17.1°C 42% 8.9 mph W14.3 kmh W 16.1 mph25.9 kmh 29.93 in1013.5 mb 0.00 in0.0 mm 0.00 in0.0 mm 0.00 in0.0 mm
09:33 PM 20.7°F-6.3°C 1.3°F-17.1°C 42% 10.9 mph W17.5 kmh W 14.0 mph22.5 kmh 29.93 in1013.5 mb 0.00 in0.0 mm 0.00 in0.0 mm 0.00 in0.0 mm
09:34 PM 20.7°F-6.3°C 1.3°F-17.1°C 42% 12.5 mph NNE20.1 kmh NNE 14.0 mph22.5 kmh 29.93 in1013.5 mb 0.00 in0.0 mm 0.00 in0.0 mm 0.00 in0.0 mm
09:35 PM 20.7°F-6.3°C 1.3°F-17.1°C 42% 8.3 mph WSW13.4 kmh WSW 14.0 mph22.5 kmh 29.93 in1013.5 mb 0.00 in0.0 mm 0.00 in0.0 mm 0.00 in0.0 mm
09:36 PM 20.7°F-6.3°C 1.3°F-17.1°C 42% 12.5 mph W20.1 kmh W 14.0 mph22.5 kmh 29.93 in1013.5 mb 0.00 in0.0 mm 0.00 in0.0 mm 0.00 in0.0 mm
09:37 PM 20.7°F-6.3°C 1.3°F-17.1°C 42% 6.8 mph W10.9 kmh W 14.0 mph22.5 kmh 29.93 in1013.5 mb 0.00 in0.0 mm 0.00 in0.0 mm 0.00 in0.0 mm
09:38 PM 20.5°F-6.4°C 1.1°F-17.2°C 42% 9.4 mph SW15.1 kmh SW 14.0 mph22.5 kmh 29.93 in1013.5 mb 0.00 in0.0 mm 0.00 in0.0 mm 0.00 in0.0 mm
09:39 PM 20.5°F-6.4°C 1.1°F-17.2°C 42% 7.3 mph N11.7 kmh N 14.0 mph22.5 kmh 29.93 in1013.5 mb 0.00 in0.0 mm 0.00 in0.0 mm 0.00 in0.0 mm
09:40 PM 20.5°F-6.4°C 1.1°F-17.2°C 42% 5.8 mph W9.3 kmh W 14.0 mph22.5 kmh 29.93 in1013.5 mb 0.00 in0.0 mm 0.00 in0.0 mm 0.00 in0.0 mm
09:41 PM 20.5°F-6.4°C 1.1°F-17.2°C 42% 9.4 mph W15.1 kmh W 12.5 mph20.1 kmh 29.94 in1013.9 mb 0.00 in0.0 mm 0.00 in0.0 mm 0.00 in0.0 mm
09:42 PM 20.5°F-6.4°C 1.1°F-17.2°C 42% 10.9 mph W17.5 kmh W 14.5 mph23.3 kmh 29.94 in1013.9 mb 0.00 in0.0 mm 0.00 in0.0 mm 0.00 in0.0 mm
09:43 PM 20.5°F-6.4°C 1.1°F-17.2°C 42% 7.3 mph NW11.7 kmh NW 14.5 mph23.3 kmh 29.94 in1013.9 mb 0.00 in0.0 mm 0.00 in0.0 mm 0.00 in0.0 mm
09:44 PM 20.5°F-6.4°C 1.1°F-17.2°C 42% 9.4 mph N15.1 kmh N 14.5 mph23.3 kmh 29.94 in1013.9 mb 0.00 in0.0 mm 0.00 in0.0 mm 0.00 in0.0 mm
09:45 PM 20.5°F-6.4°C 1.1°F-17.2°C 42% 8.3 mph N13.4 kmh N 14.5 mph23.3 kmh 29.94 in1013.9 mb 0.00 in0.0 mm 0.00 in0.0 mm 0.00 in0.0 mm
09:46 PM 20.3°F-6.5°C 1.4°F-17.0°C 43% 6.8 mph WNW10.9 kmh WNW 14.5 mph23.3 kmh 29.94 in1013.9 mb 0.00 in0.0 mm 0.00 in0.0 mm 0.00 in0.0 mm
09:47 PM 20.3°F-6.5°C 1.4°F-17.0°C 43% 14.0 mph NW22.5 kmh NW 14.5 mph23.3 kmh 29.94 in1013.9 mb 0.00 in0.0 mm 0.00 in0.0 mm 0.00 in0.0 mm
09:48 PM 20.3°F-6.5°C 1.4°F-17.0°C 43% 11.4 mph NW18.3 kmh NW 14.5 mph23.3 kmh 29.94 in1013.9 mb 0.00 in0.0 mm 0.00 in0.0 mm 0.00 in0.0 mm
09:49 PM 20.3°F-6.5°C 1.4°F-17.0°C 43% 8.3 mph W13.4 kmh W 14.5 mph23.3 kmh 29.94 in1013.9 mb 0.00 in0.0 mm 0.00 in0.0 mm 0.00 in0.0 mm
09:50 PM 20.3°F-6.5°C 1.4°F-17.0°C 43% 11.9 mph W19.2 kmh W 14.5 mph23.3 kmh 29.94 in1013.9 mb 0.00 in0.0 mm 0.00 in0.0 mm 0.00 in0.0 mm
09:51 PM 20.3°F-6.5°C 1.4°F-17.0°C 43% 7.3 mph NW11.7 kmh NW 14.5 mph23.3 kmh 29.94 in1013.9 mb 0.00 in0.0 mm 0.00 in0.0 mm 0.00 in0.0 mm
09:52 PM 20.3°F-6.5°C 1.4°F-17.0°C 43% 7.8 mph WNW12.6 kmh WNW 14.0 mph22.5 kmh 29.94 in1013.9 mb 0.00 in0.0 mm 0.00 in0.0 mm 0.00 in0.0 mm
09:53 PM 20.3°F-6.5°C 1.4°F-17.0°C 43% 11.9 mph W19.2 kmh W 14.0 mph22.5 kmh 29.95 in1014.2 mb 0.00 in0.0 mm 0.00 in0.0 mm 0.00 in0.0 mm
09:54 PM 20.3°F-6.5°C 1.4°F-17.0°C 43% 11.4 mph WNW18.3 kmh WNW 14.0 mph22.5 kmh 29.95 in1014.2 mb 0.00 in0.0 mm 0.00 in0.0 mm 0.00 in0.0 mm
09:55 PM 20.3°F-6.5°C 1.4°F-17.0°C 43% 6.8 mph WNW10.9 kmh WNW 14.0 mph22.5 kmh 29.95 in1014.2 mb 0.00 in0.0 mm 0.00 in0.0 mm 0.00 in0.0 mm
09:56 PM 20.3°F-6.5°C 1.4°F-17.0°C 43% 7.3 mph NW11.7 kmh NW 14.0 mph22.5 kmh 29.95 in1014.2 mb 0.00 in0.0 mm 0.00 in0.0 mm 0.00 in0.0 mm
09:57 PM 20.1°F-6.6°C 1.2°F-17.1°C 43% 6.3 mph NW10.1 kmh NW 14.0 mph22.5 kmh 29.95 in1014.2 mb 0.00 in0.0 mm 0.00 in0.0 mm 0.00 in0.0 mm
09:58 PM 20.1°F-6.6°C 1.7°F-16.8°C 44% 11.9 mph W19.2 kmh W 11.9 mph19.2 kmh 29.95 in1014.2 mb 0.00 in0.0 mm 0.00 in0.0 mm 0.00 in0.0 mm
09:59 PM 20.1°F-6.6°C 1.7°F-16.8°C 44% 7.8 mph NNW12.6 kmh NNW 11.9 mph19.2 kmh 29.95 in1014.2 mb 0.00 in0.0 mm 0.00 in0.0 mm 0.00 in0.0 mm
10:00 PM 20.1°F-6.6°C 1.7°F-16.8°C 44% 7.3 mph WSW11.7 kmh WSW 11.9 mph19.2 kmh 29.95 in1014.2 mb 0.00 in0.0 mm 0.00 in0.0 mm 0.00 in0.0 mm
10:01 PM 19.9°F-6.7°C 1.5°F-16.9°C 44% 5.8 mph WNW9.3 kmh WNW 11.9 mph19.2 kmh 29.95 in1014.2 mb 0.00 in0.0 mm 0.00 in0.0 mm 0.00 in0.0 mm
10:02 PM 19.9°F-6.7°C 1.5°F-16.9°C 44% 9.9 mph W15.9 kmh W 11.9 mph19.2 kmh 29.95 in1014.2 mb 0.00 in0.0 mm 0.00 in0.0 mm 0.00 in0.0 mm
10:03 PM 19.9°F-6.7°C 1.5°F-16.9°C 44% 11.4 mph W18.3 kmh W 11.9 mph19.2 kmh 29.95 in1014.2 mb 0.00 in0.0 mm 0.00 in0.0 mm 0.00 in0.0 mm
10:09 PM 19.8°F-6.8°C 1.5°F-16.9°C 44% 8.9 mph W14.3 kmh W 11.4 mph18.3 kmh 29.95 in1014.2 mb 0.00 in0.0 mm 0.00 in0.0 mm 0.00 in0.0 mm
10:10 PM 19.8°F-6.8°C 1.5°F-16.9°C 44% 9.4 mph W15.1 kmh W 13.0 mph20.9 kmh 29.95 in1014.2 mb 0.00 in0.0 mm 0.00 in0.0 mm 0.00 in0.0 mm
10:11 PM 19.8°F-6.8°C 1.5°F-16.9°C 44% 10.4 mph W16.7 kmh W 13.0 mph20.9 kmh 29.95 in1014.2 mb 0.00 in0.0 mm 0.00 in0.0 mm 0.00 in0.0 mm
10:12 PM 19.8°F-6.8°C 1.5°F-16.9°C 44% 10.4 mph N16.7 kmh N 13.0 mph20.9 kmh 29.95 in1014.2 mb 0.00 in0.0 mm 0.00 in0.0 mm 0.00 in0.0 mm
10:13 PM 19.8°F-6.8°C 1.5°F-16.9°C 44% 7.8 mph WNW12.6 kmh WNW 13.0 mph20.9 kmh 29.95 in1014.2 mb 0.00 in0.0 mm 0.00 in0.0 mm 0.00 in0.0 mm
10:14 PM 19.8°F-6.8°C 1.5°F-16.9°C 44% 9.4 mph W15.1 kmh W 13.0 mph20.9 kmh 29.95 in1014.2 mb 0.00 in0.0 mm 0.00 in0.0 mm 0.00 in0.0 mm
10:15 PM 19.8°F-6.8°C 1.5°F-16.9°C 44% 8.3 mph NW13.4 kmh NW 13.0 mph20.9 kmh 29.95 in1014.2 mb 0.00 in0.0 mm 0.00 in0.0 mm 0.00 in0.0 mm
10:16 PM 19.8°F-6.8°C 1.5°F-16.9°C 44% 5.8 mph W9.3 kmh W 13.0 mph20.9 kmh 29.95 in1014.2 mb 0.00 in0.0 mm 0.00 in0.0 mm 0.00 in0.0 mm
10:17 PM 19.8°F-6.8°C 1.5°F-16.9°C 44% 7.8 mph W12.6 kmh W 13.0 mph20.9 kmh 29.96 in1014.6 mb 0.00 in0.0 mm 0.00 in0.0 mm 0.00 in0.0 mm
10:18 PM 19.8°F-6.8°C 1.5°F-16.9°C 44% 12.5 mph W20.1 kmh W 13.0 mph20.9 kmh 29.96 in1014.6 mb 0.00 in0.0 mm 0.00 in0.0 mm 0.00 in0.0 mm
10:19 PM 19.8°F-6.8°C 1.5°F-16.9°C 44% 6.3 mph NNW10.1 kmh NNW 13.0 mph20.9 kmh 29.96 in1014.6 mb 0.00 in0.0 mm 0.00 in0.0 mm 0.00 in0.0 mm
10:20 PM 19.8°F-6.8°C 1.5°F-16.9°C 44% 6.3 mph WSW10.1 kmh WSW 12.5 mph20.1 kmh 29.96 in1014.6 mb 0.00 in0.0 mm 0.00 in0.0 mm 0.00 in0.0 mm
10:21 PM 19.6°F-6.9°C 1.3°F-17.1°C 44% 11.4 mph WSW18.3 kmh WSW 12.5 mph20.1 kmh 29.96 in1014.6 mb 0.00 in0.0 mm 0.00 in0.0 mm 0.00 in0.0 mm
10:22 PM 19.6°F-6.9°C 1.3°F-17.1°C 44% 8.9 mph WNW14.3 kmh WNW 12.5 mph20.1 kmh 29.96 in1014.6 mb 0.00 in0.0 mm 0.00 in0.0 mm 0.00 in0.0 mm
10:23 PM 19.6°F-6.9°C 1.3°F-17.1°C 44% 6.8 mph W10.9 kmh W 12.5 mph20.1 kmh 29.96 in1014.6 mb 0.00 in0.0 mm 0.00 in0.0 mm 0.00 in0.0 mm
10:24 PM 19.6°F-6.9°C 1.3°F-17.1°C 44% 8.3 mph W13.4 kmh W 12.5 mph20.1 kmh 29.96 in1014.6 mb 0.00 in0.0 mm 0.00 in0.0 mm 0.00 in0.0 mm
10:25 PM 19.6°F-6.9°C 1.3°F-17.1°C 44% 7.3 mph NW11.7 kmh NW 12.5 mph20.1 kmh 29.96 in1014.6 mb 0.00 in0.0 mm 0.00 in0.0 mm 0.00 in0.0 mm
10:26 PM 19.6°F-6.9°C 1.3°F-17.1°C 44% 9.4 mph WNW15.1 kmh WNW 12.5 mph20.1 kmh 29.96 in1014.6 mb 0.00 in0.0 mm 0.00 in0.0 mm 0.00 in0.0 mm
10:27 PM 19.6°F-6.9°C 1.3°F-17.1°C 44% 12.5 mph W20.1 kmh W 12.5 mph20.1 kmh 29.96 in1014.6 mb 0.00 in0.0 mm 0.00 in0.0 mm 0.00 in0.0 mm
10:28 PM 19.6°F-6.9°C 1.3°F-17.1°C 44% 6.3 mph NNW10.1 kmh NNW 12.5 mph20.1 kmh 29.96 in1014.6 mb 0.00 in0.0 mm 0.00 in0.0 mm 0.00 in0.0 mm
10:29 PM 19.6°F-6.9°C 1.3°F-17.1°C 44% 6.3 mph W10.1 kmh W 12.5 mph20.1 kmh 29.96 in1014.6 mb 0.00 in0.0 mm 0.00 in0.0 mm 0.00 in0.0 mm
10:30 PM 19.6°F-6.9°C 1.3°F-17.1°C 44% 7.8 mph WNW12.6 kmh WNW 12.5 mph20.1 kmh 29.96 in1014.6 mb